Provisional Data: Sugar Run near Sugar Run, PA


Please select a monitoring station.
Please select start date.
Please select start date.

Toggle Unit: C/F Toggle Unit: C/F
Sample Time Temperature (C) Temperature (F) Specific Conductivity (mS/cm) pH   Turbidity (NTU+) DO (mg/L)
3/7/2021 12:00:00 AM 0.19 32.342 0.106 7.24 10.82 14.36
3/7/2021 12:15:00 AM 0.18 32.324 0.106 7.24 10.15 14.36
3/7/2021 12:30:00 AM 0.17 32.306 0.106 7.24 10.56 14.36
3/7/2021 12:45:00 AM 0.16 32.288 0.106 7.24 10.1 14.36
3/7/2021 1:00:00 AM 0.15 32.27 0.106 7.24 11 14.37
3/7/2021 1:15:00 AM 0.13 32.234 0.106 7.23 10.73 14.37
3/7/2021 1:30:00 AM 0.12 32.216 0.106 7.23 10.23 14.37
3/7/2021 1:45:00 AM 0.1 32.18 0.106 7.23 11.26 14.38
3/7/2021 2:00:00 AM 0.08 32.144 0.106 7.23 10.88 14.39
3/7/2021 2:15:00 AM 0.06 32.108 0.106 7.23 10.44 14.39
3/7/2021 2:30:00 AM 0.04 32.072 0.106 7.23 10.62 14.4
3/7/2021 2:45:00 AM 0.03 32.054 0.106 7.23 10.59 14.4
3/7/2021 3:00:00 AM -0.01 31.982 0.106 7.23 10.88 14.41
3/7/2021 3:15:00 AM -0.03 31.946 0.106 7.23 10.36 14.42
3/7/2021 3:30:00 AM -0.05 31.91 0.106 7.22 10.35 14.42
3/7/2021 3:45:00 AM -0.04 31.928 0.106 7.23 10.33 14.43
3/7/2021 4:00:00 AM -0.03 31.946 0.106 7.23 10.65 14.43
3/7/2021 4:15:00 AM -0.03 31.946 0.106 7.22 10.98 14.44
3/7/2021 4:30:00 AM -0.03 31.946 0.106 7.23 10.93 14.46
3/7/2021 4:45:00 AM -0.03 31.946 0.105 7.23 10.71 14.45
3/7/2021 5:00:00 AM -0.03 31.946 0.106 7.22 10.95 14.46
3/7/2021 5:15:00 AM -0.03 31.946 0.106 7.22 10.91 14.46
3/7/2021 5:30:00 AM -0.03 31.946 0.106 7.22 11.01 14.46
3/7/2021 5:45:00 AM -0.03 31.946 0.103 7.22 10.84 14.46
3/7/2021 6:00:00 AM -0.03 31.946 0.103 7.23 10.88 14.46
3/7/2021 6:15:00 AM -0.03 31.946 0.107 7.22 10.56 14.45
3/7/2021 6:30:00 AM -0.03 31.946 0.107 7.22 10.58 14.47
3/7/2021 6:45:00 AM -0.03 31.946 0.107 7.23 10.35 14.46
3/7/2021 7:00:00 AM -0.03 31.946 0.107 7.23 10.6 14.48
3/7/2021 7:15:00 AM -0.03 31.946 0.107 7.24 10.94 14.48
3/7/2021 7:30:00 AM -0.03 31.946 0.107 7.23 10.52 14.5
3/7/2021 7:45:00 AM -0.03 31.946 0.107 7.23 10.47 14.52
3/7/2021 8:00:00 AM -0.02 31.964 0.107 7.24 10.85 14.54
3/7/2021 8:15:00 AM -0.02 31.964 0.107 7.24 10.73 14.53
3/7/2021 8:30:00 AM -0.01 31.982 0.107 7.24 10.75 14.56
3/7/2021 8:45:00 AM -0.01 31.982 0.107 7.25 10.66 14.58
3/7/2021 9:00:00 AM 0 32 0.107 7.26 11.13 14.6
3/7/2021 9:15:00 AM 0.01 32.018 0.106 7.26 11.02 14.62
3/7/2021 9:30:00 AM 0.01 32.018 0.106 7.27 10.87 14.62
3/7/2021 9:45:00 AM 0.02 32.036 0.106 7.28 10.7 14.61
3/7/2021 10:00:00 AM 0.01 32.018 0.106 7.28 11.02 14.63
3/7/2021 10:15:00 AM 0.11 32.198 0.106 7.29 11.41 14.62
3/7/2021 10:30:00 AM 0.23 32.414 0.106 7.29 10.69 14.64
3/7/2021 10:45:00 AM 0.32 32.576 0.106 7.29 10.95 14.63
3/7/2021 11:00:00 AM 0.4 32.72 0.106 7.3 10.8 14.63
3/7/2021 11:15:00 AM 0.48 32.864 0.106 7.3 10.97 14.62
3/7/2021 11:30:00 AM 0.52 32.936 0.106 7.3 11.4 14.6
3/7/2021 11:45:00 AM 0.54 32.972 0.106 7.29 11.07 14.58
3/7/2021 12:00:00 PM 0.67 33.206 0.106 7.3 10.85 14.56
3/7/2021 12:15:00 PM 0.73 33.314 0.106 7.3 11.33 14.54
3/7/2021 12:30:00 PM 0.89 33.602 0.106 7.3 11.24 14.49
3/7/2021 12:45:00 PM 0.94 33.692 0.106 7.31 11.14 14.47
3/7/2021 1:00:00 PM 1.12 34.016 0.106 7.31 11.31 14.44
3/7/2021 1:15:00 PM 1.24 34.232 0.106 7.31 11.01 14.39
3/7/2021 1:30:00 PM 1.31 34.358 0.106 7.32 11.67 14.36
3/7/2021 1:45:00 PM 1.34 34.412 0.106 7.31 11.78 14.33
3/7/2021 2:00:00 PM 1.33 34.394 0.106 7.32 11.81 14.32
3/7/2021 2:15:00 PM 1.29 34.322 0.106 7.31 11.65 14.32
3/7/2021 2:30:00 PM 1.23 34.214 0.106 7.32 11.77 14.34
3/7/2021 2:45:00 PM 1.24 34.232 0.106 7.31 11.93 14.34
3/7/2021 3:00:00 PM 1.24 34.232 0.106 7.31 12.24 14.34
3/7/2021 3:15:00 PM 1.23 34.214 0.106 7.31 11.49 14.33
3/7/2021 3:30:00 PM 1.23 34.214 0.107 7.31 11.95 14.31
3/7/2021 3:45:00 PM 1.24 34.232 0.107 7.32 11.63 14.3
3/7/2021 4:00:00 PM 1.21 34.178 0.107 7.32 11.55 14.3
3/7/2021 4:15:00 PM 1.19 34.142 0.107 7.32 12.18 14.27
3/7/2021 4:30:00 PM 1.19 34.142 0.108 7.32 11.6 14.26
3/7/2021 4:45:00 PM 1.19 34.142 0.108 7.32 12.02 14.24
3/7/2021 5:00:00 PM 1.18 34.124 0.108 7.32 11.52 14.23
3/7/2021 5:15:00 PM 1.17 34.106 0.108 7.31 11.56 14.21
3/7/2021 5:30:00 PM 1.14 34.052 0.108 7.31 11.66 14.2
3/7/2021 5:45:00 PM 1.12 34.016 0.109 7.31 11.46 14.18
3/7/2021 6:00:00 PM 1.1 33.98 0.109 7.3 11.48 14.18
3/7/2021 6:15:00 PM 1.08 33.944 0.109 7.3 11.36 14.15
3/7/2021 6:30:00 PM 1.07 33.926 0.109 7.29 11.97 14.15
3/7/2021 6:45:00 PM 1.05 33.89 0.109 7.29 12.07 14.14
3/7/2021 7:00:00 PM 1.03 33.854 0.109 7.28 11.7 14.14
3/7/2021 7:15:00 PM 1.01 33.818 0.109 7.29 11.15 14.14
3/7/2021 7:30:00 PM 1 33.8 0.109 7.29 11.67 14.14
3/7/2021 7:45:00 PM 0.98 33.764 0.108 7.29 11.55 14.14
3/7/2021 8:00:00 PM 0.96 33.728 0.108 7.29 11.79 14.15
3/7/2021 8:15:00 PM 0.93 33.674 0.108 7.28 11.8 14.16
3/7/2021 8:30:00 PM 0.91 33.638 0.108 7.28 11.58 14.16
3/7/2021 8:45:00 PM 0.87 33.566 0.108 7.29 11.35 14.16
3/7/2021 9:00:00 PM 0.84 33.512 0.108 7.28 11.09 14.18
3/7/2021 9:15:00 PM 0.8 33.44 0.108 7.28 11.9 14.19
3/7/2021 9:30:00 PM 0.76 33.368 0.108 7.28 11.38 14.2
3/7/2021 9:45:00 PM 0.71 33.278 0.108 7.28 11.47 14.21
3/7/2021 10:00:00 PM 0.67 33.206 0.108 7.28 11.96 14.22
3/7/2021 10:15:00 PM 0.63 33.134 0.108 7.28 11.51 14.24
3/7/2021 10:30:00 PM 0.59 33.062 0.109 7.27 11.36 14.25
3/7/2021 10:45:00 PM 0.55 32.99 0.109 7.28 11.23 14.27
3/7/2021 11:00:00 PM 0.52 32.936 0.109 7.27 11.18 14.27
3/7/2021 11:15:00 PM 0.49 32.882 0.109 7.28 11.35 14.28
3/7/2021 11:30:00 PM 0.44 32.792 0.109 7.27 11.18 14.29
3/7/2021 11:45:00 PM 0.41 32.738 0.109 7.27 11.74 14.31
3/8/2021 12:00:00 AM 0.36 32.648 0.109 7.27 11.23 14.32
3/8/2021 12:15:00 AM 0.31 32.558 0.109 7.27 11.59 14.34
3/8/2021 12:30:00 AM 0.26 32.468 0.109 7.26 11.24 14.35
3/8/2021 12:45:00 AM 0.21 32.378 0.109 7.27 11.33 14.38
3/8/2021 1:00:00 AM 0.16 32.288 0.109 7.26 11.21 14.39
3/8/2021 1:15:00 AM 0.11 32.198 0.109 7.26 11.52 14.4
3/8/2021 1:30:00 AM 0.06 32.108 0.109 7.26 11.12 14.42
3/8/2021 1:45:00 AM 0 32 0.109 7.25 11.1 14.45
3/8/2021 2:00:00 AM -0.02 31.964 0.109 7.26 11.37 14.46
3/8/2021 2:15:00 AM -0.04 31.928 0.109 7.25 11.31 14.48
3/8/2021 2:30:00 AM -0.03 31.946 0.109 7.25 11.19 14.49
3/8/2021 2:45:00 AM -0.03 31.946 0.109 7.25 11.37 14.49
3/8/2021 3:00:00 AM -0.03 31.946 0.109 7.25 11.66 14.5
3/8/2021 3:15:00 AM -0.03 31.946 0.109 7.25 11.54 14.52
3/8/2021 3:30:00 AM -0.03 31.946 0.109 7.25 11.38 14.52
3/8/2021 3:45:00 AM -0.03 31.946 0.109 7.24 11.26 14.51
3/8/2021 4:00:00 AM -0.03 31.946 0.109 7.25 11.73 14.53
3/8/2021 4:15:00 AM -0.03 31.946 0.109 7.25 12.29 14.53
3/8/2021 4:30:00 AM -0.03 31.946 0.109 7.24 12.32 14.51
3/8/2021 4:45:00 AM -0.03 31.946 0.109 7.24 12.23 14.52
3/8/2021 5:00:00 AM -0.03 31.946 0.109 7.25 11.98 14.52
3/8/2021 5:15:00 AM -0.03 31.946 0.109 7.24 11.97 14.52
3/8/2021 5:30:00 AM -0.03 31.946 0.109 7.24 12.09 14.51
3/8/2021 5:45:00 AM -0.03 31.946 0.109 7.24 11.97 14.5
3/8/2021 6:00:00 AM -0.03 31.946 0.109 7.24 11.86 14.51
3/8/2021 6:15:00 AM -0.03 31.946 0.109 7.24 11.33 14.5
3/8/2021 6:30:00 AM -0.03 31.946 0.109 7.24 11.59 14.49
3/8/2021 6:45:00 AM -0.02 31.964 0.11 7.24 11.3 14.48
3/8/2021 7:00:00 AM -0.02 31.964 0.109 7.23 11.13 14.49
3/8/2021 7:15:00 AM -0.02 31.964 0.11 7.23 11.8 14.49
3/8/2021 7:30:00 AM -0.01 31.982 0.109 7.24 11.01 14.49
3/8/2021 7:45:00 AM -0.01 31.982 0.109 7.24 11.27 14.51
3/8/2021 8:00:00 AM -0.01 31.982 0.109 7.24 11.48 14.5
3/8/2021 8:15:00 AM 0 32 0.11 7.24 11.15 14.5
3/8/2021 8:30:00 AM 0.01 32.018 0.109 7.25 11.09 14.53
3/8/2021 8:45:00 AM 0.02 32.036 0.109 7.25 11.28 14.53
3/8/2021 9:00:00 AM 0.02 32.036 0.109 7.25 11.4 14.59
3/8/2021 9:15:00 AM 0.03 32.054 0.109 7.26 11.31 14.59
3/8/2021 9:30:00 AM 0.04 32.072 0.109 7.27 11.53 14.65
3/8/2021 9:45:00 AM 0.04 32.072 0.108 7.28 11.84 14.64
3/8/2021 10:00:00 AM 0.02 32.036 0.108 7.29 11.61 14.67
3/8/2021 10:15:00 AM 0.01 32.018 0.108 7.3 11.76 14.68
3/8/2021 10:30:00 AM 0.03 32.054 0.108 7.31 12.76 14.68
3/8/2021 10:45:00 AM 0.15 32.27 0.108 7.32 12.01 14.66
3/8/2021 11:00:00 AM 0.26 32.468 0.108 7.32 12.2 14.68
3/8/2021 11:15:00 AM 0.34 32.612 0.107 7.31 11.85 14.68
3/8/2021 11:30:00 AM 0.41 32.738 0.107 7.32 11.65 14.67
3/8/2021 11:45:00 AM 0.48 32.864 0.107 7.32 12.72 14.64
3/8/2021 12:00:00 PM 0.6 33.08 0.107 7.32 12.18 14.61
3/8/2021 12:15:00 PM 0.7 33.26 0.107 7.32 11.54 14.57
3/8/2021 12:30:00 PM 0.83 33.494 0.107 7.32 12.22 14.54
3/8/2021 12:45:00 PM 0.91 33.638 0.108 7.32 11.73 14.51
3/8/2021 1:00:00 PM 0.89 33.602 0.108 7.32 11.93 14.48
3/8/2021 1:15:00 PM 0.9 33.62 0.108 7.32 11.89 14.47
3/8/2021 1:30:00 PM 0.96 33.728 0.108 7.33 12.18 14.45
3/8/2021 1:45:00 PM 1.05 33.89 0.107 7.33 12.51 14.45
3/8/2021 2:00:00 PM 1.12 34.016 0.107 7.33 12.24 14.43
3/8/2021 2:15:00 PM 1.18 34.124 0.106 7.33 12.72 14.41
3/8/2021 2:30:00 PM 1.22 34.196 0.106 7.33 12.91 14.38
3/8/2021 2:45:00 PM 1.18 34.124 0.106 7.33 12.89 14.38
3/8/2021 3:00:00 PM 1.17 34.106 0.106 7.32 12.55 14.4
3/8/2021 3:15:00 PM 1.13 34.034 0.107 7.32 12.84 14.4
3/8/2021 3:30:00 PM 1.1 33.98 0.108 7.32 13.49 14.39
3/8/2021 3:45:00 PM 1.09 33.962 0.108 7.32 13.18 14.4
3/8/2021 4:00:00 PM 1.08 33.944 0.108 7.32 14.55 14.4
3/8/2021 4:15:00 PM 1.05 33.89 0.109 7.32 13.82 14.39
3/8/2021 4:30:00 PM 1.02 33.836 0.109 7.31 14.06 14.38
3/8/2021 4:45:00 PM 1.02 33.836 0.109 7.32 13.37 14.37
3/8/2021 5:00:00 PM 1.03 33.854 0.11 7.32 12.4 14.34
3/8/2021 5:15:00 PM 1.02 33.836 0.11 7.31 13.05 14.32
3/8/2021 5:30:00 PM 1.01 33.818 0.11 7.31 12.58 14.3
3/8/2021 5:45:00 PM 1.01 33.818 0.111 7.3 12.5 14.27
3/8/2021 6:00:00 PM 1 33.8 0.111 7.3 12.54 14.24
3/8/2021 6:15:00 PM 0.98 33.764 0.111 7.29 12.71 14.21
3/8/2021 6:30:00 PM 0.96 33.728 0.111 7.29 12.42 14.19
3/8/2021 6:45:00 PM 0.94 33.692 0.111 7.29 12.35 14.19
3/8/2021 7:00:00 PM 0.92 33.656 0.111 7.29 12.47 14.19
3/8/2021 7:15:00 PM 0.89 33.602 0.111 7.29 12.59 14.19
3/8/2021 7:30:00 PM 0.88 33.584 0.111 7.29 12.64 14.19
3/8/2021 7:45:00 PM 0.87 33.566 0.111 7.29 12.61 14.2
3/8/2021 8:00:00 PM 0.86 33.548 0.111 7.29 12.86 14.2
3/8/2021 8:15:00 PM 0.85 33.53 0.111 7.29 13.04 14.19
3/8/2021 8:30:00 PM 0.84 33.512 0.111 7.29 12.93 14.2
3/8/2021 8:45:00 PM 0.83 33.494 0.111 7.29 12.63 14.19
3/8/2021 9:00:00 PM 0.83 33.494 0.111 7.29 12.43 14.19
3/8/2021 9:15:00 PM 0.83 33.494 0.111 7.29 12.3 14.19
3/8/2021 9:30:00 PM 0.82 33.476 0.111 7.29 12.41 14.19
3/8/2021 9:45:00 PM 0.82 33.476 0.111 7.29 13.41 14.19
3/8/2021 10:00:00 PM 0.81 33.458 0.111 7.29 12.72 14.19
3/8/2021 10:15:00 PM 0.81 33.458 0.111 7.29 13.07 14.19
3/8/2021 10:30:00 PM 0.8 33.44 0.111 7.29 12.29 14.19
3/8/2021 10:45:00 PM 0.79 33.422 0.111 7.28 12.84 14.2
3/8/2021 11:00:00 PM 0.79 33.422 0.111 7.28 12.79 14.19
3/8/2021 11:15:00 PM 0.79 33.422 0.112 7.28 12.37 14.19
3/8/2021 11:30:00 PM 0.79 33.422 0.112 7.28 12.19 14.18
3/8/2021 11:45:00 PM 0.8 33.44 0.112 7.28 12.25 14.19
3/9/2021 12:00:00 AM 0.8 33.44 0.112 7.29 12.33 14.18
3/9/2021 12:15:00 AM 0.81 33.458 0.112 7.28 11.93 14.17
3/9/2021 12:30:00 AM 0.82 33.476 0.112 7.29 12.61 14.17
3/9/2021 12:45:00 AM 0.83 33.494 0.112 7.28 12.44 14.16
3/9/2021 1:00:00 AM 0.83 33.494 0.112 7.29 12.47 14.15
3/9/2021 1:15:00 AM 0.84 33.512 0.112 7.28 12.45 14.15
3/9/2021 1:30:00 AM 0.84 33.512 0.112 7.28 12.05 14.14
3/9/2021 1:45:00 AM 0.85 33.53 0.112 7.28 12.4 14.13
3/9/2021 2:00:00 AM 0.84 33.512 0.111 7.28 12.68 14.13
3/9/2021 2:15:00 AM 0.83 33.494 0.111 7.28 12.36 14.12
3/9/2021 2:30:00 AM 0.83 33.494 0.111 7.28 12.2 14.11
3/9/2021 2:45:00 AM 0.82 33.476 0.111 7.28 11.8 14.12
3/9/2021 3:00:00 AM 0.81 33.458 0.111 7.28 12.75 14.12
3/9/2021 3:15:00 AM 0.8 33.44 0.111 7.27 12.64 14.11
3/9/2021 3:30:00 AM 0.79 33.422 0.111 7.27 12.3 14.11
3/9/2021 3:45:00 AM 0.79 33.422 0.111 7.27 12.59 14.12
3/9/2021 4:00:00 AM 0.79 33.422 0.111 7.27 12.47 14.1
3/9/2021 4:15:00 AM 0.79 33.422 0.111 7.27 12.52 14.11
3/9/2021 4:30:00 AM 0.78 33.404 0.11 7.27 12.39 14.11
3/9/2021 4:45:00 AM 0.77 33.386 0.11 7.26 13.11 14.11
3/9/2021 5:00:00 AM 0.75 33.35 0.11 7.26 12.73 14.11
3/9/2021 5:15:00 AM 0.74 33.332 0.11 7.26 12.55 14.13
3/9/2021 5:30:00 AM 0.72 33.296 0.11 7.26 12.79 14.13
3/9/2021 5:45:00 AM 0.71 33.278 0.11 7.26 12.45 14.14
3/9/2021 6:00:00 AM 0.69 33.242 0.11 7.25 12.61 14.13
3/9/2021 6:15:00 AM 0.69 33.242 0.11 7.26 12.63 14.14
3/9/2021 6:30:00 AM 0.68 33.224 0.11 7.26 12.05 14.14
3/9/2021 6:45:00 AM 0.68 33.224 0.11 7.26 12.58 14.16
3/9/2021 7:00:00 AM 0.68 33.224 0.11 7.25 12.5 14.18
3/9/2021 7:15:00 AM 0.68 33.224 0.109 7.26 12.76 14.2
3/9/2021 7:30:00 AM 0.68 33.224 0.109 7.26 12.63 14.23
3/9/2021 7:45:00 AM 0.7 33.26 0.109 7.27 12.28 14.25
3/9/2021 8:00:00 AM 0.71 33.278 0.109 7.28 12.91 14.27
3/9/2021 8:15:00 AM 0.76 33.368 0.109 7.28 12.69 14.29
3/9/2021 8:30:00 AM 0.84 33.512 0.109 7.29 12.46 14.31
3/9/2021 8:45:00 AM 0.91 33.638 0.109 7.29 12.13 14.32
3/9/2021 9:00:00 AM 1.02 33.836 0.109 7.3 12.86 14.32
3/9/2021 9:15:00 AM 1.13 34.034 0.108 7.31 12.71 14.32
3/9/2021 9:30:00 AM 1.26 34.268 0.108 7.31 12.65 14.31
3/9/2021 9:45:00 AM 1.41 34.538 0.108 7.32 12.98 14.3
3/9/2021 10:00:00 AM 1.56 34.808 0.108 7.33 12.84 14.25
3/9/2021 10:15:00 AM 1.7 35.06 0.108 7.34 12.34 14.24
3/9/2021 10:30:00 AM 1.87 35.366 0.108 7.34 13.08 14.21
3/9/2021 10:45:00 AM 2.05 35.69 0.108 7.35 12.83 14.17
3/9/2021 11:00:00 AM 2.22 35.996 0.108 7.36 13.42 14.13
3/9/2021 11:15:00 AM 2.39 36.302 0.108 7.36 13.03 14.1
3/9/2021 11:30:00 AM 2.54 36.572 0.108 7.38 13.49 14.05
3/9/2021 11:45:00 AM 2.74 36.932 0.108 7.37 12.39 14
3/9/2021 12:00:00 PM 2.87 37.166 0.108 7.38 14 13.96
3/9/2021 12:15:00 PM 3.01 37.418 0.108 7.4 13.56 13.93
3/9/2021 12:30:00 PM 3.14 37.652 0.108 7.4 13.38 13.88
3/9/2021 12:45:00 PM 3.24 37.832 0.108 7.4 13.68 13.86
3/9/2021 1:00:00 PM 3.32 37.976 0.107 7.41 14.1 13.82
3/9/2021 1:15:00 PM 3.38 38.084 0.107 7.41 14.54 13.79
3/9/2021 1:30:00 PM 3.42 38.156 0.107 7.42 15.65 13.76
3/9/2021 1:45:00 PM 3.44 38.192 0.107 7.42 15.68 13.75
3/9/2021 2:00:00 PM 3.46 38.228 0.107 7.42 16.1 13.73
3/9/2021 2:15:00 PM 3.45 38.21 0.106 7.42 16.9 13.73
3/9/2021 2:30:00 PM 3.42 38.156 0.106 7.43 17.75 13.72
3/9/2021 2:45:00 PM 3.4 38.12 0.106 7.42 18.13 13.72
3/9/2021 3:00:00 PM 3.38 38.084 0.105 7.42 19.21 13.7
3/9/2021 3:15:00 PM 3.35 38.03 0.105 7.42 19.62 13.7
3/9/2021 3:30:00 PM 3.33 37.994 0.105 7.41 20 13.67
3/9/2021 3:45:00 PM 3.32 37.976 0.104 7.41 21.35 13.65
3/9/2021 4:00:00 PM 3.31 37.958 0.104 7.4 21.94 13.62
3/9/2021 4:15:00 PM 3.29 37.922 0.104 7.4 23.29 13.6
3/9/2021 4:30:00 PM 3.28 37.904 0.103 7.38 22.49 13.58
3/9/2021 4:45:00 PM 3.27 37.886 0.103 7.38 22.16 13.56
3/9/2021 5:00:00 PM 3.27 37.886 0.103 7.37 21.14 13.53
3/9/2021 5:15:00 PM 3.27 37.886 0.103 7.36 21.48 13.5
3/9/2021 5:30:00 PM 3.26 37.868 0.103 7.35 19.68 13.47
3/9/2021 5:45:00 PM 3.26 37.868 0.103 7.34 21.49 13.44
3/9/2021 6:00:00 PM 3.28 37.904 0.103 7.33 21.51 13.41
3/9/2021 6:15:00 PM 3.32 37.976 0.104 7.32 19.97 13.38
3/9/2021 6:30:00 PM 3.39 38.102 0.105 7.31 19.57 13.35
3/9/2021 6:45:00 PM 3.44 38.192 0.105 7.3 19.74 13.33
3/9/2021 7:00:00 PM 3.51 38.318 0.106 7.3 19.2 13.3
3/9/2021 7:15:00 PM 3.57 38.426 0.106 7.29 19.52 13.27
3/9/2021 7:30:00 PM 3.6 38.48 0.106 7.29 19.83 13.26
3/9/2021 7:45:00 PM 3.61 38.498 0.107 7.29 19.93 13.24
3/9/2021 8:00:00 PM 3.62 38.516 0.107 7.29 21.07 13.23
3/9/2021 8:15:00 PM 3.63 38.534 0.108 7.28 21.43 13.21
3/9/2021 8:30:00 PM 3.63 38.534 0.108 7.28 22.75 13.2
3/9/2021 8:45:00 PM 3.61 38.498 0.108 7.28 24.07 13.21
3/9/2021 9:00:00 PM 3.54 38.372 0.108 7.28 27.16 13.22
3/9/2021 9:15:00 PM 3.45 38.21 0.107 7.27 26.2 13.24
3/9/2021 9:30:00 PM 3.38 38.084 0.107 7.27 29.03 13.25
3/9/2021 9:45:00 PM 3.35 38.03 0.107 7.27 30.14 13.24
3/9/2021 10:00:00 PM 3.38 38.084 0.106 7.27 32.56 13.21
3/9/2021 10:15:00 PM 3.43 38.174 0.105 7.27 26.73 13.18
3/9/2021 10:30:00 PM 3.48 38.264 0.103 7.27 31.62 13.15
3/9/2021 10:45:00 PM 3.5 38.3 0.102 7.26 33.77 13.14
3/9/2021 11:00:00 PM 3.48 38.264 0.1 7.25 36.27 13.13
3/9/2021 11:15:00 PM 3.44 38.192 0.099 7.25 33.92 13.16
3/9/2021 11:30:00 PM 3.38 38.084 0.098 7.23 37.05 13.17
3/9/2021 11:45:00 PM 3.31 37.958 0.097 7.24 37.04 13.2
3/10/2021 12:00:00 AM 3.23 37.814 0.097 7.23 35.94 13.22
3/10/2021 12:15:00 AM 3.15 37.67 0.096 7.21 36.19 13.26
3/10/2021 12:30:00 AM 3.06 37.508 0.095 7.22 34.51 13.3
3/10/2021 12:45:00 AM 2.96 37.328 0.095 7.21 31.93 13.33
3/10/2021 1:00:00 AM 2.87 37.166 0.094 7.2 38.47 13.36
3/10/2021 1:15:00 AM 2.77 36.986 0.094 7.2 31.85 13.4
3/10/2021 1:30:00 AM 2.67 36.806 0.094 7.19 31.38 13.44
3/10/2021 1:45:00 AM 2.58 36.644 0.093 7.19 33.36 13.47
3/10/2021 2:00:00 AM 2.49 36.482 0.093 7.19 30.54 13.51
3/10/2021 2:15:00 AM 2.39 36.302 0.093 7.17 29.59 13.54
3/10/2021 2:30:00 AM 2.31 36.158 0.093 7.17 36.22 13.57
3/10/2021 2:45:00 AM 2.22 35.996 0.093 7.17 29.11 13.59
3/10/2021 3:00:00 AM 2.13 35.834 0.093 7.16 28.29 13.63
3/10/2021 3:15:00 AM 2.05 35.69 0.093 7.16 27.56 13.66
3/10/2021 3:30:00 AM 1.98 35.564 0.093 7.16 27.95 13.68
3/10/2021 3:45:00 AM 1.91 35.438 0.093 7.16 27.89 13.71
3/10/2021 4:00:00 AM 1.84 35.312 0.093 7.16 28.38 13.75
3/10/2021 4:15:00 AM 1.76 35.168 0.093 7.16 24.63 13.78
3/10/2021 4:30:00 AM 1.7 35.06 0.093 7.15 26.63 13.8
3/10/2021 4:45:00 AM 1.63 34.934 0.093 7.14 26.46 13.82
3/10/2021 5:00:00 AM 1.57 34.826 0.093 7.15 24.29 13.85
3/10/2021 5:15:00 AM 1.51 34.718 0.093 7.15 24.38 13.87
3/10/2021 5:30:00 AM 1.45 34.61 0.093 7.14 24.31 13.9
3/10/2021 5:45:00 AM 1.39 34.502 0.093 7.14 24.53 13.92
3/10/2021 6:00:00 AM 1.33 34.394 0.093 7.14 22.68 13.94
3/10/2021 6:15:00 AM 1.28 34.304 0.093 7.14 23.42 13.97
3/10/2021 6:30:00 AM 1.24 34.232 0.093 7.14 22.45 13.99
3/10/2021 6:45:00 AM 1.18 34.124 0.093 7.14 24.98 14.02
3/10/2021 7:00:00 AM 1.14 34.052 0.093 7.14 21.82 14.05
3/10/2021 7:15:00 AM 1.11 33.998 0.093 7.14 22.78 14.08
3/10/2021 7:30:00 AM 1.08 33.944 0.093 7.15 22.35 14.11
3/10/2021 7:45:00 AM 1.05 33.89 0.093 7.15 21.29 14.14
3/10/2021 8:00:00 AM 1.04 33.872 0.093 7.15 22.52 14.17
3/10/2021 8:15:00 AM 1.03 33.854 0.093 7.15 22.07 14.2
3/10/2021 8:30:00 AM 1.05 33.89 0.093 7.15 21.57 14.23
3/10/2021 8:45:00 AM 1.09 33.962 0.093 7.16 20.59 14.24
3/10/2021 9:00:00 AM 1.14 34.052 0.093 7.16 22.5 14.27
3/10/2021 9:15:00 AM 1.2 34.16 0.093 7.17 20.67 14.27
3/10/2021 9:30:00 AM 1.27 34.286 0.093 7.17 21.53 14.27
3/10/2021 9:45:00 AM 1.36 34.448 0.093 7.18 21.86 14.27
3/10/2021 10:00:00 AM 1.45 34.61 0.093 7.18 20.95 14.25
3/10/2021 10:15:00 AM 1.56 34.808 0.093 7.19 21.16 14.25
3/10/2021 10:30:00 AM 1.66 34.988 0.093 7.19 19.83 14.24
3/10/2021 10:45:00 AM 1.78 35.204 0.093 7.2 20.77 14.22
3/10/2021 11:00:00 AM 1.91 35.438 0.093 7.2 20.2 14.19
3/10/2021 11:15:00 AM 2.03 35.654 0.093 7.22 19.82 14.16
3/10/2021 11:30:00 AM 2.16 35.888 0.093 7.22 20.65 14.15
3/10/2021 11:45:00 AM 2.25 36.05 0.094 7.23 20.32 14.11
3/10/2021 12:00:00 PM 2.36 36.248 0.094 7.23 19.75 14.1
3/10/2021 12:15:00 PM 2.45 36.41 0.094 7.24 19.73 14.08
3/10/2021 12:30:00 PM 2.53 36.554 0.094 7.25 19.99 14.05
3/10/2021 12:45:00 PM 2.63 36.734 0.094 7.25 21.15 14.02
3/10/2021 1:00:00 PM 2.71 36.878 0.094 7.26 21.76 13.99
3/10/2021 1:15:00 PM 2.76 36.968 0.094 7.26 21.37 13.96
3/10/2021 1:30:00 PM 2.84 37.112 0.093 7.26 21.53 13.94
3/10/2021 1:45:00 PM 2.9 37.22 0.093 7.27 22.04 13.91
3/10/2021 2:00:00 PM 2.95 37.31 0.093 7.27 21.37 13.87
3/10/2021 2:15:00 PM 2.99 37.382 0.093 7.27 22.11 13.85
3/10/2021 2:30:00 PM 3.04 37.472 0.093 7.27 23.07 13.83
3/10/2021 2:45:00 PM 3.09 37.562 0.092 7.27 24.71 13.79
3/10/2021 3:00:00 PM 3.13 37.634 0.092 7.28 24.57 13.76
3/10/2021 3:15:00 PM 3.17 37.706 0.092 7.28 26 13.74
3/10/2021 3:30:00 PM 3.21 37.778 0.092 7.28 25.61 13.7
3/10/2021 3:45:00 PM 3.27 37.886 0.092 7.28 25.35 13.67
3/10/2021 4:00:00 PM 3.32 37.976 0.092 7.27 25.8 13.64
3/10/2021 4:15:00 PM 3.37 38.066 0.092 7.27 24.2 13.6
3/10/2021 4:30:00 PM 3.41 38.138 0.092 7.27 24 13.55
3/10/2021 4:45:00 PM 3.46 38.228 0.092 7.27 23.94 13.51
3/10/2021 5:00:00 PM 3.5 38.3 0.093 7.26 23.5 13.46
3/10/2021 5:15:00 PM 3.54 38.372 0.093 7.26 23.49 13.43
3/10/2021 5:30:00 PM 3.6 38.48 0.093 7.25 23.91 13.4
3/10/2021 5:45:00 PM 3.64 38.552 0.094 7.25 24.25 13.36
3/10/2021 6:00:00 PM 3.68 38.624 0.094 7.24 23.66 13.33
3/10/2021 6:15:00 PM 3.72 38.696 0.094 7.23 25.09 13.3
3/10/2021 6:30:00 PM 3.76 38.768 0.095 7.23 26.51 13.27
3/10/2021 6:45:00 PM 3.8 38.84 0.095 7.22 27.89 13.24
3/10/2021 7:00:00 PM 3.84 38.912 0.095 7.21 29.84 13.2
3/10/2021 7:15:00 PM 3.88 38.984 0.095 7.22 28.98 13.18
3/10/2021 7:30:00 PM 3.92 39.056 0.095 7.22 33.68 13.14
3/10/2021 7:45:00 PM 3.97 39.146 0.095 7.22 37.06 13.09
3/10/2021 8:00:00 PM 4.07 39.326 0.094 7.21 39.51 13.03
3/10/2021 8:15:00 PM 4.19 39.542 0.093 7.22 45.75 12.97
3/10/2021 8:30:00 PM 4.29 39.722 0.092 7.22 43.83 12.92
3/10/2021 8:45:00 PM 4.34 39.812 0.09 7.22 50.17 12.88
3/10/2021 9:00:00 PM 4.33 39.794 0.089 7.21 58.43 12.88
3/10/2021 9:15:00 PM 4.28 39.704 0.088 7.2 58.22 12.88
3/10/2021 9:30:00 PM 4.21 39.578 0.086 7.19 60.85 12.9
3/10/2021 9:45:00 PM 4.12 39.416 0.085 7.18 55.13 12.92
3/10/2021 10:00:00 PM 4.02 39.236 0.084 7.17 65.7 12.96
3/10/2021 10:15:00 PM 3.92 39.056 0.083 7.15 57.84 12.99
3/10/2021 10:30:00 PM 3.83 38.894 0.082 7.15 62.31 13.02
3/10/2021 10:45:00 PM 3.76 38.768 0.082 7.14 57.91 13.04
3/10/2021 11:00:00 PM 3.68 38.624 0.081 7.14 62.06 13.07
3/10/2021 11:15:00 PM 3.6 38.48 0.081 7.13 61.92 13.1
3/10/2021 11:30:00 PM 3.52 38.336 0.081 7.12 60.46 13.12
3/10/2021 11:45:00 PM 3.44 38.192 0.08 7.11 45.29 13.15
3/11/2021 12:00:00 AM 3.37 38.066 0.08 7.11 60.64 13.17
3/11/2021 12:15:00 AM 3.28 37.904 0.08 7.1 45.25 13.2
3/11/2021 12:30:00 AM 3.21 37.778 0.079 7.09 44.79 13.23
3/11/2021 12:45:00 AM 3.14 37.652 0.079 7.09 46.88 13.24
3/11/2021 1:00:00 AM 3.06 37.508 0.079 7.09 56.58 13.26
3/11/2021 1:15:00 AM 3 37.4 0.079 7.08 46.94 13.29
3/11/2021 1:30:00 AM 2.94 37.292 0.079 7.08 44.46 13.31
3/11/2021 1:45:00 AM 2.87 37.166 0.079 7.08 52.13 13.33
3/11/2021 2:00:00 AM 2.81 37.058 0.079 7.07 46.91 13.35
3/11/2021 2:15:00 AM 2.76 36.968 0.079 7.07 41.9 13.37
3/11/2021 2:30:00 AM 2.7 36.86 0.079 7.07 41.17 13.38
3/11/2021 2:45:00 AM 2.66 36.788 0.079 7.06 37.02 13.39
3/11/2021 3:00:00 AM 2.61 36.698 0.079 7.06 51.28 13.41
3/11/2021 3:15:00 AM 2.57 36.626 0.079 7.06 36.27 13.42
3/11/2021 3:30:00 AM 2.53 36.554 0.079 7.06 37.22 13.44
3/11/2021 3:45:00 AM 2.49 36.482 0.079 7.06 39.91 13.46
3/11/2021 4:00:00 AM 2.45 36.41 0.079 7.05 36.86 13.47
3/11/2021 4:15:00 AM 2.41 36.338 0.079 7.05 35.44 13.49
3/11/2021 4:30:00 AM 2.37 36.266 0.079 7.06 35.8 13.5
3/11/2021 4:45:00 AM 2.34 36.212 0.079 7.05 31.56 13.52
3/11/2021 5:00:00 AM 2.3 36.14 0.079 7.04 35.54 13.53
3/11/2021 5:15:00 AM 2.27 36.086 0.079 7.05 27.77 13.54
3/11/2021 5:30:00 AM 2.23 36.014 0.079 7.05 29.46 13.55
3/11/2021 5:45:00 AM 2.2 35.96 0.079 7.05 31.7 13.57
3/11/2021 6:00:00 AM 2.17 35.906 0.08 7.05 27.68 13.58
3/11/2021 6:15:00 AM 2.14 35.852 0.08 7.04 28.69 13.59
3/11/2021 6:30:00 AM 2.11 35.798 0.08 7.04 28.87 13.6
3/11/2021 6:45:00 AM 2.09 35.762 0.08 7.04 28.55 13.61
3/11/2021 7:00:00 AM 2.07 35.726 0.08 7.04 35.1 13.63
3/11/2021 7:15:00 AM 2.06 35.708 0.08 7.05 28.02 13.64
3/11/2021 7:30:00 AM 2.06 35.708 0.08 7.05 27.61 13.66
3/11/2021 7:45:00 AM 2.06 35.708 0.08 7.05 28.2 13.67
3/11/2021 8:00:00 AM 2.06 35.708 0.081 7.05 27.67 13.69
3/11/2021 8:15:00 AM 2.07 35.726 0.081 7.05 27.68 13.69
3/11/2021 8:30:00 AM 2.07 35.726 0.081 7.05 25.47 13.7
3/11/2021 8:45:00 AM 2.09 35.762 0.081 7.06 26.01 13.71
3/11/2021 9:00:00 AM 2.12 35.816 0.081 7.06 23.52 13.73
3/11/2021 9:15:00 AM 2.15 35.87 0.081 7.07 24.75 13.73
3/11/2021 9:30:00 AM 2.19 35.942 0.081 7.07 25.11 13.73
3/11/2021 9:45:00 AM 2.29 36.122 0.081 7.08 24.04 13.74
3/11/2021 10:00:00 AM 2.41 36.338 0.082 7.09 23.98 13.73
3/11/2021 10:15:00 AM 2.52 36.536 0.082 7.1 25.24 13.71
3/11/2021 10:30:00 AM 2.63 36.734 0.082 7.1 24.94 13.69
3/11/2021 10:45:00 AM 2.75 36.95 0.082 7.11 27.11 13.67
3/11/2021 11:00:00 AM 2.88 37.184 0.082 7.12 26 13.64
3/11/2021 11:15:00 AM 3.01 37.418 0.082 7.13 25.05 13.61
3/11/2021 11:30:00 AM 3.09 37.562 0.082 7.14 26.2 13.6
3/11/2021 11:45:00 AM 3.2 37.76 0.082 7.14 25.39 13.57
3/11/2021 12:00:00 PM 3.31 37.958 0.082 7.15 25.61 13.54
3/11/2021 12:15:00 PM 3.43 38.174 0.082 7.16 25.16 13.5
3/11/2021 12:30:00 PM 3.48 38.264 0.082 7.16 26.41 13.48
3/11/2021 12:45:00 PM 3.46 38.228 0.082 7.17 28.35 13.44
3/11/2021 1:00:00 PM 3.47 38.246 0.082 7.16 28.52 13.4
3/11/2021 1:15:00 PM 3.51 38.318 0.082 7.17 25.44 13.37
3/11/2021 1:30:00 PM 3.59 38.462 0.082 7.16 27.63 13.36
3/11/2021 1:45:00 PM 3.67 38.606 0.082 7.16 28.69 13.35
3/11/2021 2:00:00 PM 3.75 38.75 0.081 7.16 27.94 13.32
3/11/2021 2:15:00 PM 3.82 38.876 0.081 7.17 26.28 13.28
3/11/2021 2:30:00 PM 3.84 38.912 0.082 7.17 29.6 13.23
3/11/2021 2:45:00 PM 4 39.2 0.081 7.17 29.94 13.22
3/11/2021 3:00:00 PM 4.16 39.488 0.081 7.16 31.45 13.19
3/11/2021 3:15:00 PM 4.26 39.668 0.081 7.17 32.93 13.15
3/11/2021 3:30:00 PM 4.34 39.812 0.081 7.18 32.99 13.12
3/11/2021 3:45:00 PM 4.42 39.956 0.08 7.16 35.66 13.07
3/11/2021 4:00:00 PM 4.51 40.118 0.08 7.17 39.11 13
3/11/2021 4:15:00 PM 4.61 40.298 0.079 7.15 49.77 12.95
3/11/2021 4:30:00 PM 4.68 40.424 0.079 7.16 45.1 12.9
3/11/2021 4:45:00 PM 4.78 40.604 0.078 7.15 57.42 12.84
3/11/2021 5:00:00 PM 4.92 40.856 0.078 7.15 51.23 12.78
3/11/2021 5:15:00 PM 5.05 41.09 0.077 7.14 52.69 12.71
3/11/2021 5:30:00 PM 5.11 41.198 0.076 7.14 60.88 12.66
3/11/2021 5:45:00 PM 5.17 41.306 0.075 7.15 82.38 12.61
3/11/2021 6:00:00 PM 5.23 41.414 0.074 7.14 80.74 12.57
3/11/2021 6:15:00 PM 5.27 41.486 0.074 7.12 87.59 12.54
3/11/2021 6:30:00 PM 5.29 41.522 0.072 7.11 81.46 12.53
3/11/2021 6:45:00 PM 5.3 41.54 0.071 7.09 91.33 12.51
3/11/2021 7:00:00 PM 5.27 41.486 0.069 7.06 101.36 12.52
3/11/2021 7:15:00 PM 5.22 41.396 0.068 7.06 109.74 12.53
3/11/2021 7:30:00 PM 5.17 41.306 0.067 7.05 115.51 12.54
3/11/2021 7:45:00 PM 5.13 41.234 0.066 7.03 129.29 12.55
3/11/2021 8:00:00 PM 5.1 41.18 0.065 7.03 111.93 12.56
3/11/2021 8:15:00 PM 5.07 41.126 0.064 7.01 92.74 12.57
3/11/2021 8:30:00 PM 5.04 41.072 0.064 7.01 115.77 12.57
3/11/2021 8:45:00 PM 5.01 41.018 0.063 7 108.34 12.58
3/11/2021 9:00:00 PM 4.97 40.946 0.063 6.98 144.69 12.58
3/11/2021 9:15:00 PM 4.93 40.874 0.063 6.97 113.94 12.59
3/11/2021 9:30:00 PM 4.9 40.82 0.063 6.96 112.36 12.59
3/11/2021 9:45:00 PM 4.88 40.784 0.062 6.95 124.63 12.6
3/11/2021 10:00:00 PM 4.84 40.712 0.062 6.95 114.41 12.61
3/11/2021 10:15:00 PM 4.8 40.64 0.062 6.96 152.64 12.62
3/11/2021 10:30:00 PM 4.76 40.568 0.062 6.96 115.1 12.63
3/11/2021 10:45:00 PM 4.72 40.496 0.062 6.95 108.75 12.64
3/11/2021 11:00:00 PM 4.7 40.46 0.062 6.94 114.69 12.65
3/11/2021 11:15:00 PM 4.66 40.388 0.062 6.95 111.97 12.65
3/11/2021 11:30:00 PM 4.63 40.334 0.062 6.94 104.99 12.66
3/11/2021 11:45:00 PM 4.61 40.298 0.062 6.94 92.61 12.66
3/12/2021 12:00:00 AM 4.59 40.262 0.062 6.93 83.35 12.67
3/12/2021 12:15:00 AM 4.56 40.208 0.062 6.93 84.29 12.68
3/12/2021 12:30:00 AM 4.54 40.172 0.062 6.92 107.43 12.68
3/12/2021 12:45:00 AM 4.51 40.118 0.062 6.93 83.89 12.69
3/12/2021 1:00:00 AM 4.5 40.1 0.062 6.93 86.85 12.69
3/12/2021 1:15:00 AM 4.46 40.028 0.062 6.93 73.22 12.7
3/12/2021 1:30:00 AM 4.44 39.992 0.062 6.92 104.14 12.71
3/12/2021 1:45:00 AM 4.41 39.938 0.062 6.92 80.08 12.73
3/12/2021 2:00:00 AM 4.37 39.866 0.062 6.9 75.58 12.74
3/12/2021 2:15:00 AM 4.34 39.812 0.063 6.91 73.23 12.75
3/12/2021 2:30:00 AM 4.32 39.776 0.063 6.91 72.36 12.75
3/12/2021 2:45:00 AM 4.31 39.758 0.063 6.91 71.37 12.76
3/12/2021 3:00:00 AM 4.3 39.74 0.063 6.91 76.51 12.77
3/12/2021 3:15:00 AM 4.29 39.722 0.063 6.9 68.89 12.77
3/12/2021 3:30:00 AM 4.27 39.686 0.063 6.9 76.27 12.78
3/12/2021 3:45:00 AM 4.26 39.668 0.063 6.91 60.09 12.79
3/12/2021 4:00:00 AM 4.24 39.632 0.063 6.9 58.24 12.79
3/12/2021 4:15:00 AM 4.22 39.596 0.063 6.91 61.63 12.8
3/12/2021 4:30:00 AM 4.21 39.578 0.063 6.89 58.45 12.8
3/12/2021 4:45:00 AM 4.19 39.542 0.063 6.91 66.12 12.81
3/12/2021 5:00:00 AM 4.19 39.542 0.063 6.9 62.59 12.81
3/12/2021 5:15:00 AM 4.18 39.524 0.063 6.9 52.53 12.82
3/12/2021 5:30:00 AM 4.16 39.488 0.063 6.9 58.21 12.82
3/12/2021 5:45:00 AM 4.14 39.452 0.063 6.9 72.74 12.83
3/12/2021 6:00:00 AM 4.12 39.416 0.063 6.9 52.11 12.83
3/12/2021 6:15:00 AM 4.09 39.362 0.063 6.9 54.56 12.84
3/12/2021 6:30:00 AM 4.07 39.326 0.063 6.9 53.29 12.85
3/12/2021 6:45:00 AM 4.04 39.272 0.063 6.89 48.68 12.86
3/12/2021 7:00:00 AM 4.02 39.236 0.063 6.9 65.28 12.87
3/12/2021 7:15:00 AM 4.01 39.218 0.063 6.9 48.05 12.88
3/12/2021 7:30:00 AM 3.99 39.182 0.063 6.9 51.89 12.89
3/12/2021 7:45:00 AM 3.98 39.164 0.063 6.9 46.81 12.89
3/12/2021 8:00:00 AM 3.98 39.164 0.063 6.9 45.9 12.9
3/12/2021 8:15:00 AM 3.99 39.182 0.063 6.91 57.32 12.91
3/12/2021 8:30:00 AM 4 39.2 0.063 6.9 49.07 12.92
3/12/2021 8:45:00 AM 4.02 39.236 0.063 6.91 47.78 12.92
3/12/2021 9:00:00 AM 4.04 39.272 0.063 6.91 44.67 12.92
3/12/2021 9:15:00 AM 4.07 39.326 0.063 6.91 46.19 12.92
3/12/2021 9:30:00 AM 4.11 39.398 0.063 6.91 45.78 12.93
3/12/2021 9:45:00 AM 4.15 39.47 0.063 6.92 56.35 12.93
3/12/2021 10:00:00 AM 4.19 39.542 0.063 6.93 43.68 12.93
3/12/2021 10:15:00 AM 4.24 39.632 0.063 6.92 43.88 12.92
3/12/2021 10:30:00 AM 4.3 39.74 0.063 6.94 36.49 12.93
3/12/2021 10:45:00 AM 4.35 39.83 0.063 6.94 45.16 12.92
3/12/2021 11:00:00 AM 4.42 39.956 0.063 6.95 45.35 12.92
3/12/2021 11:15:00 AM 4.48 40.064 0.063 6.95 36.58 12.91
3/12/2021 11:30:00 AM 4.54 40.172 0.063 6.96 41.52 12.9
3/12/2021 11:45:00 AM 4.6 40.28 0.063 6.96 39.21 12.9
3/12/2021 12:00:00 PM 4.66 40.388 0.064 6.97 42.28 12.89
3/12/2021 12:15:00 PM 4.73 40.514 0.064 6.97 34.08 12.88
3/12/2021 12:30:00 PM 4.8 40.64 0.064 6.98 31.59 12.86
3/12/2021 12:45:00 PM 4.86 40.748 0.064 6.97 37.61 12.84
3/12/2021 1:00:00 PM 4.93 40.874 0.064 6.99 37.83 12.82
3/12/2021 1:15:00 PM 5 41 0.064 7 39.73 12.81
3/12/2021 1:30:00 PM 5.08 41.144 0.064 7 35.71 12.78
3/12/2021 1:45:00 PM 5.15 41.27 0.064 7 44.73 12.76
3/12/2021 2:00:00 PM 5.24 41.432 0.064 7.02 33.31 12.73
3/12/2021 2:15:00 PM 5.32 41.576 0.064 7.02 34.3 12.71
3/12/2021 2:30:00 PM 5.41 41.738 0.064 7.03 41.5 12.68
3/12/2021 2:45:00 PM 5.5 41.9 0.064 7.03 34.29 12.65
3/12/2021 3:00:00 PM 5.59 42.062 0.064 7.03 33.39 12.62
3/12/2021 3:15:00 PM 5.68 42.224 0.064 7.04 34.51 12.59
3/12/2021 3:30:00 PM 5.77 42.386 0.064 7.05 28.2 12.54
3/12/2021 3:45:00 PM 5.86 42.548 0.064 7.05 32.39 12.5
3/12/2021 4:00:00 PM 5.94 42.692 0.064 7.06 28.95 12.46
3/12/2021 4:15:00 PM 6.03 42.854 0.064 7.06 33.82 12.42
3/12/2021 4:30:00 PM 6.12 43.016 0.064 7.05 33.79 12.38
3/12/2021 4:45:00 PM 6.19 43.142 0.064 7.07 35.73 12.34
3/12/2021 5:00:00 PM 6.28 43.304 0.064 7.07 33.31 12.3
3/12/2021 5:15:00 PM 6.35 43.43 0.064 7.07 32.25 12.26
3/12/2021 5:30:00 PM 6.41 43.538 0.063 7.07 31.59 12.22
3/12/2021 5:45:00 PM 6.47 43.646 0.063 7.07 32.3 12.19
3/12/2021 6:00:00 PM 6.51 43.718 0.063 7.06 35.19 12.16
3/12/2021 6:15:00 PM 6.55 43.79 0.063 7.06 33.67 12.13
3/12/2021 6:30:00 PM 6.59 43.862 0.063 7.07 32.04 12.11
3/12/2021 6:45:00 PM 6.63 43.934 0.063 7.07 42.79 12.08
3/12/2021 7:00:00 PM 6.65 43.97 0.063 7.06 34.33 12.07
3/12/2021 7:15:00 PM 6.68 44.024 0.063 7.06 31.65 12.05
3/12/2021 7:30:00 PM 6.7 44.06 0.063 7.07 32.01 12.04
3/12/2021 7:45:00 PM 6.71 44.078 0.063 7.06 35.87 12.03
3/12/2021 8:00:00 PM 6.72 44.096 0.063 7.05 31.17 12.02
3/12/2021 8:15:00 PM 6.71 44.078 0.063 7.05 32.31 12.01
3/12/2021 8:30:00 PM 6.71 44.078 0.063 7.06 34.69 12.01
3/12/2021 8:45:00 PM 6.7 44.06 0.063 7.05 34.6 12.01
3/12/2021 9:00:00 PM 6.68 44.024 0.063 7.05 31.03 12.01
3/12/2021 9:15:00 PM 6.66 43.988 0.063 7.05 32.24 12.01
3/12/2021 9:30:00 PM 6.62 43.916 0.063 7.05 37.45 12.02
3/12/2021 9:45:00 PM 6.57 43.826 0.063 7.04 29.96 12.03
3/12/2021 10:00:00 PM 6.51 43.718 0.063 7.04 29.47 12.04
3/12/2021 10:15:00 PM 6.45 43.61 0.063 7.04 30.03 12.07
3/12/2021 10:30:00 PM 6.37 43.466 0.064 7.04 34.75 12.09
3/12/2021 10:45:00 PM 6.29 43.322 0.064 7.03 29.21 12.12
3/12/2021 11:00:00 PM 6.19 43.142 0.064 7.03 33.8 12.14
3/12/2021 11:15:00 PM 6.12 43.016 0.064 7.03 34.38 12.16
3/12/2021 11:30:00 PM 6.03 42.854 0.064 7.03 31.41 12.2
3/12/2021 11:45:00 PM 5.92 42.656 0.064 7.03 45.43 12.23
3/13/2021 12:00:00 AM 5.8 42.44 0.064 7.02 32.8 12.26
3/13/2021 12:15:00 AM 5.7 42.26 0.064 7.03 31.73 12.3
3/13/2021 12:30:00 AM 5.59 42.062 0.064 7.02 32.01 12.33
3/13/2021 12:45:00 AM 5.48 41.864 0.064 7.01 31.42 12.36
3/13/2021 1:00:00 AM 5.37 41.666 0.064 7.01 28.32 12.4
3/13/2021 1:15:00 AM 5.25 41.45 0.065 7.01 30.02 12.44
3/13/2021 1:30:00 AM 5.14 41.252 0.065 7.01 36.15 12.48
3/13/2021 1:45:00 AM 5.03 41.054 0.065 7.02 29.4 12.52
3/13/2021 2:00:00 AM 4.92 40.856 0.065 7.01 30.99 12.55
3/13/2021 2:15:00 AM 4.81 40.658 0.065 7 32.67 12.59
3/13/2021 2:30:00 AM 4.71 40.478 0.065 7.01 28.06 12.62
3/13/2021 2:45:00 AM 4.61 40.298 0.066 7.01 27.61 12.66
3/13/2021 3:00:00 AM 4.49 40.082 0.066 7.01 30.45 12.7
3/13/2021 3:15:00 AM 4.39 39.902 0.066 7.01 30.91 12.74
3/13/2021 3:30:00 AM 4.3 39.74 0.066 7.01 26.45 12.77
3/13/2021 3:45:00 AM 4.19 39.542 0.066 7.01 28.56 12.8
3/13/2021 4:00:00 AM 4.08 39.344 0.066 7 28.63 12.84
3/13/2021 4:15:00 AM 3.98 39.164 0.066 7 28.41 12.87
3/13/2021 4:30:00 AM 3.88 38.984 0.066 7 28.18 12.91
3/13/2021 4:45:00 AM 3.78 38.804 0.067 7.01 28.35 12.95
3/13/2021 5:00:00 AM 3.68 38.624 0.067 7.01 25.31 12.99
3/13/2021 5:15:00 AM 3.59 38.462 0.067 7.01 27.34 13.02
3/13/2021 5:30:00 AM 3.5 38.3 0.067 7.01 28.58 13.05
3/13/2021 5:45:00 AM 3.41 38.138 0.067 6.99 27.05 13.09
3/13/2021 6:00:00 AM 3.32 37.976 0.067 6.97 27.89 13.11
3/13/2021 6:15:00 AM 3.23 37.814 0.067 6.96 26.68 13.15
3/13/2021 6:30:00 AM 3.15 37.67 0.067 6.97 26.13 13.18
3/13/2021 6:45:00 AM 3.07 37.526 0.067 6.96 28.26 13.23
3/13/2021 7:00:00 AM 2.99 37.382 0.068 6.96 22.21 13.26
3/13/2021 7:15:00 AM 2.9 37.22 0.068 6.97 26.28 13.29
3/13/2021 7:30:00 AM 2.82 37.076 0.068 6.96 25.86 13.33
3/13/2021 7:45:00 AM 2.76 36.968 0.068 6.96 25.43 13.37
3/13/2021 8:00:00 AM 2.7 36.86 0.068 6.97 25.15 13.4
3/13/2021 8:15:00 AM 2.65 36.77 0.068 6.97 24.69 13.44
3/13/2021 8:30:00 AM 2.61 36.698 0.068 6.98 25.74 13.49
3/13/2021 8:45:00 AM 2.58 36.644 0.068 6.98 22.96 13.53
3/13/2021 9:00:00 AM 2.56 36.608 0.068 6.99 24.69 13.55
3/13/2021 9:15:00 AM 2.56 36.608 0.068 7 25.23 13.58
3/13/2021 9:30:00 AM 2.56 36.608 0.068 7.01 24.13 13.6
3/13/2021 9:45:00 AM 2.57 36.626 0.068 7.02 24.06 13.62
3/13/2021 10:00:00 AM 2.6 36.68 0.068 7.03 24.35 13.64
3/13/2021 10:15:00 AM 2.62 36.716 0.068 7.03 23.78 13.65
3/13/2021 10:30:00 AM 2.66 36.788 0.068 7.04 24.37 13.66
3/13/2021 10:45:00 AM 2.69 36.842 0.068 7.04 24.32 13.67
3/13/2021 11:00:00 AM 2.73 36.914 0.069 7.06 23.2 13.67
3/13/2021 11:15:00 AM 2.78 37.004 0.069 7.06 24.04 13.67
3/13/2021 11:30:00 AM 2.83 37.094 0.069 7.06 23.34 13.67
3/13/2021 11:45:00 AM 2.87 37.166 0.069 7.07 23.1 13.67
3/13/2021 12:00:00 PM 2.92 37.256 0.069 7.07 22.62 13.67
3/13/2021 12:15:00 PM 2.96 37.328 0.069 7.09 23.28 13.66
3/13/2021 12:30:00 PM 3 37.4 0.069 7.09 23.48 13.66
3/13/2021 12:45:00 PM 3.04 37.472 0.069 7.09 23.34 13.65
3/13/2021 1:00:00 PM 3.09 37.562 0.069 7.1 23.8 13.64
3/13/2021 1:15:00 PM 3.14 37.652 0.069 7.11 23.85 13.63
3/13/2021 1:30:00 PM 3.18 37.724 0.069 7.11 22.34 13.6
3/13/2021 1:45:00 PM 3.23 37.814 0.069 7.12 22.16 13.59
3/13/2021 2:00:00 PM 3.27 37.886 0.069 7.12 21.94 13.57
3/13/2021 2:15:00 PM 3.32 37.976 0.069 7.12 22.17 13.55
3/13/2021 2:30:00 PM 3.37 38.066 0.069 7.12 22.37 13.53
3/13/2021 2:45:00 PM 3.42 38.156 0.069 7.12 22.51 13.5
3/13/2021 3:00:00 PM 3.48 38.264 0.069 7.13 22.63 13.48
3/13/2021 3:15:00 PM 3.52 38.336 0.069 7.13 23.22 13.45
3/13/2021 3:30:00 PM 3.57 38.426 0.069 7.13 19.63 13.43
3/13/2021 3:45:00 PM 3.61 38.498 0.069 7.14 21.46 13.4
3/13/2021 4:00:00 PM 3.64 38.552 0.07 7.14 21.92 13.38
3/13/2021 4:15:00 PM 3.68 38.624 0.07 7.14 21.78 13.35
3/13/2021 4:30:00 PM 3.72 38.696 0.07 7.14 21.82 13.32
3/13/2021 4:45:00 PM 3.75 38.75 0.07 7.14 20.9 13.29
3/13/2021 5:00:00 PM 3.77 38.786 0.07 7.14 21.69 13.25
3/13/2021 5:15:00 PM 3.8 38.84 0.07 7.13 21.55 13.22
3/13/2021 5:30:00 PM 3.82 38.876 0.07 7.13 21.53 13.18
3/13/2021 5:45:00 PM 3.84 38.912 0.07 7.12 21.61 13.16
3/13/2021 6:00:00 PM 3.85 38.93 0.07 7.13 21.68 13.12
3/13/2021 6:15:00 PM 3.86 38.948 0.07 7.12 21.43 13.1
3/13/2021 6:30:00 PM 3.87 38.966 0.07 7.12 21.59 13.08
3/13/2021 6:45:00 PM 3.88 38.984 0.07 7.11 21.4 13.06
3/13/2021 7:00:00 PM 3.89 39.002 0.07 7.12 21.94 13.04
3/13/2021 7:15:00 PM 3.89 39.002 0.07 7.11 20.8 13.02
3/13/2021 7:30:00 PM 3.9 39.02 0.07 7.11 22.12 13.01
3/13/2021 7:45:00 PM 3.91 39.038 0.07 7.11 21.73 12.98
3/13/2021 8:00:00 PM 3.92 39.056 0.07 7.1 21.17 12.97
3/13/2021 8:15:00 PM 3.94 39.092 0.07 7.1 21.78 12.95
3/13/2021 8:30:00 PM 3.95 39.11 0.07 7.1 23.43 12.94
3/13/2021 8:45:00 PM 3.96 39.128 0.07 7.1 21.23 12.92
3/13/2021 9:00:00 PM 3.97 39.146 0.07 7.1 21.85 12.91
3/13/2021 9:15:00 PM 3.99 39.182 0.07 7.1 22 12.89
3/13/2021 9:30:00 PM 3.99 39.182 0.07 7.1 21.84 12.88
3/13/2021 9:45:00 PM 4 39.2 0.07 7.09 22.33 12.87
3/13/2021 10:00:00 PM 4 39.2 0.07 7.09 22.8 12.85
3/13/2021 10:15:00 PM 4.02 39.236 0.07 7.09 21.76 12.84
3/13/2021 10:30:00 PM 4.03 39.254 0.07 7.09 23.3 12.83
3/13/2021 10:45:00 PM 4.03 39.254 0.07 7.09 21.89 12.82
3/13/2021 11:00:00 PM 4.04 39.272 0.07 7.1 22.04 12.81
3/13/2021 11:15:00 PM 4.04 39.272 0.07 7.09 21.12 12.81
3/13/2021 11:30:00 PM 4.03 39.254 0.07 7.09 22.69 12.8
3/13/2021 11:45:00 PM 4.04 39.272 0.071 7.08 22.31 12.8
3/14/2021 12:00:00 AM 4.03 39.254 0.071 7.09 21.84 12.79
3/14/2021 12:15:00 AM 4.02 39.236 0.071 7.08 22.05 12.79
3/14/2021 12:30:00 AM 3.99 39.182 0.071 7.09 22.39 12.79
3/14/2021 12:45:00 AM 3.97 39.146 0.071 7.08 22.35 12.8
3/14/2021 1:00:00 AM 3.94 39.092 0.071 7.08 22.03 12.81
3/14/2021 1:15:00 AM 3.9 39.02 0.071 7.09 22.57 12.82
3/14/2021 1:30:00 AM 3.86 38.948 0.071 7.09 21.94 12.83
3/14/2021 1:45:00 AM 3.81 38.858 0.071 7.08 22.92 12.85
3/14/2021 3:00:00 AM 3.55 38.39 0.072 7.08 21.36 12.93
3/14/2021 4:15:00 AM 3.49 38.282 0.072 7.07 21.59 12.95
3/14/2021 4:30:00 AM 3.42 38.156 0.072 7.07 22.86 12.96
3/14/2021 4:45:00 AM 3.37 38.066 0.072 7.08 23.55 12.98
3/14/2021 5:00:00 AM 3.31 37.958 0.072 7.08 22.95 13.01
3/14/2021 5:15:00 AM 3.25 37.85 0.072 7.08 21.94 13.02
3/14/2021 5:30:00 AM 3.2 37.76 0.073 7.08 22.56 13.04
3/14/2021 5:45:00 AM 3.15 37.67 0.073 7.07 21.72 13.06
3/14/2021 6:00:00 AM 3.1 37.58 0.073 7.08 21.79 13.09
3/14/2021 6:15:00 AM 3.05 37.49 0.073 7.08 21.83 13.1
3/14/2021 6:30:00 AM 2.98 37.364 0.073 7.08 22.88 13.12
3/14/2021 6:45:00 AM 2.92 37.256 0.073 7.08 22.82 13.14
3/14/2021 7:00:00 AM 2.86 37.148 0.073 7.08 22.28 13.16
3/14/2021 7:15:00 AM 2.81 37.058 0.074 7.08 22.1 13.18
3/14/2021 7:30:00 AM 2.76 36.968 0.074 7.08 22.22 13.21
3/14/2021 7:45:00 AM 2.72 36.896 0.074 7.08 21.9 13.23
3/14/2021 8:00:00 AM 2.67 36.806 0.074 7.08 22.18 13.27
3/14/2021 8:15:00 AM 2.62 36.716 0.074 7.09 22.03 13.3
3/14/2021 8:30:00 AM 2.58 36.644 0.074 7.09 22.14 13.33
3/14/2021 8:45:00 AM 2.54 36.572 0.074 7.09 21.37 13.35
3/14/2021 9:00:00 AM 2.53 36.554 0.074 7.1 21.89 13.4
3/14/2021 9:15:00 AM 2.53 36.554 0.074 7.11 21.55 13.43
3/14/2021 9:30:00 AM 2.56 36.608 0.074 7.11 21.96 13.45
3/14/2021 9:45:00 AM 2.59 36.662 0.074 7.12 21.89 13.47
3/14/2021 10:00:00 AM 2.63 36.734 0.075 7.12 21.54 13.48
3/14/2021 10:15:00 AM 2.68 36.824 0.075 7.13 20.82 13.5
3/14/2021 10:30:00 AM 2.75 36.95 0.075 7.14 22.13 13.5
3/14/2021 10:45:00 AM 2.79 37.022 0.075 7.14 21.77 13.49
3/14/2021 11:00:00 AM 2.88 37.184 0.075 7.14 22.71 13.48
3/14/2021 11:15:00 AM 2.98 37.364 0.075 7.15 20.44 13.49
3/14/2021 11:30:00 AM 3.05 37.49 0.075 7.17 21.89 13.48
3/14/2021 11:45:00 AM 3.15 37.67 0.075 7.17 21.43 13.46
3/14/2021 12:00:00 PM 3.22 37.796 0.075 7.17 21.77 13.46
3/14/2021 12:15:00 PM 3.3 37.94 0.075 7.17 21.5 13.43
3/14/2021 12:30:00 PM 3.27 37.886 0.075 7.18 21.51 13.41
3/14/2021 12:45:00 PM 3.31 37.958 0.075 7.17 21.07 13.41
3/14/2021 1:00:00 PM 3.25 37.85 0.075 7.18 20.11 13.42
3/14/2021 1:15:00 PM 3.29 37.922 0.075 7.2 21.35 13.42
3/14/2021 1:30:00 PM 3.37 38.066 0.075 7.19 21.35 13.43
3/14/2021 1:45:00 PM 3.38 38.084 0.075 7.2 21.11 13.41
3/14/2021 2:00:00 PM 3.49 38.282 0.075 7.21 20.89 13.41
3/14/2021 2:15:00 PM 3.5 38.3 0.075 7.21 21.21 13.4
3/14/2021 2:30:00 PM 3.51 38.318 0.075 7.21 21.65 13.4
3/14/2021 2:45:00 PM 3.58 38.444 0.075 7.21 21.14 13.4
3/14/2021 3:00:00 PM 3.53 38.354 0.076 7.21 21.97 13.37
3/14/2021 3:15:00 PM 3.6 38.48 0.076 7.22 20.72 13.36
3/14/2021 3:30:00 PM 3.62 38.516 0.076 7.21 20.86 13.34
3/14/2021 3:45:00 PM 3.67 38.606 0.076 7.22 20.2 13.34
3/14/2021 4:00:00 PM 3.72 38.696 0.076 7.23 21.56 13.35
3/14/2021 4:15:00 PM 3.76 38.768 0.076 7.23 20.64 13.31
3/14/2021 4:30:00 PM 3.76 38.768 0.076 7.24 21.17 13.3
3/14/2021 4:45:00 PM 3.79 38.822 0.076 7.24 20.82 13.3
3/14/2021 5:00:00 PM 3.79 38.822 0.076 7.24 22.12 13.27
3/14/2021 5:15:00 PM 3.79 38.822 0.076 7.23 22.03 13.24
3/14/2021 5:30:00 PM 3.8 38.84 0.076 7.24 21.41 13.23
3/14/2021 5:45:00 PM 3.78 38.804 0.076 7.23 21.01 13.22
3/14/2021 6:00:00 PM 3.77 38.786 0.076 7.23 20.01 13.2
3/14/2021 6:15:00 PM 3.75 38.75 0.076 7.23 21.23 13.17
3/14/2021 6:30:00 PM 3.71 38.678 0.076 7.22 21.72 13.16
3/14/2021 6:45:00 PM 3.69 38.642 0.076 7.22 21.19 13.13
3/14/2021 7:00:00 PM 3.66 38.588 0.076 7.21 20.62 13.12
3/14/2021 7:15:00 PM 3.62 38.516 0.076 7.2 20.23 13.12
3/14/2021 7:30:00 PM 3.59 38.462 0.076 7.19 21.05 13.1
3/14/2021 7:45:00 PM 3.57 38.426 0.076 7.19 21.08 13.08
3/14/2021 8:00:00 PM 3.55 38.39 0.076 7.18 20.91 13.08
3/14/2021 8:15:00 PM 3.52 38.336 0.076 7.18 20.62 13.08
3/14/2021 8:30:00 PM 3.5 38.3 0.076 7.19 20.76 13.08
3/14/2021 8:45:00 PM 3.48 38.264 0.076 7.18 20.54 13.09
3/14/2021 9:00:00 PM 3.47 38.246 0.076 7.17 21.27 13.09
3/14/2021 9:15:00 PM 3.45 38.21 0.076 7.18 21.79 13.09
3/14/2021 9:30:00 PM 3.44 38.192 0.076 7.17 21.58 13.08
3/14/2021 9:45:00 PM 3.42 38.156 0.076 7.17 21.83 13.08
3/14/2021 10:00:00 PM 3.39 38.102 0.076 7.17 20.8 13.08
3/14/2021 10:15:00 PM 3.38 38.084 0.076 7.17 21.14 13.09
3/14/2021 10:30:00 PM 3.37 38.066 0.076 7.17 21.56 13.09
3/14/2021 10:45:00 PM 3.36 38.048 0.076 7.16 21.69 13.09
3/14/2021 11:00:00 PM 3.34 38.012 0.076 7.16 20.72 13.08
3/14/2021 11:15:00 PM 3.3 37.94 0.076 7.16 21.24 13.1
3/14/2021 11:30:00 PM 3.28 37.904 0.076 7.16 21.78 13.11
3/14/2021 11:45:00 PM 3.26 37.868 0.076 7.16 21.26 13.11
3/15/2021 12:00:00 AM 3.24 37.832 0.076 7.16 21.45 13.11
3/15/2021 12:15:00 AM 3.2 37.76 0.076 7.16 21.25 13.13
3/15/2021 12:30:00 AM 3.16 37.688 0.076 7.15 21.48 13.14
3/15/2021 12:45:00 AM 3.11 37.598 0.076 7.15 21.24 13.14
3/15/2021 1:00:00 AM 3.05 37.49 0.076 7.15 21.57 13.16
3/15/2021 1:15:00 AM 3.01 37.418 0.076 7.15 22.22 13.18
3/15/2021 1:30:00 AM 2.94 37.292 0.076 7.15 21.52 13.19
3/15/2021 1:45:00 AM 2.89 37.202 0.077 7.14 21.61 13.21
3/15/2021 2:00:00 AM 2.84 37.112 0.077 7.15 22.51 13.23
3/15/2021 2:15:00 AM 2.79 37.022 0.077 7.14 22.2 13.24
3/15/2021 2:30:00 AM 2.73 36.914 0.077 7.14 22.06 13.26
3/15/2021 2:45:00 AM 2.67 36.806 0.077 7.14 21.37 13.28
3/15/2021 3:00:00 AM 2.62 36.716 0.077 7.14 22.91 13.3
3/15/2021 3:15:00 AM 2.56 36.608 0.077 7.14 22.62 13.32
3/15/2021 3:30:00 AM 2.51 36.518 0.077 7.14 22.06 13.35
3/15/2021 3:45:00 AM 2.44 36.392 0.077 7.13 20.85 13.37
3/15/2021 4:00:00 AM 2.37 36.266 0.077 7.13 22.88 13.39
3/15/2021 4:15:00 AM 2.3 36.14 0.077 7.13 21.35 13.41
3/15/2021 4:30:00 AM 2.23 36.014 0.077 7.13 21.74 13.44
3/15/2021 4:45:00 AM 2.15 35.87 0.077 7.13 21.25 13.46
3/15/2021 5:00:00 AM 2.08 35.744 0.078 7.12 21.39 13.48
3/15/2021 5:15:00 AM 2 35.6 0.078 7.11 23.62 13.52
3/15/2021 5:30:00 AM 1.92 35.456 0.078 7.1 22.72 13.56
3/15/2021 5:45:00 AM 1.85 35.33 0.078 7.1 21.35 13.58
3/15/2021 6:00:00 AM 1.78 35.204 0.078 7.1 22.8 13.62
3/15/2021 6:15:00 AM 1.7 35.06 0.078 7.1 22.55 13.65
3/15/2021 6:30:00 AM 1.63 34.934 0.078 7.1 21.9 13.68
3/15/2021 6:45:00 AM 1.56 34.808 0.078 7.1 22.15 13.71
3/15/2021 7:00:00 AM 1.48 34.664 0.079 7.09 22.46 13.75
3/15/2021 7:15:00 AM 1.39 34.502 0.079 7.09 21.64 13.77
3/15/2021 7:30:00 AM 1.29 34.322 0.079 7.09 22 13.82
3/15/2021 7:45:00 AM 1.23 34.214 0.079 7.09 21.86 13.85
3/15/2021 8:00:00 AM 1.14 34.052 0.079 7.09 22.62 13.93
3/15/2021 8:15:00 AM 1.07 33.926 0.079 7.09 21.79 13.98
3/15/2021 8:30:00 AM 1.01 33.818 0.079 7.09 22.26 14.02
3/15/2021 8:45:00 AM 0.94 33.692 0.079 7.09 23.46 14.06
3/15/2021 9:00:00 AM 0.89 33.602 0.08 7.1 21 14.12
3/15/2021 9:15:00 AM 0.87 33.566 0.08 7.11 21.91 14.18
3/15/2021 9:30:00 AM 0.86 33.548 0.08 7.12 21.64 14.22
3/15/2021 9:45:00 AM 0.88 33.584 0.08 7.14 23.6 14.24
3/15/2021 10:00:00 AM 0.9 33.62 0.08 7.14 22.3 14.29
3/15/2021 10:15:00 AM 0.93 33.674 0.08 7.15 21.96 14.31
3/15/2021 10:30:00 AM 0.97 33.746 0.08 7.16 21.8 14.33
3/15/2021 10:45:00 AM 1.01 33.818 0.08 7.17 21.41 14.35
3/15/2021 11:00:00 AM 1.08 33.944 0.08 7.19 21.02 14.36
3/15/2021 11:15:00 AM 1.16 34.088 0.08 7.19 22.59 14.37
3/15/2021 11:30:00 AM 1.26 34.268 0.08 7.2 21.68 14.36
3/15/2021 11:45:00 AM 1.35 34.43 0.08 7.2 22.47 14.34
3/15/2021 12:00:00 PM 1.46 34.628 0.08 7.21 21.89 14.32
3/15/2021 12:15:00 PM 1.57 34.826 0.08 7.21 21.8 14.31
3/15/2021 12:30:00 PM 1.67 35.006 0.08 7.22 22.25 14.27
3/15/2021 12:45:00 PM 1.77 35.186 0.08 7.23 22.09 14.27
3/15/2021 1:00:00 PM 1.85 35.33 0.08 7.24 22.47 14.25
3/15/2021 1:15:00 PM 1.92 35.456 0.081 7.24 22.74 14.24
3/15/2021 1:30:00 PM 1.97 35.546 0.081 7.25 22.94 14.22
3/15/2021 1:45:00 PM 2 35.6 0.081 7.25 23.66 14.19
3/15/2021 2:00:00 PM 2.03 35.654 0.081 7.26 23.75 14.19
3/15/2021 2:15:00 PM 2.04 35.672 0.081 7.26 21.52 14.17
3/15/2021 2:30:00 PM 2.02 35.636 0.081 7.26 22.02 14.18
3/15/2021 2:45:00 PM 2 35.6 0.081 7.26 20.98 14.18
3/15/2021 3:00:00 PM 1.98 35.564 0.081 7.26 22.62 14.17
3/15/2021 3:15:00 PM 1.97 35.546 0.082 7.26 21.8 14.16
3/15/2021 3:30:00 PM 1.97 35.546 0.082 7.27 21.88 14.14
3/15/2021 3:45:00 PM 1.98 35.564 0.082 7.26 23.51 14.14
3/15/2021 4:00:00 PM 1.99 35.582 0.082 7.27 23.36 14.12
3/15/2021 4:15:00 PM 2 35.6 0.082 7.27 22.18 14.1
3/15/2021 4:30:00 PM 2.01 35.618 0.083 7.27 21.09 14.08
3/15/2021 4:45:00 PM 2.01 35.618 0.083 7.27 22.41 14.06
3/15/2021 5:00:00 PM 2.06 35.708 0.083 7.28 22.06 14.04
3/15/2021 5:15:00 PM 2.09 35.762 0.083 7.27 21.87 14.03
3/15/2021 5:30:00 PM 2.11 35.798 0.083 7.28 21.47 14.01
3/15/2021 5:45:00 PM 2.13 35.834 0.083 7.28 22.4 13.98
3/15/2021 6:00:00 PM 2.14 35.852 0.083 7.27 22.45 13.95
3/15/2021 6:15:00 PM 2.15 35.87 0.084 7.28 22.89 13.91
3/15/2021 6:30:00 PM 2.15 35.87 0.084 7.27 22.02 13.86
3/15/2021 6:45:00 PM 2.15 35.87 0.084 7.26 21.29 13.84
3/15/2021 7:00:00 PM 2.15 35.87 0.084 7.26 21.88 13.81
3/15/2021 7:15:00 PM 2.15 35.87 0.084 7.26 22.32 13.77
3/15/2021 7:30:00 PM 2.13 35.834 0.083 7.25 21.2 13.77
3/15/2021 7:45:00 PM 2.11 35.798 0.083 7.24 21.9 13.75
3/15/2021 8:00:00 PM 2.09 35.762 0.083 7.24 23.44 13.74
3/15/2021 8:15:00 PM 2.06 35.708 0.083 7.23 20.89 13.73
3/15/2021 8:30:00 PM 2.04 35.672 0.083 7.24 20.44 13.73
3/15/2021 8:45:00 PM 2.01 35.618 0.083 7.23 21.24 13.74
3/15/2021 9:00:00 PM 1.98 35.564 0.083 7.23 20.12 13.74
3/15/2021 9:15:00 PM 1.95 35.51 0.083 7.22 19.93 13.74
3/15/2021 9:30:00 PM 1.92 35.456 0.084 7.22 20.65 13.75
3/15/2021 9:45:00 PM 1.89 35.402 0.084 7.22 21.46 13.76
3/15/2021 10:00:00 PM 1.86 35.348 0.084 7.21 20.63 13.76
3/15/2021 10:15:00 PM 1.82 35.276 0.084 7.22 20.61 13.77
3/15/2021 10:30:00 PM 1.79 35.222 0.084 7.21 21.8 13.78
3/15/2021 10:45:00 PM 1.76 35.168 0.084 7.21 20.78 13.78
3/15/2021 11:00:00 PM 1.73 35.114 0.084 7.21 21.52 13.79
3/15/2021 11:15:00 PM 1.69 35.042 0.084 7.21 19.68 13.81
3/15/2021 11:30:00 PM 1.66 34.988 0.084 7.21 20.08 13.81
3/15/2021 11:45:00 PM 1.63 34.934 0.084 7.21 20.98 13.82
3/16/2021 12:00:00 AM 1.6 34.88 0.084 7.2 20.31 13.82
3/16/2021 12:15:00 AM 1.57 34.826 0.084 7.21 21.85 13.82
3/16/2021 12:30:00 AM 1.53 34.754 0.084 7.21 19.75 13.83
3/16/2021 12:45:00 AM 1.51 34.718 0.084 7.2 20.32 13.82
3/16/2021 1:00:00 AM 1.48 34.664 0.084 7.21 21.67 13.84
3/16/2021 1:15:00 AM 1.46 34.628 0.084 7.2 21.19 13.84
3/16/2021 1:30:00 AM 1.43 34.574 0.084 7.19 22.17 13.84
3/16/2021 1:45:00 AM 1.41 34.538 0.084 7.2 19.76 13.84
3/16/2021 2:00:00 AM 1.39 34.502 0.084 7.2 21.1 13.85
3/16/2021 2:15:00 AM 1.38 34.484 0.084 7.19 20.15 13.86
3/16/2021 2:30:00 AM 1.37 34.466 0.084 7.19 21.73 13.85
3/16/2021 2:45:00 AM 1.36 34.448 0.084 7.19 20.8 13.85
3/16/2021 3:00:00 AM 1.34 34.412 0.084 7.18 20.35 13.86
3/16/2021 3:15:00 AM 1.34 34.412 0.084 7.19 21.49 13.85
3/16/2021 3:30:00 AM 1.33 34.394 0.084 7.19 21.16 13.86
3/16/2021 3:45:00 AM 1.32 34.376 0.084 7.18 20.58 13.85
3/16/2021 4:00:00 AM 1.32 34.376 0.085 7.18 20.23 13.84
3/16/2021 4:15:00 AM 1.32 34.376 0.085 7.18 20.99 13.83
3/16/2021 4:30:00 AM 1.32 34.376 0.085 7.18 21.67 13.83
3/16/2021 4:45:00 AM 1.32 34.376 0.085 7.18 21.96 13.82
3/16/2021 5:00:00 AM 1.33 34.394 0.085 7.19 21.96 13.83
3/16/2021 5:15:00 AM 1.33 34.394 0.085 7.18 22.34 13.81
3/16/2021 5:30:00 AM 1.33 34.394 0.085 7.18 21.97 13.81
3/16/2021 5:45:00 AM 1.33 34.394 0.085 7.19 21.37 13.8
3/16/2021 6:00:00 AM 1.33 34.394 0.085 7.19 20.38 13.81
3/16/2021 6:15:00 AM 1.32 34.376 0.085 7.18 21.76 13.79
3/16/2021 6:30:00 AM 1.31 34.358 0.085 7.18 21.18 13.79
3/16/2021 6:45:00 AM 1.3 34.34 0.085 7.18 21.19 13.8
3/16/2021 7:00:00 AM 1.29 34.322 0.085 7.18 21.86 13.8
3/16/2021 7:15:00 AM 1.28 34.304 0.085 7.18 21.82 13.82
3/16/2021 7:30:00 AM 1.26 34.268 0.085 7.18 20.52 13.83
3/16/2021 7:45:00 AM 1.25 34.25 0.085 7.17 21.97 13.85
3/16/2021 8:00:00 AM 1.23 34.214 0.085 7.18 21.06 13.87
3/16/2021 8:15:00 AM 1.22 34.196 0.085 7.17 21.7 13.89
3/16/2021 8:30:00 AM 1.21 34.178 0.085 7.19 23.1 13.93
3/16/2021 8:45:00 AM 1.19 34.142 0.085 7.19 21 13.98
3/16/2021 9:00:00 AM 1.18 34.124 0.085 7.2 20.63 14.01
3/16/2021 9:15:00 AM 1.16 34.088 0.085 7.21 22.21 14.02
3/16/2021 9:30:00 AM 1.15 34.07 0.085 7.21 21.54 14.06
3/16/2021 9:45:00 AM 1.16 34.088 0.085 7.22 21.25 14.09
3/16/2021 10:00:00 AM 1.16 34.088 0.085 7.22 20.3 14.12
3/16/2021 10:15:00 AM 1.16 34.088 0.086 7.23 21.59 14.13
3/16/2021 10:30:00 AM 1.17 34.106 0.086 7.24 21.9 14.15
3/16/2021 10:45:00 AM 1.17 34.106 0.086 7.24 21.79 14.18
3/16/2021 11:00:00 AM 1.16 34.088 0.086 7.25 21.21 14.19
3/16/2021 11:15:00 AM 1.15 34.07 0.086 7.25 21.55 14.19
3/16/2021 11:30:00 AM 1.14 34.052 0.086 7.25 21.64 14.21
3/16/2021 11:45:00 AM 1.13 34.034 0.086 7.26 21.09 14.21
3/16/2021 12:00:00 PM 1.12 34.016 0.086 7.26 21.18 14.21
3/16/2021 12:15:00 PM 1.12 34.016 0.086 7.26 21.25 14.22
3/16/2021 12:30:00 PM 1.17 34.106 0.086 7.27 21.75 14.24
3/16/2021 12:45:00 PM 1.2 34.16 0.086 7.28 21.88 14.26
3/16/2021 1:00:00 PM 1.2 34.16 0.086 7.28 21.98 14.26
3/16/2021 1:15:00 PM 1.23 34.214 0.086 7.28 21.57 14.27
3/16/2021 1:30:00 PM 1.21 34.178 0.086 7.29 22.21 14.27
3/16/2021 1:45:00 PM 1.19 34.142 0.086 7.29 21.27 14.27
3/16/2021 2:00:00 PM 1.18 34.124 0.086 7.29 21.17 14.26
3/16/2021 2:15:00 PM 1.17 34.106 0.087 7.29 21.73 14.25
3/16/2021 2:30:00 PM 1.17 34.106 0.087 7.29 20.55 14.25
3/16/2021 2:45:00 PM 1.17 34.106 0.087 7.3 20.66 14.24
3/16/2021 3:00:00 PM 1.18 34.124 0.087 7.29 21.16 14.24
3/16/2021 3:15:00 PM 1.18 34.124 0.087 7.29 20.67 14.25
3/16/2021 3:30:00 PM 1.18 34.124 0.087 7.3 21.68 14.24
3/16/2021 3:45:00 PM 1.18 34.124 0.087 7.29 20.99 14.23
3/16/2021 4:00:00 PM 1.17 34.106 0.087 7.3 21.35 14.23
3/16/2021 4:15:00 PM 1.17 34.106 0.087 7.3 21.18 14.21
3/16/2021 4:30:00 PM 1.17 34.106 0.087 7.3 21.22 14.21
3/16/2021 4:45:00 PM 1.15 34.07 0.087 7.29 21.38 14.19
3/16/2021 5:00:00 PM 1.15 34.07 0.088 7.3 21.06 14.17
3/16/2021 5:15:00 PM 1.13 34.034 0.088 7.29 20.98 14.16
3/16/2021 5:30:00 PM 1.13 34.034 0.088 7.29 21.31 14.15
3/16/2021 5:45:00 PM 1.14 34.052 0.088 7.28 20.72 14.13
3/16/2021 6:00:00 PM 1.13 34.034 0.088 7.27 20.75 14.11
3/16/2021 6:15:00 PM 1.13 34.034 0.088 7.27 20.88 14.09
3/16/2021 6:30:00 PM 1.14 34.052 0.088 7.27 21.87 14.07
3/16/2021 6:45:00 PM 1.13 34.034 0.088 7.27 21.36 14.06
3/16/2021 7:00:00 PM 1.14 34.052 0.088 7.26 20.63 14.04
3/16/2021 7:15:00 PM 1.14 34.052 0.088 7.26 21.14 14.02
3/16/2021 7:30:00 PM 1.14 34.052 0.088 7.24 20.83 14
3/16/2021 7:45:00 PM 1.15 34.07 0.088 7.25 20.57 13.99
3/16/2021 8:00:00 PM 1.15 34.07 0.089 7.24 20.09 13.97
3/16/2021 8:15:00 PM 1.15 34.07 0.089 7.23 20.8 13.97
3/16/2021 8:30:00 PM 1.15 34.07 0.089 7.24 22.09 13.96
3/16/2021 8:45:00 PM 1.15 34.07 0.089 7.23 20.7 13.98
3/16/2021 9:00:00 PM 1.16 34.088 0.089 7.23 20.92 13.96
3/16/2021 9:15:00 PM 1.16 34.088 0.089 7.23 20.93 13.95
3/16/2021 9:30:00 PM 1.16 34.088 0.089 7.23 20.87 13.95
3/16/2021 9:45:00 PM 1.17 34.106 0.089 7.22 20.06 13.95
3/16/2021 10:00:00 PM 1.17 34.106 0.089 7.23 20.67 13.95
3/16/2021 10:15:00 PM 1.18 34.124 0.089 7.22 20.61 13.94
3/16/2021 10:30:00 PM 1.19 34.142 0.089 7.22 19.86 13.93
3/16/2021 10:45:00 PM 1.19 34.142 0.089 7.22 19.58 13.92
3/16/2021 11:00:00 PM 1.2 34.16 0.089 7.22 20.73 13.92
3/16/2021 11:15:00 PM 1.2 34.16 0.089 7.22 19.65 13.92
3/16/2021 11:30:00 PM 1.2 34.16 0.089 7.22 22.27 13.92
3/16/2021 11:45:00 PM 1.21 34.178 0.089 7.22 21.16 13.91
3/17/2021 12:00:00 AM 1.21 34.178 0.089 7.21 21.69 13.91
3/17/2021 12:15:00 AM 1.2 34.16 0.089 7.21 20.77 13.9
3/17/2021 12:30:00 AM 1.2 34.16 0.089 7.21 19.92 13.9
3/17/2021 12:45:00 AM 1.19 34.142 0.089 7.22 20.75 13.9
3/17/2021 1:00:00 AM 1.19 34.142 0.089 7.21 20.34 13.9
3/17/2021 1:15:00 AM 1.19 34.142 0.089 7.21 20.77 13.89
3/17/2021 1:30:00 AM 1.2 34.16 0.089 7.22 20.89 13.9
3/17/2021 1:45:00 AM 1.2 34.16 0.089 7.21 21.46 13.89
3/17/2021 2:00:00 AM 1.2 34.16 0.089 7.21 20.53 13.89
3/17/2021 2:15:00 AM 1.21 34.178 0.089 7.21 20.32 13.88
3/17/2021 2:30:00 AM 1.21 34.178 0.089 7.21 21.06 13.86
3/17/2021 2:45:00 AM 1.22 34.196 0.089 7.21 21.01 13.87
3/17/2021 3:00:00 AM 1.22 34.196 0.089 7.21 21.74 13.86
3/17/2021 3:15:00 AM 1.23 34.214 0.089 7.2 20.88 13.86
3/17/2021 3:30:00 AM 1.24 34.232 0.089 7.21 21.24 13.84
3/17/2021 3:45:00 AM 1.25 34.25 0.089 7.21 21.41 13.84
3/17/2021 4:00:00 AM 1.25 34.25 0.089 7.21 19.51 13.84
3/17/2021 4:15:00 AM 1.26 34.268 0.089 7.2 20.24 13.83
3/17/2021 4:30:00 AM 1.27 34.286 0.09 7.2 20.87 13.82
3/17/2021 4:45:00 AM 1.27 34.286 0.09 7.21 19.89 13.83
3/17/2021 5:00:00 AM 1.28 34.304 0.09 7.2 19.65 13.82
3/17/2021 5:15:00 AM 1.29 34.322 0.09 7.2 20.33 13.81
3/17/2021 5:30:00 AM 1.29 34.322 0.09 7.2 20.88 13.82
3/17/2021 5:45:00 AM 1.3 34.34 0.09 7.2 19.33 13.82
3/17/2021 6:00:00 AM 1.31 34.358 0.09 7.2 19.39 13.81
3/17/2021 6:15:00 AM 1.32 34.376 0.09 7.2 19.53 13.81
3/17/2021 6:30:00 AM 1.32 34.376 0.09 7.2 20.3 13.79
3/17/2021 6:45:00 AM 1.33 34.394 0.09 7.2 19.59 13.8
3/17/2021 7:00:00 AM 1.34 34.412 0.09 7.19 20.06 13.8
3/17/2021 7:15:00 AM 1.34 34.412 0.09 7.2 19.25 13.8
3/17/2021 7:30:00 AM 1.35 34.43 0.09 7.19 19.66 13.8
3/17/2021 7:45:00 AM 1.36 34.448 0.09 7.2 19.12 13.8
3/17/2021 8:00:00 AM 1.37 34.466 0.09 7.21 20.76 13.82
3/17/2021 8:15:00 AM 1.38 34.484 0.09 7.2 18.76 13.87
3/17/2021 8:30:00 AM 1.41 34.538 0.09 7.21 19.43 13.9
3/17/2021 8:45:00 AM 1.43 34.574 0.09 7.22 21.34 13.92
3/17/2021 9:00:00 AM 1.46 34.628 0.09 7.23 19.2 13.95
3/17/2021 9:15:00 AM 1.5 34.7 0.089 7.24 18.71 13.99
3/17/2021 9:30:00 AM 1.53 34.754 0.089 7.25 19.96 13.99
3/17/2021 9:45:00 AM 1.56 34.808 0.089 7.25 19.61 14.01
3/17/2021 10:00:00 AM 1.59 34.862 0.089 7.27 18.81 14.01
3/17/2021 10:15:00 AM 1.61 34.898 0.089 7.28 19.65 14.01
3/17/2021 10:30:00 AM 1.64 34.952 0.089 7.28 18.62 14.02
3/17/2021 10:45:00 AM 1.68 35.024 0.089 7.28 19.51 14.03
3/17/2021 11:00:00 AM 1.71 35.078 0.089 7.29 19.22 14
3/17/2021 11:15:00 AM 1.75 35.15 0.089 7.3 20.8 14.03
3/17/2021 11:30:00 AM 1.8 35.24 0.089 7.3 20.17 14.04
3/17/2021 11:45:00 AM 1.85 35.33 0.089 7.31 19.71 14.04
3/17/2021 12:00:00 PM 1.9 35.42 0.089 7.31 20.21 14.03
3/17/2021 12:15:00 PM 1.95 35.51 0.089 7.32 19.63 14
3/17/2021 12:30:00 PM 2 35.6 0.09 7.33 19.91 14
3/17/2021 12:45:00 PM 2.07 35.726 0.089 7.34 19.54 14
3/17/2021 1:00:00 PM 2.16 35.888 0.09 7.34 19.38 13.99
3/17/2021 1:15:00 PM 2.25 36.05 0.089 7.35 20.02 13.97
3/17/2021 1:30:00 PM 2.41 36.338 0.089 7.36 19.77 13.98
3/17/2021 1:45:00 PM 2.61 36.698 0.089 7.36 20.49 13.93
3/17/2021 2:00:00 PM 2.76 36.968 0.09 7.36 19.36 13.88
3/17/2021 2:15:00 PM 2.89 37.202 0.09 7.36 19.45 13.84
3/17/2021 2:30:00 PM 3.05 37.49 0.09 7.38 19.63 13.79
3/17/2021 2:45:00 PM 3.16 37.688 0.089 7.38 19.85 13.76
3/17/2021 3:00:00 PM 3.24 37.832 0.09 7.38 19.44 13.7
3/17/2021 3:15:00 PM 3.3 37.94 0.09 7.38 19.68 13.69
3/17/2021 3:30:00 PM 3.33 37.994 0.09 7.39 19.15 13.65
3/17/2021 3:45:00 PM 3.36 38.048 0.09 7.4 21.89 13.63
3/17/2021 4:00:00 PM 3.39 38.102 0.09 7.4 20.1 13.58
3/17/2021 4:15:00 PM 3.42 38.156 0.09 7.4 19.23 13.61
3/17/2021 4:30:00 PM 3.45 38.21 0.09 7.41 19.98 13.58
3/17/2021 4:45:00 PM 3.49 38.282 0.09 7.41 21.09 13.53
3/17/2021 5:00:00 PM 3.51 38.318 0.09 7.41 19.41 13.52
3/17/2021 5:15:00 PM 3.52 38.336 0.09 7.41 20.31 13.52
3/17/2021 5:30:00 PM 3.52 38.336 0.09 7.41 20.31 13.48
3/17/2021 5:45:00 PM 3.51 38.318 0.09 7.41 21 13.43
3/17/2021 6:00:00 PM 3.5 38.3 0.09 7.4 19.72 13.43
3/17/2021 6:15:00 PM 3.49 38.282 0.09 7.39 19.54 13.4
3/17/2021 6:30:00 PM 3.48 38.264 0.09 7.39 19.44 13.31
3/17/2021 6:45:00 PM 3.47 38.246 0.09 7.38 18.47 13.3
3/17/2021 7:00:00 PM 3.46 38.228 0.09 7.37 18.52 13.27
3/17/2021 7:15:00 PM 3.45 38.21 0.09 7.36 18.18 13.22
3/17/2021 7:30:00 PM 3.45 38.21 0.09 7.34 17.14 13.18
3/17/2021 7:45:00 PM 3.45 38.21 0.09 7.33 17.15 13.14
3/17/2021 8:00:00 PM 3.45 38.21 0.09 7.33 17.42 13.1
3/17/2021 8:15:00 PM 3.45 38.21 0.09 7.32 18.74 13.09
3/17/2021 8:30:00 PM 3.46 38.228 0.09 7.31 18.85 13.08
3/17/2021 8:45:00 PM 3.48 38.264 0.09 7.31 17.89 13.05
3/17/2021 9:00:00 PM 3.49 38.282 0.09 7.3 18.49 13.06
3/17/2021 9:15:00 PM 3.49 38.282 0.09 7.3 17.99 13.02
3/17/2021 9:30:00 PM 3.5 38.3 0.09 7.29 17.93 13.03
3/17/2021 9:45:00 PM 3.49 38.282 0.09 7.29 17.69 13.01
3/17/2021 10:00:00 PM 3.5 38.3 0.09 7.28 18 13.04
3/17/2021 10:15:00 PM 3.49 38.282 0.09 7.28 18.19 12.96
3/17/2021 10:30:00 PM 3.5 38.3 0.09 7.28 17.8 13.01
3/17/2021 10:45:00 PM 3.5 38.3 0.09 7.27 18.17 12.97
3/17/2021 11:00:00 PM 3.51 38.318 0.09 7.27 18.31 12.99
3/17/2021 11:15:00 PM 3.53 38.354 0.09 7.27 17.31 12.99
3/17/2021 11:30:00 PM 3.54 38.372 0.09 7.27 19.07 12.98
3/17/2021 11:45:00 PM 3.56 38.408 0.09 7.27 18.56 12.94
3/18/2021 12:00:00 AM 3.59 38.462 0.09 7.27 18.39 12.95
3/18/2021 12:15:00 AM 3.62 38.516 0.09 7.27 17.97 12.92
3/18/2021 12:30:00 AM 3.66 38.588 0.09 7.27 17.91 12.93
3/18/2021 12:45:00 AM 3.69 38.642 0.09 7.26 18.18 12.9
3/18/2021 1:00:00 AM 3.72 38.696 0.09 7.27 18.58 12.89
3/18/2021 1:15:00 AM 3.73 38.714 0.09 7.27 19.56 12.85
3/18/2021 1:30:00 AM 3.74 38.732 0.09 7.26 18.67 12.86
3/18/2021 1:45:00 AM 3.75 38.75 0.09 7.25 19.11 12.86
3/18/2021 2:00:00 AM 3.76 38.768 0.09 7.25 16.79 12.87
3/18/2021 2:15:00 AM 3.75 38.75 0.09 7.25 17.72 12.85
3/18/2021 2:30:00 AM 3.75 38.75 0.09 7.25 18.52 12.85
3/18/2021 2:45:00 AM 3.74 38.732 0.09 7.25 18.64 12.84
3/18/2021 3:00:00 AM 3.73 38.714 0.09 7.24 18.28 12.85
3/18/2021 3:15:00 AM 3.72 38.696 0.09 7.24 19.35 12.85
3/18/2021 3:30:00 AM 3.71 38.678 0.09 7.24 18.26 12.85
3/18/2021 3:45:00 AM 3.7 38.66 0.09 7.24 18.36 12.85
3/18/2021 4:00:00 AM 3.69 38.642 0.09 7.24 18.07 12.86
3/18/2021 4:15:00 AM 3.67 38.606 0.09 7.23 18.2 12.85
3/18/2021 4:30:00 AM 3.66 38.588 0.09 7.23 18.02 12.85
3/18/2021 4:45:00 AM 3.65 38.57 0.091 7.23 18.13 12.85
3/18/2021 5:00:00 AM 3.64 38.552 0.091 7.23 17.56 12.84
3/18/2021 5:15:00 AM 3.63 38.534 0.091 7.23 19.08 12.81
3/18/2021 5:30:00 AM 3.62 38.516 0.09 7.23 19.21 12.84
3/18/2021 5:45:00 AM 3.61 38.498 0.09 7.23 17.99 12.85
3/18/2021 6:00:00 AM 3.61 38.498 0.09 7.22 17.4 12.82
3/18/2021 6:15:00 AM 3.61 38.498 0.09 7.22 17.48 12.81
3/18/2021 6:30:00 AM 3.62 38.516 0.09 7.22 17.29 12.83
3/18/2021 6:45:00 AM 3.63 38.534 0.09 7.21 17.22 12.8
3/18/2021 7:00:00 AM 3.63 38.534 0.09 7.22 17.03 12.79
3/18/2021 7:15:00 AM 3.65 38.57 0.09 7.22 18.41 12.8
3/18/2021 7:30:00 AM 3.66 38.588 0.09 7.22 17.41 12.79
3/18/2021 7:45:00 AM 3.69 38.642 0.089 7.22 17.78 12.78
3/18/2021 8:00:00 AM 3.71 38.678 0.089 7.22 18.95 12.78
3/18/2021 8:15:00 AM 3.73 38.714 0.089 7.22 20.34 12.78
3/18/2021 8:30:00 AM 3.76 38.768 0.089 7.22 18.22 12.8
3/18/2021 8:45:00 AM 3.79 38.822 0.089 7.22 18.14 12.81
3/18/2021 9:00:00 AM 3.82 38.876 0.089 7.23 17.84 12.78
3/18/2021 9:15:00 AM 3.84 38.912 0.089 7.24 18.76 12.82
3/18/2021 9:30:00 AM 3.88 38.984 0.089 7.24 18.22 12.83
3/18/2021 9:45:00 AM 3.9 39.02 0.089 7.25 18.86 12.87
3/18/2021 10:00:00 AM 3.92 39.056 0.089 7.24 18.63 12.88
3/18/2021 10:15:00 AM 3.94 39.092 0.089 7.25 20.27 12.88
3/18/2021 10:30:00 AM 3.96 39.128 0.088 7.26 23.78 12.89
3/18/2021 10:45:00 AM 3.96 39.128 0.089 7.25 29.88 12.89
3/18/2021 11:00:00 AM 3.97 39.146 0.089 7.25 35.3 12.9
3/18/2021 11:15:00 AM 3.97 39.146 0.089 7.25 36.39 12.89
3/18/2021 11:30:00 AM 3.98 39.164 0.088 7.25 37.97 12.9
3/18/2021 11:45:00 AM 3.98 39.164 0.088 7.26 46.98 12.9
3/18/2021 12:00:00 PM 3.98 39.164 0.088 7.26 55.29 12.91
3/18/2021 12:15:00 PM 3.97 39.146 0.088 7.26 50.32 12.91
3/18/2021 12:30:00 PM 3.97 39.146 0.088 7.25 47.86 12.93
3/18/2021 12:45:00 PM 3.96 39.128 0.088 7.25 42.52 12.92
3/18/2021 1:00:00 PM 3.95 39.11 0.089 7.25 51.16 12.94
3/18/2021 1:15:00 PM 3.95 39.11 0.09 7.24 75.18 12.93
3/18/2021 1:30:00 PM 3.94 39.092 0.09 7.23 51.97 12.93
3/18/2021 1:45:00 PM 3.95 39.11 0.089 7.22 46.58 12.93
3/18/2021 2:00:00 PM 3.96 39.128 0.09 7.22 57.45 12.95
3/18/2021 2:15:00 PM 3.95 39.11 0.09 7.21 49.76 12.93
3/18/2021 2:30:00 PM 3.92 39.056 0.09 7.2 51.36 12.91
3/18/2021 2:45:00 PM 3.89 39.002 0.091 7.18 45.53 12.88
3/18/2021 3:00:00 PM 3.87 38.966 0.091 7.17 44.48 12.88
3/18/2021 3:15:00 PM 3.85 38.93 0.091 7.16 45.9 12.89
3/18/2021 3:30:00 PM 3.83 38.894 0.092 7.15 51.27 12.9
3/18/2021 3:45:00 PM 3.79 38.822 0.092 7.14 59.25 12.91
3/18/2021 4:00:00 PM 3.73 38.714 0.09 7.13 63.47 12.93
3/18/2021 4:15:00 PM 3.66 38.588 0.088 7.12 77.85 12.96
3/18/2021 4:30:00 PM 3.63 38.534 0.086 7.11 84.54 12.96
3/18/2021 4:45:00 PM 3.62 38.516 0.085 7.1 92.14 12.96
3/18/2021 5:00:00 PM 3.63 38.534 0.084 7.07 107 12.96
3/18/2021 5:15:00 PM 3.64 38.552 0.082 7.06 94.74 12.95
3/18/2021 5:30:00 PM 3.65 38.57 0.081 7.05 132.77 12.95
3/18/2021 5:45:00 PM 3.66 38.588 0.079 7.03 173.22 12.93
3/18/2021 6:00:00 PM 3.68 38.624 0.078 7.02 116.47 12.93
3/18/2021 6:15:00 PM 3.7 38.66 0.078 7.01 130.8 12.92
3/18/2021 6:30:00 PM 3.72 38.696 0.077 6.99 114.46 12.92
3/18/2021 6:45:00 PM 3.75 38.75 0.076 6.98 123.18 12.91
3/18/2021 7:00:00 PM 3.77 38.786 0.076 6.98 132.66 12.89
3/18/2021 7:15:00 PM 3.79 38.822 0.075 6.97 115.83 12.89
3/18/2021 7:30:00 PM 3.82 38.876 0.075 6.96 102.5 12.87
3/18/2021 7:45:00 PM 3.84 38.912 0.074 6.96 108.82 12.87
3/18/2021 8:00:00 PM 3.85 38.93 0.074 6.95 108.48 12.85
3/18/2021 8:15:00 PM 3.86 38.948 0.073 6.94 132.4 12.84
3/18/2021 8:30:00 PM 3.87 38.966 0.073 6.94 125.72 12.84
3/18/2021 8:45:00 PM 3.88 38.984 0.073 6.94 112.56 12.84
3/18/2021 9:00:00 PM 3.88 38.984 0.072 6.94 141.27 12.83
3/18/2021 9:15:00 PM 3.88 38.984 0.072 6.94 151.15 12.82
3/18/2021 9:30:00 PM 3.88 38.984 0.071 6.93 112.48 12.83
3/18/2021 9:45:00 PM 3.87 38.966 0.071 6.93 128.56 12.83
3/18/2021 10:00:00 PM 3.86 38.948 0.071 6.93 115.5 12.83
3/18/2021 10:15:00 PM 3.85 38.93 0.071 6.91 139.8 12.84
3/18/2021 10:30:00 PM 3.83 38.894 0.07 6.91 112.51 12.84
3/18/2021 10:45:00 PM 3.8 38.84 0.07 6.9 119.02 12.85
3/18/2021 11:00:00 PM 3.78 38.804 0.071 6.89 104.66 12.86
3/18/2021 11:15:00 PM 3.75 38.75 0.071 6.88 132.69 12.86
3/18/2021 11:30:00 PM 3.72 38.696 0.071 6.89 97.06 12.87
3/18/2021 11:45:00 PM 3.69 38.642 0.071 6.89 95.98 12.88
3/19/2021 12:00:00 AM 3.67 38.606 0.071 6.89 92.15 12.88
3/19/2021 12:15:00 AM 3.64 38.552 0.072 6.88 105.62 12.89
3/19/2021 12:30:00 AM 3.6 38.48 0.072 6.88 70.06 12.9
3/19/2021 12:45:00 AM 3.57 38.426 0.072 6.89 75.64 12.9
3/19/2021 1:00:00 AM 3.54 38.372 0.072 6.88 75.4 12.91
3/19/2021 1:15:00 AM 3.5 38.3 0.072 6.89 70.25 12.92
3/19/2021 1:30:00 AM 3.46 38.228 0.073 6.89 69.54 12.94
3/19/2021 1:45:00 AM 3.43 38.174 0.073 6.89 69.19 12.96
3/19/2021 2:00:00 AM 3.39 38.102 0.073 6.89 57.86 12.97
3/19/2021 2:15:00 AM 3.35 38.03 0.073 6.89 54.4 12.98
3/19/2021 2:30:00 AM 3.3 37.94 0.073 6.9 53.47 13
3/19/2021 2:45:00 AM 3.26 37.868 0.074 6.9 63.71 13.01
3/19/2021 3:00:00 AM 3.22 37.796 0.074 6.9 50.42 13.03
3/19/2021 3:15:00 AM 3.17 37.706 0.074 6.9 56.51 13.05
3/19/2021 3:30:00 AM 3.12 37.616 0.074 6.9 59.61 13.07
3/19/2021 3:45:00 AM 3.07 37.526 0.075 6.91 56.07 13.08
3/19/2021 4:00:00 AM 3.02 37.436 0.075 6.92 57.41 13.11
3/19/2021 4:15:00 AM 2.97 37.346 0.075 6.91 45.93 13.11
3/19/2021 4:30:00 AM 2.92 37.256 0.075 6.92 45.44 13.14
3/19/2021 4:45:00 AM 2.87 37.166 0.075 6.92 43.7 13.15
3/19/2021 5:00:00 AM 2.82 37.076 0.076 6.92 41.23 13.18
3/19/2021 5:15:00 AM 2.76 36.968 0.076 6.92 38.66 13.2
3/19/2021 5:30:00 AM 2.7 36.86 0.076 6.93 44.58 13.23
3/19/2021 5:45:00 AM 2.64 36.752 0.076 6.95 42.12 13.24
3/19/2021 6:00:00 AM 2.58 36.644 0.076 6.94 43.72 13.28
3/19/2021 6:15:00 AM 2.52 36.536 0.076 6.95 40.73 13.3
3/19/2021 6:30:00 AM 2.46 36.428 0.076 6.94 37.59 13.32
3/19/2021 6:45:00 AM 2.39 36.302 0.076 6.95 36.11 13.35
3/19/2021 7:00:00 AM 2.33 36.194 0.077 6.94 38.89 13.38
3/19/2021 7:15:00 AM 2.27 36.086 0.077 6.94 31.8 13.4
3/19/2021 7:30:00 AM 2.2 35.96 0.077 6.96 32.37 13.44
3/19/2021 7:45:00 AM 2.15 35.87 0.077 6.95 33.08 13.47
3/19/2021 8:00:00 AM 2.09 35.762 0.077 6.96 33.67 13.49
3/19/2021 8:15:00 AM 2.03 35.654 0.077 6.96 30.77 13.52
3/19/2021 8:30:00 AM 1.98 35.564 0.077 6.97 32.3 13.55
3/19/2021 8:45:00 AM 1.92 35.456 0.077 6.98 31.5 13.59
3/19/2021 9:00:00 AM 1.86 35.348 0.077 6.97 31.25 13.62
3/19/2021 9:15:00 AM 1.82 35.276 0.077 6.97 35.02 13.65
3/19/2021 9:30:00 AM 1.81 35.258 0.077 6.97 26.49 13.69
3/19/2021 9:45:00 AM 1.79 35.222 0.077 6.97 33.39 13.72
3/19/2021 10:00:00 AM 1.8 35.24 0.077 6.97 38.08 13.74
3/19/2021 10:15:00 AM 1.79 35.222 0.078 6.98 23.73 13.77
3/19/2021 10:30:00 AM 1.81 35.258 0.078 6.99 29.53 13.79
3/19/2021 10:45:00 AM 1.84 35.312 0.078 6.99 31.86 13.8
3/19/2021 11:00:00 AM 1.87 35.366 0.078 7 27.26 13.81
3/19/2021 11:15:00 AM 1.91 35.438 0.078 7.01 26 13.82
3/19/2021 11:30:00 AM 1.95 35.51 0.078 7.01 29.07 13.83
3/19/2021 11:45:00 AM 2.01 35.618 0.078 7.02 31.03 13.83
3/19/2021 12:00:00 PM 2.07 35.726 0.078 7.03 26.55 13.83
3/19/2021 12:15:00 PM 2.13 35.834 0.078 7.03 25.95 13.83
3/19/2021 12:30:00 PM 2.18 35.924 0.078 7.04 25.78 13.83
3/19/2021 12:45:00 PM 2.23 36.014 0.078 7.03 24.72 13.83
3/19/2021 1:00:00 PM 2.28 36.104 0.078 7.05 23.12 13.83
3/19/2021 1:15:00 PM 2.34 36.212 0.078 7.05 24.15 13.82
3/19/2021 1:30:00 PM 2.41 36.338 0.078 7.05 24.3 13.81
3/19/2021 1:45:00 PM 2.48 36.464 0.078 7.06 23.96 13.8
3/19/2021 2:00:00 PM 2.53 36.554 0.078 7.08 23.93 13.79
3/19/2021 2:15:00 PM 2.61 36.698 0.078 7.08 27.28 13.77
3/19/2021 2:30:00 PM 2.68 36.824 0.078 7.08 23.66 13.74
3/19/2021 2:45:00 PM 2.75 36.95 0.078 7.09 26.44 13.72
3/19/2021 3:00:00 PM 2.83 37.094 0.078 7.1 25.82 13.7
3/19/2021 3:15:00 PM 2.89 37.202 0.078 7.1 21.64 13.67
3/19/2021 3:30:00 PM 2.96 37.328 0.078 7.1 21.37 13.65
3/19/2021 3:45:00 PM 3.03 37.454 0.078 7.11 25.78 13.63
3/19/2021 4:00:00 PM 3.09 37.562 0.078 7.11 21.46 13.61
3/19/2021 4:15:00 PM 3.14 37.652 0.078 7.11 21.22 13.58
3/19/2021 4:30:00 PM 3.19 37.742 0.078 7.12 21.89 13.55
3/19/2021 4:45:00 PM 3.23 37.814 0.078 7.13 21.07 13.53
3/19/2021 5:00:00 PM 3.27 37.886 0.078 7.12 20.92 13.51
3/19/2021 5:15:00 PM 3.32 37.976 0.078 7.13 21.81 13.47
3/19/2021 5:30:00 PM 3.35 38.03 0.078 7.13 20.58 13.45
3/19/2021 5:45:00 PM 3.39 38.102 0.078 7.12 22.42 13.43
3/19/2021 6:00:00 PM 3.42 38.156 0.078 7.12 22.95 13.39
3/19/2021 6:15:00 PM 3.44 38.192 0.078 7.13 19.6 13.37
3/19/2021 6:30:00 PM 3.48 38.264 0.078 7.13 21.01 13.34
3/19/2021 6:45:00 PM 3.5 38.3 0.078 7.13 19.96 13.31
3/19/2021 7:00:00 PM 3.53 38.354 0.078 7.12 20.39 13.28
3/19/2021 7:15:00 PM 3.55 38.39 0.078 7.12 19.84 13.26
3/19/2021 7:30:00 PM 3.58 38.444 0.078 7.11 20.19 13.24
3/19/2021 7:45:00 PM 3.59 38.462 0.078 7.12 20.85 13.22
3/19/2021 8:00:00 PM 3.61 38.498 0.078 7.11 20.41 13.2
3/19/2021 8:15:00 PM 3.61 38.498 0.078 7.1 20.41 13.18
3/19/2021 8:30:00 PM 3.63 38.534 0.078 7.11 21.53 13.17
3/19/2021 8:45:00 PM 3.64 38.552 0.078 7.11 19.6 13.16
3/19/2021 9:00:00 PM 3.65 38.57 0.078 7.1 19.11 13.15
3/19/2021 9:15:00 PM 3.66 38.588 0.078 7.12 21.87 13.14
3/19/2021 9:30:00 PM 3.66 38.588 0.078 7.11 19.46 13.13
3/19/2021 9:45:00 PM 3.66 38.588 0.078 7.11 19.49 13.12
3/19/2021 10:00:00 PM 3.67 38.606 0.078 7.1 20.09 13.11
3/19/2021 10:15:00 PM 3.67 38.606 0.078 7.11 19.61 13.11
3/19/2021 10:30:00 PM 3.66 38.588 0.078 7.1 19.5 13.1
3/19/2021 10:45:00 PM 3.65 38.57 0.078 7.1 18.85 13.1
3/19/2021 11:00:00 PM 3.64 38.552 0.078 7.09 19.31 13.1
3/19/2021 11:15:00 PM 3.63 38.534 0.078 7.09 19.39 13.1
3/19/2021 11:30:00 PM 3.6 38.48 0.078 7.1 19.11 13.1
3/19/2021 11:45:00 PM 3.58 38.444 0.078 7.1 18.87 13.11
3/20/2021 12:00:00 AM 3.56 38.408 0.078 7.09 19.32 13.1
3/20/2021 12:15:00 AM 3.53 38.354 0.078 7.09 18.65 13.11
3/20/2021 12:30:00 AM 3.5 38.3 0.078 7.09 18.75 13.11
3/20/2021 12:45:00 AM 3.48 38.264 0.079 7.1 24.49 13.12
3/20/2021 1:00:00 AM 3.44 38.192 0.079 7.11 19.69 13.12
3/20/2021 1:15:00 AM 3.4 38.12 0.08 7.12 19.95 13.12
3/20/2021 1:30:00 AM 3.36 38.048 0.081 7.12 20.52 13.12
3/20/2021 1:45:00 AM 3.3 37.94 0.082 7.13 21.44 13.13
3/20/2021 2:00:00 AM 3.25 37.85 0.082 7.13 21.3 13.15
3/20/2021 2:15:00 AM 3.19 37.742 0.082 7.14 20.83 13.18
3/20/2021 2:30:00 AM 3.12 37.616 0.082 7.14 21.23 13.19
3/20/2021 2:45:00 AM 3.05 37.49 0.081 7.14 20.67 13.22
3/20/2021 3:00:00 AM 2.98 37.364 0.081 7.12 19.93 13.27
3/20/2021 3:15:00 AM 2.9 37.22 0.081 7.13 20.06 13.28
3/20/2021 3:30:00 AM 2.82 37.076 0.08 7.11 19.26 13.33
3/20/2021 3:45:00 AM 2.74 36.932 0.08 7.1 18.73 13.36
3/20/2021 4:00:00 AM 2.66 36.788 0.08 7.09 18.56 13.4
3/20/2021 4:15:00 AM 2.58 36.644 0.08 7.08 18.84 13.43
3/20/2021 4:30:00 AM 2.5 36.5 0.08 7.08 18.48 13.47
3/20/2021 4:45:00 AM 2.41 36.338 0.08 7.07 18.48 13.51
3/20/2021 5:00:00 AM 2.33 36.194 0.08 7.07 19.1 13.53
3/20/2021 5:15:00 AM 2.25 36.05 0.08 7.08 19.29 13.57
3/20/2021 5:30:00 AM 2.17 35.906 0.08 7.07 20.23 13.59
3/20/2021 5:45:00 AM 2.09 35.762 0.08 7.07 19.38 13.63
3/20/2021 6:00:00 AM 2.02 35.636 0.081 7.07 19.6 13.65
3/20/2021 6:15:00 AM 1.93 35.474 0.081 7.06 18.58 13.69
3/20/2021 6:30:00 AM 1.86 35.348 0.081 7.06 18.2 13.72
3/20/2021 6:45:00 AM 1.78 35.204 0.081 7.06 19.06 13.76
3/20/2021 7:00:00 AM 1.71 35.078 0.081 7.05 18.61 13.79
3/20/2021 7:15:00 AM 1.63 34.934 0.081 7.04 19.16 13.82
3/20/2021 7:30:00 AM 1.56 34.808 0.081 7.05 18.65 13.85
3/20/2021 7:45:00 AM 1.51 34.718 0.081 7.04 18.24 13.88
3/20/2021 8:00:00 AM 1.44 34.592 0.081 7.04 17.76 13.92
3/20/2021 8:15:00 AM 1.39 34.502 0.081 7.04 18.02 13.96
3/20/2021 8:30:00 AM 1.34 34.412 0.081 7.03 17.23 14
3/20/2021 8:45:00 AM 1.3 34.34 0.081 7.04 17.57 14.03
3/20/2021 9:00:00 AM 1.29 34.322 0.081 7.05 18.43 14.07
3/20/2021 9:15:00 AM 1.3 34.34 0.081 7.06 18.14 14.1
3/20/2021 9:30:00 AM 1.32 34.376 0.081 7.06 16.9 14.11
3/20/2021 9:45:00 AM 1.36 34.448 0.081 7.07 18.06 14.14
3/20/2021 10:00:00 AM 1.42 34.556 0.081 7.07 17.61 14.14
3/20/2021 10:15:00 AM 1.47 34.646 0.081 7.08 16.75 14.16
3/20/2021 10:30:00 AM 1.55 34.79 0.081 7.08 16.73 14.16
3/20/2021 10:45:00 AM 1.64 34.952 0.082 7.1 17.36 14.16
3/20/2021 11:00:00 AM 1.73 35.114 0.082 7.1 17.08 14.16
3/20/2021 11:15:00 AM 1.84 35.312 0.082 7.1 17.91 14.14
3/20/2021 11:30:00 AM 1.95 35.51 0.082 7.11 18.55 14.12
3/20/2021 11:45:00 AM 2.06 35.708 0.082 7.12 17.77 14.09
3/20/2021 12:00:00 PM 2.18 35.924 0.082 7.12 16.4 14.07
3/20/2021 12:15:00 PM 2.28 36.104 0.082 7.13 16.66 14.05
3/20/2021 12:30:00 PM 2.39 36.302 0.082 7.14 16.51 14.03
3/20/2021 12:45:00 PM 2.49 36.482 0.082 7.15 16.77 14.01
3/20/2021 1:00:00 PM 2.59 36.662 0.082 7.15 16.4 13.98
3/20/2021 1:15:00 PM 2.67 36.806 0.082 7.16 16.91 13.96
3/20/2021 1:30:00 PM 2.76 36.968 0.082 7.16 16.43 13.94
3/20/2021 1:45:00 PM 2.84 37.112 0.082 7.17 15.92 13.92
3/20/2021 2:00:00 PM 2.93 37.274 0.082 7.16 17.43 13.89
3/20/2021 2:15:00 PM 3 37.4 0.082 7.18 16.75 13.87
3/20/2021 2:30:00 PM 3.07 37.526 0.082 7.17 16.67 13.84
3/20/2021 2:45:00 PM 3.14 37.652 0.082 7.19 15.97 13.82
3/20/2021 3:00:00 PM 3.22 37.796 0.082 7.19 16.42 13.78
3/20/2021 3:15:00 PM 3.29 37.922 0.082 7.19 15.41 13.76
3/20/2021 3:30:00 PM 3.35 38.03 0.082 7.19 16.63 13.72
3/20/2021 3:45:00 PM 3.43 38.174 0.082 7.2 16.66 13.68
3/20/2021 4:00:00 PM 3.51 38.318 0.082 7.2 15.99 13.65
3/20/2021 4:15:00 PM 3.59 38.462 0.082 7.21 16.51 13.61
3/20/2021 4:30:00 PM 3.68 38.624 0.082 7.2 15.42 13.58
3/20/2021 4:45:00 PM 3.75 38.75 0.082 7.21 17.18 13.53
3/20/2021 5:00:00 PM 3.83 38.894 0.082 7.2 15.38 13.49
3/20/2021 5:15:00 PM 3.89 39.002 0.082 7.21 15.89 13.44
3/20/2021 5:30:00 PM 3.96 39.128 0.082 7.21 16.53 13.4
3/20/2021 5:45:00 PM 4.01 39.218 0.082 7.21 15.79 13.35
3/20/2021 6:00:00 PM 4.08 39.344 0.082 7.21 15.85 13.31
3/20/2021 6:15:00 PM 4.12 39.416 0.082 7.21 15.93 13.27
3/20/2021 6:30:00 PM 4.16 39.488 0.083 7.2 15.9 13.23
3/20/2021 6:45:00 PM 4.19 39.542 0.083 7.2 15.15 13.2
3/20/2021 7:00:00 PM 4.21 39.578 0.083 7.19 16.42 13.15
3/20/2021 7:15:00 PM 4.23 39.614 0.083 7.2 15.74 13.12
3/20/2021 7:30:00 PM 4.24 39.632 0.083 7.19 16.09 13.09
3/20/2021 7:45:00 PM 4.25 39.65 0.083 7.19 16.8 13.07
3/20/2021 8:00:00 PM 4.26 39.668 0.083 7.18 15.11 13.05
3/20/2021 8:15:00 PM 4.26 39.668 0.083 7.18 16.1 13.04
3/20/2021 8:30:00 PM 4.27 39.686 0.083 7.18 16.13 13.02
3/20/2021 8:45:00 PM 4.28 39.704 0.083 7.17 15.94 13.01
3/20/2021 9:00:00 PM 4.28 39.704 0.082 7.18 16.18 12.99
3/20/2021 9:15:00 PM 4.29 39.722 0.082 7.17 15.56 12.98
3/20/2021 9:30:00 PM 4.29 39.722 0.082 7.16 15.92 12.96
3/20/2021 9:45:00 PM 4.31 39.758 0.082 7.16 16.81 12.95
3/20/2021 10:00:00 PM 4.32 39.776 0.082 7.17 17.08 12.93
3/20/2021 10:15:00 PM 4.34 39.812 0.082 7.16 15.93 12.92
3/20/2021 10:30:00 PM 4.36 39.848 0.082 7.16 14.53 12.91
3/20/2021 10:45:00 PM 4.37 39.866 0.082 7.16 16.48 12.89
3/20/2021 11:00:00 PM 4.39 39.902 0.082 7.15 16.35 12.88
3/20/2021 11:15:00 PM 4.4 39.92 0.082 7.15 16.36 12.86
3/20/2021 11:30:00 PM 4.41 39.938 0.082 7.16 16.09 12.85
3/20/2021 11:45:00 PM 4.42 39.956 0.082 7.16 16.59 12.83
3/21/2021 12:00:00 AM 4.43 39.974 0.082 7.15 15.89 12.82
3/21/2021 12:15:00 AM 4.44 39.992 0.082 7.15 16.13 12.82
3/21/2021 12:30:00 AM 4.44 39.992 0.082 7.15 16.15 12.8
3/21/2021 12:45:00 AM 4.44 39.992 0.082 7.13 17.31 12.79
3/21/2021 1:00:00 AM 4.44 39.992 0.082 7.15 16.28 12.79
3/21/2021 1:15:00 AM 4.44 39.992 0.082 7.14 17.78 12.79
3/21/2021 1:30:00 AM 4.43 39.974 0.082 7.15 17.34 12.77
3/21/2021 1:45:00 AM 4.43 39.974 0.082 7.14 16.27 12.77
3/21/2021 2:00:00 AM 4.42 39.956 0.082 7.14 17.15 12.78
3/21/2021 2:15:00 AM 4.42 39.956 0.082 7.13 16.76 12.78
3/21/2021 2:30:00 AM 4.4 39.92 0.082 7.13 17.34 12.77
3/21/2021 2:45:00 AM 4.38 39.884 0.082 7.14 17.8 12.76
3/21/2021 3:00:00 AM 4.37 39.866 0.082 7.13 17.01 12.77
3/21/2021 3:15:00 AM 4.35 39.83 0.082 7.13 18.55 12.78
3/21/2021 3:30:00 AM 4.32 39.776 0.082 7.12 17.26 12.79
3/21/2021 3:45:00 AM 4.29 39.722 0.082 7.13 18.08 12.8
3/21/2021 4:00:00 AM 4.25 39.65 0.082 7.12 17.21 12.81
3/21/2021 4:15:00 AM 4.2 39.56 0.082 7.13 16.76 12.81
3/21/2021 4:30:00 AM 4.16 39.488 0.082 7.12 16.53 12.84
3/21/2021 4:45:00 AM 4.1 39.38 0.082 7.12 17.77 12.84
3/21/2021 5:00:00 AM 4.04 39.272 0.082 7.12 16.94 12.88
3/21/2021 5:15:00 AM 3.97 39.146 0.082 7.11 17.72 12.91
3/21/2021 5:30:00 AM 3.9 39.02 0.082 7.12 17.58 12.93
3/21/2021 5:45:00 AM 3.83 38.894 0.082 7.12 16.57 12.95
3/21/2021 6:00:00 AM 3.76 38.768 0.082 7.11 17.75 12.99
3/21/2021 6:15:00 AM 3.68 38.624 0.083 7.12 16.86 13.01
3/21/2021 6:30:00 AM 3.61 38.498 0.083 7.12 17.18 13.03
3/21/2021 6:45:00 AM 3.53 38.354 0.083 7.11 17 13.06
3/21/2021 7:00:00 AM 3.45 38.21 0.083 7.11 16.69 13.09
3/21/2021 7:15:00 AM 3.37 38.066 0.083 7.11 17.56 13.12
3/21/2021 7:30:00 AM 3.3 37.94 0.083 7.11 16.39 13.16
3/21/2021 7:45:00 AM 3.22 37.796 0.083 7.12 16.64 13.19
3/21/2021 8:00:00 AM 3.15 37.67 0.083 7.12 18.03 13.25
3/21/2021 8:15:00 AM 3.1 37.58 0.083 7.12 16.8 13.29
3/21/2021 8:30:00 AM 3.04 37.472 0.083 7.12 17.15 13.33
3/21/2021 8:45:00 AM 2.99 37.382 0.083 7.13 16.63 13.37
3/21/2021 9:00:00 AM 2.97 37.346 0.083 7.13 17.52 13.42
3/21/2021 9:15:00 AM 2.97 37.346 0.083 7.14 17.28 13.46
3/21/2021 9:30:00 AM 2.99 37.382 0.084 7.15 16.88 13.5
3/21/2021 9:45:00 AM 3.03 37.454 0.084 7.15 16 13.52
3/21/2021 10:00:00 AM 3.07 37.526 0.084 7.16 16.53 13.54
3/21/2021 10:15:00 AM 3.13 37.634 0.084 7.16 16.57 13.57
3/21/2021 10:30:00 AM 3.2 37.76 0.084 7.17 16.85 13.57
3/21/2021 10:45:00 AM 3.28 37.904 0.084 7.18 16.77 13.57
3/21/2021 11:00:00 AM 3.38 38.084 0.084 7.18 16.93 13.59
3/21/2021 11:15:00 AM 3.49 38.282 0.084 7.18 17.12 13.57
3/21/2021 11:30:00 AM 3.6 38.48 0.084 7.2 17.22 13.56
3/21/2021 11:45:00 AM 3.72 38.696 0.084 7.2 16.54 13.56
3/21/2021 12:00:00 PM 3.82 38.876 0.084 7.21 16.25 13.53
3/21/2021 12:15:00 PM 3.94 39.092 0.084 7.22 16.94 13.51
3/21/2021 12:30:00 PM 4.04 39.272 0.084 7.22 16.8 13.5
3/21/2021 12:45:00 PM 4.14 39.452 0.084 7.23 17.16 13.47
3/21/2021 1:00:00 PM 4.21 39.578 0.084 7.23 16.8 13.45
3/21/2021 1:15:00 PM 4.29 39.722 0.084 7.24 16.78 13.45
3/21/2021 1:30:00 PM 4.36 39.848 0.084 7.24 17.52 13.43
3/21/2021 1:45:00 PM 4.41 39.938 0.084 7.25 17.23 13.42
3/21/2021 2:00:00 PM 4.48 40.064 0.084 7.25 16.68 13.4
3/21/2021 2:15:00 PM 4.54 40.172 0.084 7.25 16.67 13.38
3/21/2021 2:30:00 PM 4.57 40.226 0.084 7.26 17.14 13.36
3/21/2021 2:45:00 PM 4.62 40.316 0.085 7.26 16.56 13.34
3/21/2021 3:00:00 PM 4.66 40.388 0.085 7.27 16.3 13.33
3/21/2021 3:15:00 PM 4.7 40.46 0.085 7.26 15.7 13.32
3/21/2021 3:30:00 PM 4.72 40.496 0.085 7.28 17.44 13.28
3/21/2021 3:45:00 PM 4.76 40.568 0.085 7.27 16.41 13.27
3/21/2021 4:00:00 PM 4.8 40.64 0.085 7.27 15.75 13.23
3/21/2021 4:15:00 PM 4.84 40.712 0.085 7.27 17.84 13.21
3/21/2021 4:30:00 PM 4.88 40.784 0.085 7.28 16.77 13.18
3/21/2021 4:45:00 PM 4.94 40.892 0.085 7.28 15.86 13.15
3/21/2021 5:00:00 PM 4.98 40.964 0.085 7.28 16.83 13.11
3/21/2021 5:15:00 PM 5.04 41.072 0.085 7.28 16.39 13.08
3/21/2021 5:30:00 PM 5.09 41.162 0.085 7.28 16.03 13.03
3/21/2021 5:45:00 PM 5.13 41.234 0.085 7.27 16.44 12.99
3/21/2021 6:00:00 PM 5.18 41.324 0.085 7.27 16.61 12.95
3/21/2021 6:15:00 PM 5.23 41.414 0.085 7.27 17.61 12.91
3/21/2021 6:30:00 PM 5.25 41.45 0.085 7.26 16.72 12.85
3/21/2021 6:45:00 PM 5.29 41.522 0.085 7.26 16.6 12.82
3/21/2021 7:00:00 PM 5.3 41.54 0.085 7.25 16.34 12.77
3/21/2021 7:15:00 PM 5.32 41.576 0.085 7.24 16.39 12.74
3/21/2021 7:30:00 PM 5.34 41.612 0.085 7.23 16.79 12.71
3/21/2021 7:45:00 PM 5.35 41.63 0.085 7.23 15.9 12.68
3/21/2021 8:00:00 PM 5.35 41.63 0.085 7.22 16.33 12.65
3/21/2021 8:15:00 PM 5.36 41.648 0.085 7.22 16.03 12.64
3/21/2021 8:30:00 PM 5.34 41.612 0.085 7.22 16.33 12.62
3/21/2021 8:45:00 PM 5.33 41.594 0.085 7.21 16.18 12.61
3/21/2021 9:00:00 PM 5.31 41.558 0.085 7.21 17.5 12.6
3/21/2021 9:15:00 PM 5.3 41.54 0.085 7.2 15.96 12.6
3/21/2021 9:30:00 PM 5.27 41.486 0.085 7.2 16.57 12.61
3/21/2021 9:45:00 PM 5.25 41.45 0.085 7.19 16.08 12.6
3/21/2021 10:00:00 PM 5.22 41.396 0.085 7.2 15.7 12.6
3/21/2021 10:15:00 PM 5.2 41.36 0.085 7.19 16.64 12.59
3/21/2021 10:30:00 PM 5.19 41.342 0.085 7.2 15.65 12.59
3/21/2021 10:45:00 PM 5.17 41.306 0.085 7.19 17.64 12.59
3/21/2021 11:00:00 PM 5.16 41.288 0.085 7.19 17.7 12.58
3/21/2021 11:15:00 PM 5.14 41.252 0.085 7.18 17.29 12.57
3/21/2021 11:30:00 PM 5.14 41.252 0.085 7.18 17.63 12.57
3/21/2021 11:45:00 PM 5.13 41.234 0.085 7.18 15.95 12.56
3/22/2021 12:00:00 AM 5.13 41.234 0.085 7.18 17.68 12.56
3/22/2021 12:15:00 AM 5.13 41.234 0.085 7.18 16.8 12.54
3/22/2021 12:30:00 AM 5.13 41.234 0.085 7.17 16.62 12.53
3/22/2021 12:45:00 AM 5.12 41.216 0.085 7.17 16.94 12.52
3/22/2021 1:00:00 AM 5.12 41.216 0.085 7.17 17.36 12.53
3/22/2021 1:15:00 AM 5.11 41.198 0.085 7.17 16.33 12.52
3/22/2021 1:30:00 AM 5.11 41.198 0.085 7.16 16.6 12.51
3/22/2021 1:45:00 AM 5.1 41.18 0.085 7.17 18.33 12.51
3/22/2021 2:00:00 AM 5.09 41.162 0.085 7.16 16.75 12.51
3/22/2021 2:15:00 AM 5.08 41.144 0.085 7.16 17.61 12.5
3/22/2021 2:30:00 AM 5.07 41.126 0.085 7.16 18.19 12.5
3/22/2021 2:45:00 AM 5.06 41.108 0.085 7.16 17.18 12.5
3/22/2021 3:00:00 AM 5.04 41.072 0.085 7.16 17.65 12.5
3/22/2021 3:15:00 AM 5.03 41.054 0.085 7.15 17.07 12.49
3/22/2021 3:30:00 AM 5.01 41.018 0.085 7.15 17.57 12.49
3/22/2021 3:45:00 AM 5 41 0.085 7.14 16.7 12.49
3/22/2021 4:00:00 AM 4.98 40.964 0.085 7.16 19.39 12.49
3/22/2021 4:15:00 AM 4.97 40.946 0.085 7.15 18.17 12.5
3/22/2021 4:30:00 AM 4.95 40.91 0.085 7.16 18.74 12.5
3/22/2021 4:45:00 AM 4.93 40.874 0.085 7.15 18.57 12.5
3/22/2021 5:00:00 AM 4.91 40.838 0.085 7.15 17.89 12.5
3/22/2021 5:15:00 AM 4.88 40.784 0.085 7.14 16.49 12.51
3/22/2021 5:30:00 AM 4.85 40.73 0.085 7.15 18.05 12.52
3/22/2021 5:45:00 AM 4.82 40.676 0.085 7.14 17.88 12.53
3/22/2021 6:00:00 AM 4.78 40.604 0.085 7.14 16.84 12.54
3/22/2021 6:15:00 AM 4.73 40.514 0.085 7.14 19.42 12.56
3/22/2021 6:30:00 AM 4.69 40.442 0.085 7.15 18.07 12.57
3/22/2021 6:45:00 AM 4.63 40.334 0.086 7.14 17.63 12.58
3/22/2021 7:00:00 AM 4.58 40.244 0.086 7.14 18.13 12.61
3/22/2021 7:15:00 AM 4.52 40.136 0.086 7.14 18.03 12.64
3/22/2021 7:30:00 AM 4.46 40.028 0.086 7.14 19.18 12.67
3/22/2021 7:45:00 AM 4.4 39.92 0.086 7.15 17.46 12.7
3/22/2021 8:00:00 AM 4.35 39.83 0.086 7.14 17.84 12.75
3/22/2021 8:15:00 AM 4.29 39.722 0.086 7.15 17.1 12.8
3/22/2021 8:30:00 AM 4.24 39.632 0.086 7.16 18.6 12.84
3/22/2021 8:45:00 AM 4.2 39.56 0.086 7.16 18.09 12.88
3/22/2021 9:00:00 AM 4.19 39.542 0.086 7.17 18.4 12.92
3/22/2021 9:15:00 AM 4.2 39.56 0.086 7.18 18.68 12.96
3/22/2021 9:30:00 AM 4.22 39.596 0.086 7.18 17.73 13.01
3/22/2021 9:45:00 AM 4.26 39.668 0.086 7.19 17.82 13.04
3/22/2021 10:00:00 AM 4.32 39.776 0.086 7.21 18.89 13.06
3/22/2021 10:15:00 AM 4.4 39.92 0.087 7.2 18.08 13.09
3/22/2021 10:30:00 AM 4.48 40.064 0.087 7.22 18.05 13.09
3/22/2021 10:45:00 AM 4.58 40.244 0.087 7.23 18.83 13.1
3/22/2021 11:00:00 AM 4.69 40.442 0.087 7.24 18.98 13.12
3/22/2021 11:15:00 AM 4.81 40.658 0.087 7.25 19.34 13.1
3/22/2021 11:30:00 AM 4.94 40.892 0.087 7.26 19.18 13.09
3/22/2021 11:45:00 AM 5.07 41.126 0.087 7.25 16.22 13.08
3/22/2021 12:00:00 PM 5.18 41.324 0.087 7.27 19.8 13.06
3/22/2021 12:15:00 PM 5.31 41.558 0.087 7.28 19.1 13.03
3/22/2021 12:30:00 PM 5.45 41.81 0.087 7.28 16.81 13.03
3/22/2021 12:45:00 PM 5.56 42.008 0.087 7.29 19.42 13
3/22/2021 1:00:00 PM 5.66 42.188 0.087 7.3 18.62 12.98
3/22/2021 1:15:00 PM 5.73 42.314 0.087 7.31 17.24 12.97
3/22/2021 1:30:00 PM 5.82 42.476 0.087 7.31 18.15 12.94
3/22/2021 1:45:00 PM 5.85 42.53 0.087 7.32 18.35 12.92
3/22/2021 2:00:00 PM 5.92 42.656 0.087 7.32 18.36 12.9
3/22/2021 2:15:00 PM 5.97 42.746 0.087 7.33 19.76 12.88
3/22/2021 2:30:00 PM 6 42.8 0.087 7.33 18.26 12.88
3/22/2021 2:45:00 PM 6.03 42.854 0.087 7.33 18.22 12.87
3/22/2021 3:00:00 PM 6.05 42.89 0.088 7.34 18.75 12.85
3/22/2021 3:15:00 PM 6.08 42.944 0.088 7.34 19.24 12.84
3/22/2021 3:30:00 PM 6.08 42.944 0.088 7.34 18.27 12.82
3/22/2021 3:45:00 PM 6.1 42.98 0.088 7.35 20.1 12.79
3/22/2021 4:00:00 PM 6.11 42.998 0.088 7.35 19.17 12.78
3/22/2021 4:15:00 PM 6.12 43.016 0.088 7.36 18.03 12.75
3/22/2021 4:30:00 PM 6.13 43.034 0.088 7.36 17.31 12.73
3/22/2021 4:45:00 PM 6.15 43.07 0.088 7.35 21.15 12.71
3/22/2021 5:00:00 PM 6.16 43.088 0.088 7.36 20.59 12.69
3/22/2021 5:15:00 PM 6.17 43.106 0.088 7.36 19.83 12.66
3/22/2021 5:30:00 PM 6.21 43.178 0.088 7.34 18.54 12.63
3/22/2021 5:45:00 PM 6.22 43.196 0.088 7.34 18.4 12.59
3/22/2021 6:00:00 PM 6.26 43.268 0.088 7.33 19.24 12.55
3/22/2021 6:15:00 PM 6.28 43.304 0.088 7.33 20.21 12.5
3/22/2021 6:30:00 PM 6.3 43.34 0.088 7.32 18.62 12.45
3/22/2021 6:45:00 PM 6.33 43.394 0.088 7.31 20.17 12.42
3/22/2021 7:00:00 PM 6.35 43.43 0.088 7.3 17.38 12.36
3/22/2021 7:15:00 PM 6.37 43.466 0.088 7.29 19.39 12.32
3/22/2021 7:30:00 PM 6.38 43.484 0.088 7.29 18.43 12.27
3/22/2021 7:45:00 PM 6.4 43.52 0.089 7.28 18.47 12.24
3/22/2021 8:00:00 PM 6.41 43.538 0.089 7.27 17.69 12.23
3/22/2021 8:15:00 PM 6.41 43.538 0.089 7.26 19.62 12.21
3/22/2021 8:30:00 PM 6.4 43.52 0.089 7.26 19.06 12.19
3/22/2021 8:45:00 PM 6.4 43.52 0.089 7.25 20.18 12.18
3/22/2021 9:00:00 PM 6.38 43.484 0.089 7.26 18.85 12.17
3/22/2021 9:15:00 PM 6.36 43.448 0.089 7.25 18.52 12.18
3/22/2021 9:30:00 PM 6.35 43.43 0.089 7.24 19.78 12.16
3/22/2021 9:45:00 PM 6.32 43.376 0.089 7.24 17.29 12.16
3/22/2021 10:00:00 PM 6.3 43.34 0.089 7.24 19.82 12.16
3/22/2021 10:15:00 PM 6.27 43.286 0.089 7.23 17.68 12.16
3/22/2021 10:30:00 PM 6.25 43.25 0.089 7.22 18.97 12.17
3/22/2021 10:45:00 PM 6.22 43.196 0.089 7.24 18.93 12.15
3/22/2021 11:00:00 PM 6.19 43.142 0.089 7.22 17.03 12.17
3/22/2021 11:15:00 PM 6.16 43.088 0.089 7.23 17.9 12.16
3/22/2021 11:30:00 PM 6.14 43.052 0.088 7.22 19.05 12.16
3/22/2021 11:45:00 PM 6.11 42.998 0.088 7.22 19.43 12.16
3/23/2021 12:00:00 AM 6.08 42.944 0.088 7.22 17.33 12.16
3/23/2021 12:15:00 AM 6.05 42.89 0.088 7.22 19.11 12.16
3/23/2021 12:30:00 AM 6.02 42.836 0.088 7.21 18.05 12.16
3/23/2021 12:45:00 AM 6 42.8 0.088 7.21 20.01 12.16
3/23/2021 1:00:00 AM 5.96 42.728 0.088 7.21 18.37 12.17
3/23/2021 1:15:00 AM 5.94 42.692 0.089 7.2 17.76 12.17
3/23/2021 1:30:00 AM 5.92 42.656 0.089 7.21 20.22 12.16
3/23/2021 1:45:00 AM 5.89 42.602 0.089 7.2 18.86 12.17
3/23/2021 2:00:00 AM 5.87 42.566 0.089 7.2 19.43 12.18
3/23/2021 2:15:00 AM 5.85 42.53 0.089 7.19 19.11 12.18
3/23/2021 2:30:00 AM 5.83 42.494 0.089 7.2 20.08 12.18
3/23/2021 2:45:00 AM 5.81 42.458 0.089 7.2 19.18 12.16
3/23/2021 3:00:00 AM 5.79 42.422 0.089 7.19 20.31 12.16
3/23/2021 3:15:00 AM 5.77 42.386 0.089 7.18 20.48 12.18
3/23/2021 3:30:00 AM 5.74 42.332 0.089 7.19 19.56 12.17
3/23/2021 3:45:00 AM 5.72 42.296 0.089 7.19 22.17 12.18
3/23/2021 4:00:00 AM 5.7 42.26 0.089 7.19 19.16 12.18
3/23/2021 4:15:00 AM 5.68 42.224 0.089 7.19 21.3 12.17
3/23/2021 4:30:00 AM 5.66 42.188 0.089 7.18 21.05 12.19
3/23/2021 4:45:00 AM 5.64 42.152 0.089 7.18 21.11 12.19
3/23/2021 5:00:00 AM 5.62 42.116 0.089 7.18 19.63 12.2
3/23/2021 5:15:00 AM 5.6 42.08 0.089 7.18 20.49 12.19
3/23/2021 5:30:00 AM 5.58 42.044 0.089 7.18 20.9 12.18
3/23/2021 5:45:00 AM 5.56 42.008 0.089 7.17 20.89 12.19
3/23/2021 6:00:00 AM 5.53 41.954 0.089 7.17 20.84 12.21
3/23/2021 6:15:00 AM 5.51 41.918 0.089 7.18 18.69 12.2
3/23/2021 6:30:00 AM 5.48 41.864 0.089 7.17 19.09 12.21
3/23/2021 6:45:00 AM 5.45 41.81 0.089 7.17 19.41 12.22
3/23/2021 7:00:00 AM 5.42 41.756 0.089 7.17 19.8 12.23
3/23/2021 7:15:00 AM 5.38 41.684 0.089 7.17 19.38 12.25
3/23/2021 7:30:00 AM 5.35 41.63 0.089 7.17 19.65 12.28
3/23/2021 7:45:00 AM 5.31 41.558 0.089 7.18 20.19 12.33
3/23/2021 8:00:00 AM 5.28 41.504 0.089 7.18 22.02 12.36
3/23/2021 8:15:00 AM 5.24 41.432 0.089 7.18 20.24 12.4
3/23/2021 8:30:00 AM 5.22 41.396 0.089 7.19 21.46 12.44
3/23/2021 8:45:00 AM 5.2 41.36 0.089 7.19 18.96 12.48
3/23/2021 9:00:00 AM 5.2 41.36 0.089 7.2 19.98 12.53
3/23/2021 9:15:00 AM 5.23 41.414 0.089 7.21 21.91 12.58
3/23/2021 9:30:00 AM 5.27 41.486 0.089 7.23 21.45 12.63
3/23/2021 9:45:00 AM 5.33 41.594 0.089 7.23 21.97 12.66
3/23/2021 10:00:00 AM 5.41 41.738 0.089 7.26 19.26 12.68
3/23/2021 10:15:00 AM 5.51 41.918 0.089 7.26 19.7 12.71
3/23/2021 10:30:00 AM 5.61 42.098 0.089 7.27 19.01 12.73
3/23/2021 10:45:00 AM 5.7 42.26 0.089 7.28 18.67 12.74
3/23/2021 11:00:00 AM 5.81 42.458 0.089 7.3 20.36 12.72
3/23/2021 11:15:00 AM 5.96 42.728 0.089 7.3 21.04 12.75
3/23/2021 11:30:00 AM 6.09 42.962 0.089 7.32 19.55 12.72
3/23/2021 11:45:00 AM 6.24 43.232 0.09 7.33 18.39 12.74
3/23/2021 12:00:00 PM 6.38 43.484 0.09 7.34 19.58 12.7
3/23/2021 12:15:00 PM 6.5 43.7 0.09 7.35 17.69 12.68
3/23/2021 12:30:00 PM 6.65 43.97 0.09 7.35 19.48 12.66
3/23/2021 12:45:00 PM 6.76 44.168 0.09 7.36 20.79 12.64
3/23/2021 1:00:00 PM 6.89 44.402 0.09 7.38 22.58 12.62
3/23/2021 1:15:00 PM 6.98 44.564 0.09 7.39 21.83 12.6
3/23/2021 1:30:00 PM 7.07 44.726 0.09 7.38 21.49 12.59
3/23/2021 1:45:00 PM 7.12 44.816 0.09 7.4 22.33 12.56
3/23/2021 2:00:00 PM 7.16 44.888 0.09 7.4 22.94 12.57
3/23/2021 2:15:00 PM 7.16 44.888 0.09 7.41 22.56 12.55
3/23/2021 2:30:00 PM 7.23 45.014 0.09 7.41 19.39 12.55
3/23/2021 2:45:00 PM 7.19 44.942 0.09 7.42 22.1 12.53
3/23/2021 3:00:00 PM 7.21 44.978 0.09 7.42 21.41 12.53
3/23/2021 3:15:00 PM 7.18 44.924 0.09 7.43 22.39 12.53
3/23/2021 3:30:00 PM 7.14 44.852 0.09 7.44 22.7 12.52
3/23/2021 3:45:00 PM 7.11 44.798 0.09 7.44 24.93 12.52
3/23/2021 4:00:00 PM 7.15 44.87 0.091 7.44 27.02 12.51
3/23/2021 4:15:00 PM 7.13 44.834 0.091 7.45 24.41 12.49
3/23/2021 4:30:00 PM 7.14 44.852 0.091 7.44 24.42 12.47
3/23/2021 4:45:00 PM 7.14 44.852 0.091 7.44 26.18 12.45
3/23/2021 5:00:00 PM 7.14 44.852 0.091 7.44 23.19 12.44
3/23/2021 5:15:00 PM 7.14 44.852 0.091 7.44 23.56 12.41
3/23/2021 5:30:00 PM 7.15 44.87 0.091 7.43 24.46 12.4
3/23/2021 5:45:00 PM 7.14 44.852 0.091 7.42 25.11 12.35
3/23/2021 6:00:00 PM 7.14 44.852 0.091 7.42 24.37 12.28
3/23/2021 6:15:00 PM 7.16 44.888 0.091 7.4 22.75 12.24
3/23/2021 6:30:00 PM 7.17 44.906 0.091 7.39 23.38 12.18
3/23/2021 6:45:00 PM 7.19 44.942 0.091 7.38 25.04 12.14
3/23/2021 7:00:00 PM 7.19 44.942 0.091 7.37 22.15 12.09
3/23/2021 7:15:00 PM 7.2 44.96 0.091 7.35 20.73 12.02
3/23/2021 7:30:00 PM 7.22 44.996 0.092 7.34 24.36 11.98
3/23/2021 7:45:00 PM 7.22 44.996 0.092 7.32 24.63 11.95
3/23/2021 8:00:00 PM 7.22 44.996 0.092 7.31 24.12 11.92
3/23/2021 8:15:00 PM 7.23 45.014 0.092 7.3 21.26 11.89
3/23/2021 8:30:00 PM 7.24 45.032 0.092 7.3 23.7 11.88
3/23/2021 8:45:00 PM 7.23 45.014 0.092 7.29 22.77 11.87
3/23/2021 9:00:00 PM 7.23 45.014 0.092 7.29 21.84 11.87
3/23/2021 9:15:00 PM 7.23 45.014 0.092 7.28 23.44 11.85
3/23/2021 9:30:00 PM 7.23 45.014 0.092 7.28 20.78 11.83
3/23/2021 9:45:00 PM 7.23 45.014 0.092 7.27 22.68 11.83
3/23/2021 10:00:00 PM 7.21 44.978 0.092 7.26 24.26 11.81
3/23/2021 10:15:00 PM 7.21 44.978 0.092 7.26 22.23 11.83
3/23/2021 10:30:00 PM 7.21 44.978 0.092 7.27 23.2 11.82
3/23/2021 10:45:00 PM 7.19 44.942 0.092 7.26 23.71 11.8
3/23/2021 11:00:00 PM 7.18 44.924 0.092 7.26 22.71 11.8
3/23/2021 11:15:00 PM 7.16 44.888 0.092 7.26 21.07 11.8
3/23/2021 11:30:00 PM 7.16 44.888 0.092 7.25 22.52 11.81
3/23/2021 11:45:00 PM 7.14 44.852 0.091 7.25 21.53 11.81
3/24/2021 12:00:00 AM 7.12 44.816 0.092 7.24 20.39 11.8
3/24/2021 12:15:00 AM 7.09 44.762 0.092 7.25 23.78 11.79
3/24/2021 12:30:00 AM 7.07 44.726 0.091 7.25 23.38 11.8
3/24/2021 12:45:00 AM 7.05 44.69 0.091 7.24 21.97 11.8
3/24/2021 1:00:00 AM 7.04 44.672 0.091 7.24 22.45 11.8
3/24/2021 1:15:00 AM 7.03 44.654 0.091 7.24 32.84 11.81
3/24/2021 1:30:00 AM 7.02 44.636 0.091 7.24 22.94 11.81
3/24/2021 1:45:00 AM 7 44.6 0.091 7.23 21.46 11.81
3/24/2021 2:00:00 AM 7 44.6 0.091 7.23 24.03 11.8
3/24/2021 2:15:00 AM 6.99 44.582 0.091 7.23 23.76 11.79
3/24/2021 2:30:00 AM 7 44.6 0.091 7.23 20.01 11.77
3/24/2021 2:45:00 AM 7.02 44.636 0.091 7.22 24.24 11.8
3/24/2021 3:00:00 AM 7.02 44.636 0.091 7.23 23.98 11.77
3/24/2021 3:15:00 AM 7.04 44.672 0.091 7.22 21.35 11.77
3/24/2021 3:30:00 AM 7.04 44.672 0.091 7.22 23.03 11.75
3/24/2021 3:45:00 AM 7.06 44.708 0.091 7.22 23.77 11.76
3/24/2021 4:00:00 AM 7.07 44.726 0.091 7.22 20.66 11.75
3/24/2021 4:15:00 AM 7.1 44.78 0.091 7.23 25.4 11.73
3/24/2021 4:30:00 AM 7.1 44.78 0.091 7.22 19.87 11.71
3/24/2021 4:45:00 AM 7.13 44.834 0.091 7.21 22.61 11.71
3/24/2021 5:00:00 AM 7.15 44.87 0.091 7.21 23.47 11.7
3/24/2021 5:15:00 AM 7.17 44.906 0.091 7.21 22.42 11.69
3/24/2021 5:30:00 AM 7.2 44.96 0.091 7.21 25.17 11.68
3/24/2021 5:45:00 AM 7.21 44.978 0.091 7.21 25.01 11.65
3/24/2021 6:00:00 AM 7.23 45.014 0.091 7.21 19.18 11.65
3/24/2021 6:15:00 AM 7.24 45.032 0.091 7.21 23.18 11.63
3/24/2021 6:30:00 AM 7.26 45.068 0.091 7.2 24.44 11.64
3/24/2021 6:45:00 AM 7.27 45.086 0.092 7.21 25.94 11.64
3/24/2021 7:00:00 AM 7.28 45.104 0.092 7.21 24.09 11.63
3/24/2021 7:15:00 AM 7.3 45.14 0.092 7.2 24.6 11.63
3/24/2021 7:30:00 AM 7.3 45.14 0.092 7.21 23.26 11.61
3/24/2021 7:45:00 AM 7.32 45.176 0.092 7.2 23.57 11.63
3/24/2021 8:00:00 AM 7.33 45.194 0.092 7.21 30.37 11.63
3/24/2021 8:15:00 AM 7.35 45.23 0.092 7.21 26.36 11.63
3/24/2021 8:30:00 AM 7.36 45.248 0.092 7.21 26.08 11.64
3/24/2021 8:45:00 AM 7.38 45.284 0.092 7.21 29.82 11.68
3/24/2021 9:00:00 AM 7.37 45.266 0.092 7.22 28.68 11.68
3/24/2021 9:15:00 AM 7.39 45.302 0.092 7.22 27.5 11.74
3/24/2021 9:30:00 AM 7.4 45.32 0.092 7.24 23.16 11.75
3/24/2021 9:45:00 AM 7.42 45.356 0.092 7.24 26.64 11.81
3/24/2021 10:00:00 AM 7.42 45.356 0.092 7.24 24.32 11.82
3/24/2021 10:15:00 AM 7.43 45.374 0.092 7.26 30.56 11.83
3/24/2021 10:30:00 AM 7.44 45.392 0.092 7.27 26.97 11.87
3/24/2021 10:45:00 AM 7.47 45.446 0.092 7.28 30.65 11.93
3/24/2021 11:00:00 AM 7.48 45.464 0.092 7.29 28.72 11.93
3/24/2021 11:15:00 AM 7.5 45.5 0.092 7.29 28.38 11.94
3/24/2021 11:30:00 AM 7.49 45.482 0.092 7.3 39 11.9
3/24/2021 11:45:00 AM 7.49 45.482 0.092 7.29 36.65 11.88
3/24/2021 12:00:00 PM 7.49 45.482 0.092 7.3 43.44 11.83
3/24/2021 12:15:00 PM 7.49 45.482 0.092 7.28 43.91 11.85
3/24/2021 12:30:00 PM 7.51 45.518 0.092 7.29 38.44 11.88
3/24/2021 12:45:00 PM 7.54 45.572 0.092 7.31 29 11.9
3/24/2021 1:00:00 PM 7.54 45.572 0.092 7.31 56.5 11.91
3/24/2021 1:15:00 PM 7.54 45.572 0.092 7.31 50.43 11.91
3/24/2021 1:30:00 PM 7.54 45.572 0.092 7.31 44.77 11.92
3/24/2021 1:45:00 PM 7.54 45.572 0.092 7.32 39.11 11.91
3/24/2021 2:00:00 PM 7.54 45.572 0.092 7.33 44.26 11.9
3/24/2021 2:15:00 PM 7.54 45.572 0.092 7.32 41.67 11.93
3/24/2021 2:30:00 PM 7.53 45.554 0.092 7.32 47.14 11.9
3/24/2021 2:45:00 PM 7.53 45.554 0.093 7.32 53.47 11.92
3/24/2021 3:00:00 PM 7.52 45.536 0.093 7.31 73.13 11.9
3/24/2021 3:15:00 PM 7.51 45.518 0.094 7.31 45.5 11.9
3/24/2021 3:30:00 PM 7.49 45.482 0.094 7.31 46.22 11.9
3/24/2021 3:45:00 PM 7.47 45.446 0.094 7.31 53.97 11.9
3/24/2021 4:00:00 PM 7.45 45.41 0.094 7.31 52.59 11.89
3/24/2021 4:15:00 PM 7.44 45.392 0.095 7.3 61.14 11.87
3/24/2021 4:30:00 PM 7.43 45.374 0.095 7.29 37.85 11.88
3/24/2021 4:45:00 PM 7.4 45.32 0.095 7.28 36.61 11.87
3/24/2021 5:00:00 PM 7.39 45.302 0.095 7.28 48.97 11.88
3/24/2021 5:15:00 PM 7.39 45.302 0.095 7.27 34.84 11.9
3/24/2021 5:30:00 PM 7.38 45.284 0.095 7.28 31.05 11.91
3/24/2021 5:45:00 PM 7.37 45.266 0.095 7.27 49.08 11.91
3/24/2021 6:00:00 PM 7.38 45.284 0.094 7.27 44.7 11.9
3/24/2021 6:15:00 PM 7.38 45.284 0.094 7.26 33.09 11.89
3/24/2021 6:30:00 PM 7.38 45.284 0.094 7.27 46.32 11.87
3/24/2021 6:45:00 PM 7.37 45.266 0.095 7.25 30.31 11.84
3/24/2021 7:00:00 PM 7.37 45.266 0.095 7.26 46.9 11.83
3/24/2021 7:15:00 PM 7.35 45.23 0.095 7.25 44.89 11.82
3/24/2021 7:30:00 PM 7.33 45.194 0.094 7.24 43.52 11.81
3/24/2021 7:45:00 PM 7.31 45.158 0.094 7.24 40.17 11.8
3/24/2021 8:00:00 PM 7.29 45.122 0.093 7.23 39.73 11.8
3/24/2021 8:15:00 PM 7.28 45.104 0.093 7.23 49.41 11.79
3/24/2021 8:30:00 PM 7.28 45.104 0.093 7.22 41.8 11.78
3/24/2021 8:45:00 PM 7.3 45.14 0.092 7.23 40.44 11.77
3/24/2021 9:00:00 PM 7.31 45.158 0.092 7.22 46.52 11.76
3/24/2021 9:15:00 PM 7.34 45.212 0.092 7.2 41.83 11.75
3/24/2021 9:30:00 PM 7.37 45.266 0.091 7.21 37.97 11.73
3/24/2021 9:45:00 PM 7.4 45.32 0.091 7.2 42.89 11.72
3/24/2021 10:00:00 PM 7.44 45.392 0.09 7.19 55.33 11.71
3/24/2021 10:15:00 PM 7.47 45.446 0.09 7.19 44.06 11.69
3/24/2021 10:30:00 PM 7.49 45.482 0.089 7.18 43.48 11.68
3/24/2021 10:45:00 PM 7.52 45.536 0.089 7.18 41.68 11.66
3/24/2021 11:00:00 PM 7.54 45.572 0.088 7.16 41.57 11.65
3/24/2021 11:15:00 PM 7.56 45.608 0.088 7.16 57.78 11.65
3/24/2021 11:30:00 PM 7.58 45.644 0.088 7.16 45.98 11.63
3/24/2021 11:45:00 PM 7.59 45.662 0.087 7.15 55.53 11.63
3/25/2021 12:00:00 AM 7.61 45.698 0.087 7.16 59.61 11.62
3/25/2021 12:15:00 AM 7.63 45.734 0.087 7.14 51.09 11.61
3/25/2021 12:30:00 AM 7.62 45.716 0.086 7.14 38.38 11.6
3/25/2021 12:45:00 AM 7.63 45.734 0.086 7.13 44.48 11.59
3/25/2021 1:00:00 AM 7.63 45.734 0.086 7.13 53.42 11.59
3/25/2021 1:15:00 AM 7.63 45.734 0.086 7.12 46.4 11.58
3/25/2021 1:30:00 AM 7.64 45.752 0.086 7.13 43.88 11.58
3/25/2021 1:45:00 AM 7.65 45.77 0.086 7.12 50.71 11.58
3/25/2021 2:00:00 AM 7.66 45.788 0.086 7.12 45.22 11.58
3/25/2021 2:15:00 AM 7.66 45.788 0.086 7.12 43.66 11.57
3/25/2021 2:30:00 AM 7.67 45.806 0.086 7.12 42.99 11.57
3/25/2021 2:45:00 AM 7.69 45.842 0.086 7.12 46.77 11.56
3/25/2021 3:00:00 AM 7.7 45.86 0.086 7.12 45.01 11.55
3/25/2021 3:15:00 AM 7.7 45.86 0.086 7.12 51.52 11.54
3/25/2021 3:30:00 AM 7.72 45.896 0.086 7.11 41.94 11.55
3/25/2021 3:45:00 AM 7.72 45.896 0.086 7.11 39.11 11.53
3/25/2021 4:00:00 AM 7.73 45.914 0.086 7.11 35.48 11.53
3/25/2021 4:15:00 AM 7.73 45.914 0.086 7.11 39.19 11.54
3/25/2021 4:30:00 AM 7.74 45.932 0.086 7.12 48.57 11.53
3/25/2021 4:45:00 AM 7.74 45.932 0.086 7.11 40.99 11.53
3/25/2021 5:00:00 AM 7.74 45.932 0.086 7.11 42.28 11.52
3/25/2021 5:15:00 AM 7.75 45.95 0.086 7.11 36.89 11.52
3/25/2021 5:30:00 AM 7.75 45.95 0.086 7.11 37.91 11.52
3/25/2021 5:45:00 AM 7.75 45.95 0.087 7.11 34.31 11.53
3/25/2021 6:00:00 AM 7.74 45.932 0.087 7.11 34.46 11.52
3/25/2021 6:15:00 AM 7.74 45.932 0.087 7.11 43.36 11.52
3/25/2021 6:30:00 AM 7.74 45.932 0.087 7.11 45.94 11.53
3/25/2021 6:45:00 AM 7.74 45.932 0.087 7.11 45.13 11.53
3/25/2021 7:00:00 AM 7.73 45.914 0.087 7.11 45.53 11.54
3/25/2021 7:15:00 AM 7.72 45.896 0.087 7.12 39.74 11.53
3/25/2021 7:30:00 AM 7.72 45.896 0.088 7.11 39.27 11.56
3/25/2021 7:45:00 AM 7.73 45.914 0.088 7.12 34.01 11.59
3/25/2021 8:00:00 AM 7.73 45.914 0.088 7.12 35.11 11.6
3/25/2021 8:15:00 AM 7.75 45.95 0.088 7.14 37.45 11.63
3/25/2021 8:30:00 AM 7.77 45.986 0.088 7.15 40.42 11.66
3/25/2021 8:45:00 AM 7.8 46.04 0.088 7.16 31.48 11.69
3/25/2021 9:00:00 AM 7.82 46.076 0.088 7.16 39.33 11.71
3/25/2021 9:15:00 AM 7.87 46.166 0.088 7.18 45.91 11.73
3/25/2021 9:30:00 AM 7.92 46.256 0.089 7.19 44.13 11.76
3/25/2021 9:45:00 AM 7.97 46.346 0.089 7.21 35.28 11.78
3/25/2021 10:00:00 AM 8.03 46.454 0.089 7.23 31.97 11.79
3/25/2021 10:15:00 AM 8.15 46.67 0.089 7.22 41.18 11.82
3/25/2021 10:30:00 AM 8.25 46.85 0.089 7.24 43.39 11.84
3/25/2021 10:45:00 AM 8.36 47.048 0.089 7.25 40.76 11.84
3/25/2021 11:00:00 AM 8.47 47.246 0.089 7.27 34.8 11.83
3/25/2021 11:15:00 AM 8.58 47.444 0.089 7.28 31.45 11.81
3/25/2021 11:30:00 AM 8.69 47.642 0.089 7.29 42.06 11.82
3/25/2021 11:45:00 AM 8.81 47.858 0.089 7.3 31.25 11.81
3/25/2021 12:00:00 PM 8.95 48.11 0.089 7.31 47.77 11.8
3/25/2021 12:15:00 PM 9.1 48.38 0.089 7.32 29.66 11.77
3/25/2021 12:30:00 PM 9.25 48.65 0.089 7.32 40.08 11.74
3/25/2021 12:45:00 PM 9.4 48.92 0.089 7.35 36.7 11.74
3/25/2021 1:00:00 PM 9.56 49.208 0.089 7.36 33.64 11.71
3/25/2021 1:15:00 PM 9.67 49.406 0.089 7.37 51.13 11.68
3/25/2021 1:30:00 PM 9.77 49.586 0.089 7.37 36.48 11.64
3/25/2021 1:45:00 PM 9.88 49.784 0.089 7.38 49.84 11.62
3/25/2021 2:00:00 PM 9.98 49.964 0.09 7.39 35.02 11.62
3/25/2021 2:15:00 PM 10.09 50.162 0.09 7.39 32.21 11.6
3/25/2021 2:30:00 PM 10.18 50.324 0.089 7.41 32 11.54
3/25/2021 2:45:00 PM 10.24 50.432 0.09 7.41 29.61 11.53
3/25/2021 3:00:00 PM 10.31 50.558 0.089 7.42 52.81 11.5
3/25/2021 3:15:00 PM 10.4 50.72 0.09 7.42 44.87 11.47
3/25/2021 3:30:00 PM 10.44 50.792 0.089 7.43 50.44 11.44
3/25/2021 3:45:00 PM 10.49 50.882 0.09 7.44 34.51 11.41
3/25/2021 4:00:00 PM 10.55 50.99 0.089 7.44 50.38 11.38
3/25/2021 4:15:00 PM 10.6 51.08 0.089 7.44 44.62 11.34
3/25/2021 4:30:00 PM 10.66 51.188 0.089 7.43 38.79 11.31
3/25/2021 4:45:00 PM 10.72 51.296 0.089 7.43 34.89 11.27
3/25/2021 5:00:00 PM 10.76 51.368 0.09 7.44 33.52 11.24
3/25/2021 5:15:00 PM 10.82 51.476 0.09 7.43 40.29 11.22
3/25/2021 5:30:00 PM 10.87 51.566 0.09 7.42 33.38 11.18
3/25/2021 5:45:00 PM 10.92 51.656 0.09 7.41 40.34 11.13
3/25/2021 6:00:00 PM 10.94 51.692 0.09 7.4 34.97 11.08
3/25/2021 6:15:00 PM 10.97 51.746 0.09 7.39 45.57 11.03
3/25/2021 6:30:00 PM 11.01 51.818 0.09 7.39 50.36 10.97
3/25/2021 6:45:00 PM 11.05 51.89 0.09 7.37 32.09 10.92
3/25/2021 7:00:00 PM 11.09 51.962 0.09 7.35 34.56 10.87
3/25/2021 7:15:00 PM 11.12 52.016 0.09 7.35 45.73 10.81
3/25/2021 7:30:00 PM 11.14 52.052 0.09 7.33 34.36 10.77
3/25/2021 7:45:00 PM 11.15 52.07 0.09 7.33 40.87 10.74
3/25/2021 8:00:00 PM 11.18 52.124 0.09 7.31 52.2 10.71
3/25/2021 8:15:00 PM 11.2 52.16 0.09 7.29 31.31 10.7
3/25/2021 8:30:00 PM 11.22 52.196 0.09 7.28 43.5 10.69
3/25/2021 8:45:00 PM 11.24 52.232 0.09 7.28 44.72 10.66
3/25/2021 9:00:00 PM 11.26 52.268 0.09 7.29 39.18 10.65
3/25/2021 9:15:00 PM 11.29 52.322 0.09 7.27 32.8 10.64
3/25/2021 9:30:00 PM 11.32 52.376 0.09 7.27 52.86 10.62
3/25/2021 9:45:00 PM 11.36 52.448 0.09 7.27 51.87 10.61
3/25/2021 10:00:00 PM 11.39 52.502 0.09 7.27 32.4 10.59
3/25/2021 10:15:00 PM 11.42 52.556 0.09 7.26 49.86 10.58
3/25/2021 10:30:00 PM 11.42 52.556 0.09 7.27 38.69 10.55
3/25/2021 10:45:00 PM 11.47 52.646 0.09 7.26 47.31 10.55
3/25/2021 11:00:00 PM 11.49 52.682 0.09 7.27 36.23 10.53
3/25/2021 11:15:00 PM 11.51 52.718 0.09 7.26 48.7 10.51
3/25/2021 11:30:00 PM 11.52 52.736 0.09 7.26 46.81 10.5
3/25/2021 11:45:00 PM 11.55 52.79 0.09 7.26 37.52 10.48
3/26/2021 12:00:00 AM 11.58 52.844 0.09 7.26 49.21 10.46
3/26/2021 12:15:00 AM 11.6 52.88 0.09 7.25 56.03 10.45
3/26/2021 12:30:00 AM 11.62 52.916 0.09 7.25 36.86 10.44
3/26/2021 12:45:00 AM 11.65 52.97 0.09 7.25 47.8 10.42
3/26/2021 1:00:00 AM 11.7 53.06 0.09 7.25 46.36 10.4
3/26/2021 1:15:00 AM 11.73 53.114 0.09 7.25 52.86 10.39
3/26/2021 1:30:00 AM 11.75 53.15 0.09 7.24 34.46 10.36
3/26/2021 1:45:00 AM 11.79 53.222 0.09 7.24 40.12 10.36
3/26/2021 2:00:00 AM 11.81 53.258 0.09 7.24 40.52 10.34
3/26/2021 2:15:00 AM 11.84 53.312 0.09 7.24 37.33 10.32
3/26/2021 2:30:00 AM 11.85 53.33 0.09 7.24 38.22 10.31
3/26/2021 2:45:00 AM 11.86 53.348 0.09 7.24 44.56 10.31
3/26/2021 3:00:00 AM 11.88 53.384 0.09 7.23 43.12 10.3
3/26/2021 3:15:00 AM 11.9 53.42 0.09 7.23 36.4 10.28
3/26/2021 3:30:00 AM 11.92 53.456 0.091 7.23 50.71 10.29
3/26/2021 3:45:00 AM 11.93 53.474 0.091 7.22 39.53 10.29
3/26/2021 4:00:00 AM 11.94 53.492 0.091 7.23 40.51 10.26
3/26/2021 4:15:00 AM 11.95 53.51 0.091 7.23 39.53 10.26
3/26/2021 4:30:00 AM 11.94 53.492 0.091 7.23 39.75 10.26
3/26/2021 4:45:00 AM 11.95 53.51 0.091 7.22 50.66 10.27
3/26/2021 5:00:00 AM 11.95 53.51 0.091 7.22 41.46 10.25
3/26/2021 5:15:00 AM 11.91 53.438 0.091 7.22 36.41 10.24
3/26/2021 5:30:00 AM 11.92 53.456 0.091 7.22 49.47 10.23
3/26/2021 5:45:00 AM 11.87 53.366 0.091 7.23 55.72 10.24
3/26/2021 6:00:00 AM 11.85 53.33 0.091 7.22 41.72 10.25
3/26/2021 6:15:00 AM 11.82 53.276 0.092 7.22 39.79 10.24
3/26/2021 6:30:00 AM 11.78 53.204 0.092 7.22 35.03 10.26
3/26/2021 6:45:00 AM 11.77 53.186 0.092 7.22 34.2 10.26
3/26/2021 7:00:00 AM 11.76 53.168 0.092 7.22 54.99 10.27
3/26/2021 7:15:00 AM 11.72 53.096 0.092 7.22 51 10.26
3/26/2021 7:30:00 AM 11.71 53.078 0.092 7.21 55.42 10.29
3/26/2021 7:45:00 AM 11.69 53.042 0.092 7.22 45.68 10.31
3/26/2021 8:00:00 AM 11.67 53.006 0.092 7.24 44.43 10.35
3/26/2021 8:15:00 AM 11.65 52.97 0.092 7.23 40.71 10.38
3/26/2021 8:30:00 AM 11.67 53.006 0.092 7.25 32.7 10.42
3/26/2021 8:45:00 AM 11.67 53.006 0.092 7.26 49.81 10.47
3/26/2021 9:00:00 AM 11.69 53.042 0.092 7.28 57.59 10.5
3/26/2021 9:15:00 AM 11.73 53.114 0.093 7.29 47.3 10.53
3/26/2021 9:30:00 AM 11.8 53.24 0.093 7.3 46.62 10.59
3/26/2021 9:45:00 AM 11.87 53.366 0.093 7.31 43.4 10.63
3/26/2021 10:00:00 AM 11.96 53.528 0.093 7.33 43.44 10.66
3/26/2021 10:15:00 AM 11.99 53.582 0.093 7.34 53.24 10.64
3/26/2021 10:30:00 AM 12.1 53.78 0.093 7.36 35.99 10.69
3/26/2021 10:45:00 AM 12.15 53.87 0.093 7.38 54.8 10.71
3/26/2021 11:00:00 AM 12.14 53.852 0.093 7.38 49.54 10.66
3/26/2021 11:15:00 AM 12.25 54.05 0.094 7.38 54.55 10.7
3/26/2021 11:30:00 AM 12.4 54.32 0.094 7.4 40.7 10.72
3/26/2021 11:45:00 AM 12.49 54.482 0.094 7.41 57.19 10.74
3/26/2021 12:00:00 PM 12.59 54.662 0.094 7.42 40.02 10.74
3/26/2021 12:15:00 PM 12.76 54.968 0.094 7.44 54.14 10.75
3/26/2021 12:30:00 PM 12.76 54.968 0.094 7.45 54.23 10.74
3/26/2021 12:45:00 PM 12.7 54.86 0.094 7.46 38.89 10.73
3/26/2021 1:00:00 PM 12.6 54.68 0.094 7.46 47.55 10.7
3/26/2021 1:15:00 PM 12.62 54.716 0.094 7.48 39.64 10.73
3/26/2021 1:30:00 PM 12.59 54.662 0.094 7.48 39.46 10.74
3/26/2021 1:45:00 PM 12.77 54.986 0.094 7.48 61.92 10.77
3/26/2021 2:00:00 PM 12.74 54.932 0.095 7.49 55.38 10.76
3/26/2021 2:15:00 PM 12.82 55.076 0.095 7.5 50.93 10.75
3/26/2021 2:30:00 PM 12.8 55.04 0.095 7.51 48.69 10.74
3/26/2021 2:45:00 PM 12.81 55.058 0.095 7.51 40.64 10.73
3/26/2021 3:00:00 PM 12.8 55.04 0.095 7.52 52.22 10.72
3/26/2021 3:15:00 PM 12.74 54.932 0.095 7.52 52.54 10.64
3/26/2021 3:30:00 PM 12.72 54.896 0.095 7.51 53.98 10.66
3/26/2021 3:45:00 PM 12.67 54.806 0.095 7.5 46.05 10.64
3/26/2021 4:00:00 PM 12.68 54.824 0.095 7.5 34.93 10.66
3/26/2021 4:15:00 PM 12.65 54.77 0.095 7.49 40.21 10.63
3/26/2021 4:30:00 PM 12.63 54.734 0.095 7.49 54.46 10.62
3/26/2021 4:45:00 PM 12.6 54.68 0.095 7.47 38.35 10.58
3/26/2021 5:00:00 PM 12.56 54.608 0.095 7.46 45.23 10.56
3/26/2021 5:15:00 PM 12.51 54.518 0.095 7.46 53.09 10.51
3/26/2021 5:30:00 PM 12.5 54.5 0.095 7.44 53.99 10.51
3/26/2021 5:45:00 PM 12.5 54.5 0.095 7.43 50.21 10.49
3/26/2021 6:00:00 PM 12.47 54.446 0.095 7.42 47.82 10.45
3/26/2021 6:15:00 PM 12.45 54.41 0.095 7.41 54.83 10.43
3/26/2021 6:30:00 PM 12.42 54.356 0.095 7.41 58.24 10.4
3/26/2021 6:45:00 PM 12.43 54.374 0.095 7.39 65.36 10.39
3/26/2021 7:00:00 PM 12.41 54.338 0.095 7.38 50.39 10.34
3/26/2021 7:15:00 PM 12.4 54.32 0.095 7.37 50.95 10.34
3/26/2021 7:30:00 PM 12.36 54.248 0.095 7.37 47.51 10.32
3/26/2021 7:45:00 PM 12.34 54.212 0.095 7.35 47.81 10.31
3/26/2021 8:00:00 PM 12.32 54.176 0.095 7.35 46.31 10.3
3/26/2021 8:15:00 PM 12.3 54.14 0.095 7.34 45.84 10.29
3/26/2021 8:30:00 PM 12.28 54.104 0.095 7.32 58.6 10.31
3/26/2021 8:45:00 PM 12.26 54.068 0.095 7.33 40.13 10.29
3/26/2021 9:00:00 PM 12.21 53.978 0.095 7.32 45.01 10.31
3/26/2021 9:15:00 PM 12.17 53.906 0.095 7.32 57.12 10.32
3/26/2021 9:30:00 PM 12.14 53.852 0.095 7.32 49.34 10.31
3/26/2021 9:45:00 PM 12.11 53.798 0.095 7.31 37.86 10.34
3/26/2021 10:00:00 PM 12.09 53.762 0.095 7.31 48.93 10.32
3/26/2021 10:15:00 PM 12.06 53.708 0.095 7.31 43.24 10.33
3/26/2021 10:30:00 PM 12.03 53.654 0.095 7.3 52.64 10.32
3/26/2021 10:45:00 PM 12.01 53.618 0.095 7.29 41.62 10.34
3/26/2021 11:00:00 PM 11.97 53.546 0.095 7.3 52.36 10.34
3/26/2021 11:15:00 PM 11.92 53.456 0.095 7.3 46.86 10.33
3/26/2021 11:30:00 PM 11.89 53.402 0.095 7.29 42.26 10.36
3/26/2021 11:45:00 PM 11.85 53.33 0.094 7.28 44.88 10.37
3/27/2021 12:00:00 AM 11.82 53.276 0.094 7.28 43.79 10.37
3/27/2021 12:15:00 AM 11.77 53.186 0.094 7.27 56.82 10.37
3/27/2021 12:30:00 AM 11.73 53.114 0.094 7.28 43.29 10.37
3/27/2021 12:45:00 AM 11.67 53.006 0.094 7.28 53.59 10.38
3/27/2021 1:00:00 AM 11.63 52.934 0.094 7.27 47.81 10.38
3/27/2021 1:15:00 AM 11.6 52.88 0.094 7.28 43.43 10.39
3/27/2021 1:30:00 AM 11.57 52.826 0.094 7.27 53.68 10.4
3/27/2021 1:45:00 AM 11.55 52.79 0.094 7.27 58.89 10.4
3/27/2021 2:00:00 AM 11.53 52.754 0.095 7.26 50.46 10.41
3/27/2021 2:15:00 AM 11.51 52.718 0.095 7.26 48 10.41
3/27/2021 2:30:00 AM 11.48 52.664 0.095 7.26 44.48 10.41
3/27/2021 2:45:00 AM 11.47 52.646 0.095 7.26 37.52 10.41
3/27/2021 3:00:00 AM 11.45 52.61 0.095 7.25 48.93 10.42
3/27/2021 3:15:00 AM 11.42 52.556 0.095 7.25 47.11 10.42
3/27/2021 3:30:00 AM 11.41 52.538 0.095 7.25 48.69 10.43
3/27/2021 3:45:00 AM 11.38 52.484 0.095 7.25 40.83 10.42
3/27/2021 4:00:00 AM 11.36 52.448 0.095 7.24 60.53 10.43
3/27/2021 4:15:00 AM 11.34 52.412 0.095 7.24 54.72 10.44
3/27/2021 4:30:00 AM 11.29 52.322 0.095 7.24 45.47 10.44
3/27/2021 4:45:00 AM 11.27 52.286 0.095 7.25 46.67 10.41
3/27/2021 5:00:00 AM 11.23 52.214 0.095 7.23 49.11 10.46
3/27/2021 5:15:00 AM 11.19 52.142 0.095 7.24 46.35 10.47
3/27/2021 5:30:00 AM 11.14 52.052 0.095 7.24 54.43 10.48
3/27/2021 5:45:00 AM 11.11 51.998 0.095 7.24 39.01 10.47
3/27/2021 6:00:00 AM 11.06 51.908 0.095 7.24 41.21 10.5
3/27/2021 6:15:00 AM 11.01 51.818 0.095 7.24 43.5 10.51
3/27/2021 6:30:00 AM 10.96 51.728 0.095 7.24 49.41 10.5
3/27/2021 6:45:00 AM 10.92 51.656 0.095 7.24 54.04 10.52
3/27/2021 7:00:00 AM 10.88 51.584 0.095 7.23 46.27 10.57
3/27/2021 7:15:00 AM 10.84 51.512 0.095 7.23 43.83 10.58
3/27/2021 7:30:00 AM 10.8 51.44 0.095 7.24 43.88 10.59
3/27/2021 7:45:00 AM 10.76 51.368 0.095 7.24 46 10.64
3/27/2021 8:00:00 AM 10.73 51.314 0.095 7.25 56.97 10.69
3/27/2021 8:15:00 AM 10.7 51.26 0.095 7.25 52.88 10.74
3/27/2021 8:30:00 AM 10.68 51.224 0.095 7.26 51.3 10.8
3/27/2021 8:45:00 AM 10.68 51.224 0.095 7.28 56.64 10.88
3/27/2021 9:00:00 AM 10.67 51.206 0.095 7.29 47.4 10.97
3/27/2021 9:15:00 AM 10.67 51.206 0.095 7.31 52.24 11.02
3/27/2021 9:30:00 AM 10.68 51.224 0.096 7.32 44.83 11.06
3/27/2021 9:45:00 AM 10.67 51.206 0.096 7.33 43.29 11.1
3/27/2021 10:00:00 AM 10.75 51.35 0.096 7.35 47.78 11.13
3/27/2021 10:15:00 AM 10.74 51.332 0.096 7.36 44.49 11.14
3/27/2021 10:30:00 AM 10.83 51.494 0.096 7.38 50.85 11.17
3/27/2021 10:45:00 AM 10.84 51.512 0.096 7.4 56.33 11.18
3/27/2021 11:00:00 AM 10.84 51.512 0.096 7.4 45.05 11.24
3/27/2021 11:15:00 AM 10.82 51.476 0.096 7.42 39.64 11.24
3/27/2021 11:30:00 AM 10.85 51.53 0.096 7.43 54.45 11.27
3/27/2021 11:45:00 AM 10.95 51.71 0.096 7.44 48.8 11.27
3/27/2021 12:00:00 PM 10.99 51.782 0.096 7.45 41.48 11.28
3/27/2021 12:15:00 PM 11.06 51.908 0.097 7.46 47.28 11.28
3/27/2021 12:30:00 PM 11.25 52.25 0.097 7.47 57.96 11.29
3/27/2021 12:45:00 PM 11.37 52.466 0.097 7.48 44.38 11.3
3/27/2021 1:00:00 PM 11.5 52.7 0.097 7.49 52.77 11.27
3/27/2021 1:15:00 PM 11.55 52.79 0.097 7.5 47.46 11.27
3/27/2021 1:30:00 PM 11.66 52.988 0.097 7.51 46.51 11.27
3/27/2021 1:45:00 PM 11.65 52.97 0.097 7.52 38.33 11.26
3/27/2021 2:00:00 PM 11.66 52.988 0.097 7.53 41.64 11.26
3/27/2021 2:15:00 PM 11.75 53.15 0.097 7.54 40.32 11.24
3/27/2021 2:30:00 PM 11.8 53.24 0.097 7.55 43.73 11.24
3/27/2021 2:45:00 PM 11.83 53.294 0.097 7.55 47.74 11.21
3/27/2021 3:00:00 PM 11.84 53.312 0.098 7.56 50.56 11.24
3/27/2021 3:15:00 PM 11.9 53.42 0.098 7.57 39.84 11.23
3/27/2021 3:30:00 PM 11.89 53.402 0.098 7.58 51.63 11.21
3/27/2021 3:45:00 PM 11.86 53.348 0.098 7.58 44.74 11.19
3/27/2021 4:00:00 PM 11.84 53.312 0.098 7.58 53.29 11.18
3/27/2021 4:15:00 PM 11.81 53.258 0.098 7.58 48.14 11.14
3/27/2021 4:30:00 PM 11.79 53.222 0.098 7.58 38.23 11.15
3/27/2021 4:45:00 PM 11.77 53.186 0.098 7.57 42.48 11.14
3/27/2021 5:00:00 PM 11.75 53.15 0.098 7.57 58.93 11.11
3/27/2021 5:15:00 PM 11.75 53.15 0.098 7.57 51.12 11.07
3/27/2021 5:30:00 PM 11.73 53.114 0.098 7.56 43.66 11.05
3/27/2021 5:45:00 PM 11.73 53.114 0.098 7.55 42.87 11.04
3/27/2021 6:00:00 PM 11.71 53.078 0.098 7.55 47.71 10.99
3/27/2021 6:15:00 PM 11.68 53.024 0.098 7.54 47.62 10.95
3/27/2021 6:30:00 PM 11.67 53.006 0.098 7.52 57.3 10.93
3/27/2021 6:45:00 PM 11.64 52.952 0.098 7.51 44.72 10.86
3/27/2021 7:00:00 PM 11.64 52.952 0.098 7.48 40.89 10.8
3/27/2021 7:15:00 PM 11.62 52.916 0.098 7.46 45.73 10.73
3/27/2021 7:30:00 PM 11.59 52.862 0.098 7.44 42.7 10.64
3/27/2021 7:45:00 PM 11.58 52.844 0.099 7.43 46.58 10.6
3/27/2021 8:00:00 PM 11.57 52.826 0.099 7.4 38.32 10.57
3/27/2021 8:15:00 PM 11.55 52.79 0.099 7.38 50.33 10.55
3/27/2021 8:30:00 PM 11.54 52.772 0.099 7.37 50.9 10.52
3/27/2021 8:45:00 PM 11.51 52.718 0.099 7.36 58.56 10.52
3/27/2021 9:00:00 PM 11.5 52.7 0.099 7.36 54.5 10.51
3/27/2021 9:15:00 PM 11.47 52.646 0.099 7.34 60.5 10.5
3/27/2021 9:30:00 PM 11.44 52.592 0.099 7.34 40.31 10.51
3/27/2021 9:45:00 PM 11.41 52.538 0.099 7.34 50.44 10.51
3/27/2021 10:00:00 PM 11.38 52.484 0.098 7.33 58.3 10.52
3/27/2021 10:15:00 PM 11.34 52.412 0.099 7.33 45.69 10.51
3/27/2021 10:30:00 PM 11.31 52.358 0.099 7.32 45.75 10.5
3/27/2021 10:45:00 PM 11.29 52.322 0.099 7.32 55.19 10.51
3/27/2021 11:00:00 PM 11.26 52.268 0.098 7.32 49.42 10.5
3/27/2021 11:15:00 PM 11.23 52.214 0.098 7.31 41.36 10.5
3/27/2021 11:30:00 PM 11.2 52.16 0.098 7.31 52.79 10.49
3/27/2021 11:45:00 PM 11.17 52.106 0.098 7.31 57.56 10.48
3/28/2021 12:00:00 AM 11.14 52.052 0.098 7.31 51.24 10.49
3/28/2021 12:15:00 AM 11.11 51.998 0.098 7.3 50.99 10.5
3/28/2021 12:30:00 AM 11.08 51.944 0.098 7.29 40.95 10.49
3/28/2021 12:45:00 AM 11.04 51.872 0.098 7.3 40.33 10.52
3/28/2021 1:00:00 AM 11 51.8 0.098 7.29 59.99 10.51
3/28/2021 1:15:00 AM 10.96 51.728 0.098 7.3 48.57 10.52
3/28/2021 1:30:00 AM 10.92 51.656 0.098 7.29 66.35 10.48
3/28/2021 1:45:00 AM 10.87 51.566 0.098 7.28 49.59 10.51
3/28/2021 2:00:00 AM 10.83 51.494 0.098 7.28 42.75 10.53
3/28/2021 2:15:00 AM 10.77 51.386 0.098 7.28 55.93 10.53
3/28/2021 2:30:00 AM 10.73 51.314 0.098 7.28 50.74 10.53
3/28/2021 2:45:00 AM 10.69 51.242 0.098 7.28 43.03 10.55
3/28/2021 3:00:00 AM 10.64 51.152 0.098 7.28 49.88 10.55
3/28/2021 3:15:00 AM 10.6 51.08 0.098 7.27 66.29 10.55
3/28/2021 3:30:00 AM 10.56 51.008 0.098 7.27 42.08 10.55
3/28/2021 3:45:00 AM 10.52 50.936 0.098 7.27 42.96 10.54
3/28/2021 4:00:00 AM 10.49 50.882 0.098 7.27 64.39 10.55
3/28/2021 4:15:00 AM 10.46 50.828 0.098 7.27 58.39 10.55
3/28/2021 4:30:00 AM 10.43 50.774 0.098 7.25 61.12 10.58
3/28/2021 4:45:00 AM 10.39 50.702 0.098 7.27 57.78 10.57
3/28/2021 5:00:00 AM 10.38 50.684 0.098 7.26 63.36 10.57
3/28/2021 5:15:00 AM 10.35 50.63 0.098 7.26 49.36 10.55
3/28/2021 5:30:00 AM 10.35 50.63 0.098 7.26 40.33 10.56
3/28/2021 5:45:00 AM 10.36 50.648 0.098 7.26 48.66 10.56
3/28/2021 6:00:00 AM 10.36 50.648 0.099 7.26 53.75 10.57
3/28/2021 6:15:00 AM 10.37 50.666 0.099 7.26 50.58 10.55
3/28/2021 6:30:00 AM 10.37 50.666 0.099 7.26 44.98 10.54
3/28/2021 6:45:00 AM 10.37 50.666 0.099 7.26 44.23 10.54
3/28/2021 7:00:00 AM 10.38 50.684 0.099 7.26 60.11 10.54
3/28/2021 7:15:00 AM 10.38 50.684 0.099 7.26 43.19 10.52
3/28/2021 7:30:00 AM 10.39 50.702 0.099 7.26 43.52 10.54
3/28/2021 7:45:00 AM 10.4 50.72 0.099 7.26 53.25 10.54
3/28/2021 8:00:00 AM 10.4 50.72 0.099 7.26 51.77 10.56
3/28/2021 8:15:00 AM 10.41 50.738 0.099 7.26 52.06 10.57
3/28/2021 8:30:00 AM 10.41 50.738 0.099 7.27 60.07 10.56
3/28/2021 8:45:00 AM 10.4 50.72 0.099 7.27 52.55 10.57
3/28/2021 9:00:00 AM 10.39 50.702 0.099 7.27 51.26 10.61
3/28/2021 9:15:00 AM 10.4 50.72 0.099 7.28 47.99 10.66
3/28/2021 9:30:00 AM 10.39 50.702 0.099 7.28 54.81 10.67
3/28/2021 9:45:00 AM 10.39 50.702 0.099 7.29 51 10.71
3/28/2021 10:00:00 AM 10.38 50.684 0.099 7.3 50.95 10.74
3/28/2021 10:15:00 AM 10.39 50.702 0.099 7.31 51.27 10.8
3/28/2021 10:30:00 AM 10.38 50.684 0.099 7.33 46.08 10.84
3/28/2021 10:45:00 AM 10.4 50.72 0.099 7.33 51.04 10.92
3/28/2021 11:00:00 AM 10.41 50.738 0.099 7.36 43.75 10.93
3/28/2021 11:15:00 AM 10.44 50.792 0.099 7.37 50.11 11.01
3/28/2021 11:30:00 AM 10.51 50.918 0.099 7.39 45.19 11.06
3/28/2021 11:45:00 AM 10.54 50.972 0.099 7.41 61.21 11.09
3/28/2021 12:00:00 PM 10.56 51.008 0.099 7.42 51.03 11.1
3/28/2021 12:15:00 PM 10.58 51.044 0.099 7.43 40.95 11.12
3/28/2021 12:30:00 PM 10.59 51.062 0.099 7.43 43.84 11.09
3/28/2021 12:45:00 PM 10.62 51.116 0.099 7.44 49.88 11.1
3/28/2021 1:00:00 PM 10.64 51.152 0.099 7.46 58.59 11.11
3/28/2021 1:15:00 PM 10.64 51.152 0.099 7.46 61.2 11.09
3/28/2021 1:30:00 PM 10.64 51.152 0.099 7.47 50.92 11.12
3/28/2021 1:45:00 PM 10.69 51.242 0.099 7.47 49.88 11.15
3/28/2021 2:00:00 PM 10.71 51.278 0.099 7.49 60.11 11.12
3/28/2021 2:15:00 PM 10.7 51.26 0.1 7.49 58.8 11.1
3/28/2021 2:30:00 PM 10.71 51.278 0.1 7.5 56.43 11.1
3/28/2021 2:45:00 PM 10.73 51.314 0.1 7.51 51.88 11.13
3/28/2021 3:00:00 PM 10.76 51.368 0.1 7.52 56.39 11.13
3/28/2021 3:15:00 PM 10.81 51.458 0.1 7.52 52.19 11.16
3/28/2021 3:30:00 PM 10.9 51.62 0.1 7.54 54.89 11.17
3/28/2021 3:45:00 PM 10.99 51.782 0.1 7.55 52.52 11.14
3/28/2021 4:00:00 PM 11.07 51.926 0.1 7.55 51.85 11.17
3/28/2021 4:15:00 PM 11.12 52.016 0.1 7.57 49.2 11.16
3/28/2021 4:30:00 PM 11.11 51.998 0.1 7.57 44.66 11.1
3/28/2021 4:45:00 PM 11.07 51.926 0.1 7.56 59.36 10.98
3/28/2021 5:00:00 PM 11 51.8 0.101 7.54 52.47 10.88
3/28/2021 5:15:00 PM 10.94 51.692 0.1 7.51 62.42 10.77
3/28/2021 5:30:00 PM 10.9 51.62 0.1 7.48 65.68 10.72
3/28/2021 5:45:00 PM 10.87 51.566 0.1 7.47 53.61 10.74
3/28/2021 6:00:00 PM 10.85 51.53 0.1 7.44 76 10.65
3/28/2021 6:15:00 PM 10.8 51.44 0.101 7.43 49.02 10.66
3/28/2021 6:30:00 PM 10.76 51.368 0.101 7.42 50.92 10.66
3/28/2021 6:45:00 PM 10.7 51.26 0.101 7.42 53.73 10.68
3/28/2021 7:00:00 PM 10.64 51.152 0.101 7.41 62.68 10.67
3/28/2021 7:15:00 PM 10.59 51.062 0.101 7.4 60.29 10.66
3/28/2021 7:30:00 PM 10.54 50.972 0.101 7.4 48.8 10.66
3/28/2021 7:45:00 PM 10.49 50.882 0.101 7.38 54.57 10.65
3/28/2021 8:00:00 PM 10.45 50.81 0.101 7.38 66.77 10.63
3/28/2021 8:15:00 PM 10.42 50.756 0.102 7.37 56.23 10.63
3/28/2021 8:30:00 PM 10.39 50.702 0.102 7.36 53.09 10.65
3/28/2021 8:45:00 PM 10.34 50.612 0.102 7.36 54.52 10.65
3/28/2021 9:00:00 PM 10.31 50.558 0.102 7.36 44.96 10.65
3/28/2021 9:15:00 PM 10.28 50.504 0.102 7.36 46.83 10.64
3/28/2021 9:30:00 PM 10.27 50.486 0.102 7.36 58.17 10.68
3/28/2021 9:45:00 PM 10.24 50.432 0.102 7.35 54.67 10.67
3/28/2021 10:00:00 PM 10.22 50.396 0.102 7.35 50.06 10.68
3/28/2021 10:15:00 PM 10.18 50.324 0.102 7.35 57.9 10.69
3/28/2021 10:30:00 PM 10.17 50.306 0.102 7.35 44.92 10.69
3/28/2021 10:45:00 PM 10.13 50.234 0.102 7.35 49.65 10.71
3/28/2021 11:00:00 PM 10.09 50.162 0.102 7.34 59.29 10.71
3/28/2021 11:15:00 PM 10.05 50.09 0.102 7.34 48.51 10.73
3/28/2021 11:30:00 PM 10.02 50.036 0.101 7.34 50.6 10.75
3/28/2021 11:45:00 PM 9.96 49.928 0.101 7.33 46.13 10.75
3/29/2021 12:00:00 AM 9.92 49.856 0.101 7.33 49.22 10.76
3/29/2021 12:15:00 AM 9.9 49.82 0.101 7.33 42.32 10.75
3/29/2021 12:30:00 AM 9.87 49.766 0.101 7.33 49.39 10.77
3/29/2021 12:45:00 AM 9.84 49.712 0.101 7.33 43.62 10.78
3/29/2021 1:00:00 AM 9.8 49.64 0.101 7.32 56.58 10.8
3/29/2021 1:15:00 AM 9.75 49.55 0.101 7.33 58.9 10.8
3/29/2021 1:30:00 AM 9.67 49.406 0.101 7.31 47.68 10.82
3/29/2021 1:45:00 AM 9.59 49.262 0.101 7.31 71.82 10.84
3/29/2021 2:00:00 AM 9.51 49.118 0.101 7.31 55.89 10.83
3/29/2021 2:15:00 AM 9.44 48.992 0.101 7.3 50.56 10.86
3/29/2021 2:30:00 AM 9.37 48.866 0.101 7.31 53.37 10.87
3/29/2021 2:45:00 AM 9.32 48.776 0.101 7.31 55.52 10.86
3/29/2021 3:00:00 AM 9.26 48.668 0.101 7.3 57.58 10.88
3/29/2021 3:15:00 AM 9.22 48.596 0.101 7.3 54.15 10.9
3/29/2021 3:30:00 AM 9.17 48.506 0.101 7.3 55.64 10.9
3/29/2021 3:45:00 AM 9.12 48.416 0.101 7.3 63.49 10.91
3/29/2021 4:00:00 AM 9.07 48.326 0.101 7.3 42.97 10.92
3/29/2021 4:15:00 AM 9.01 48.218 0.101 7.29 62.03 10.94
3/29/2021 4:30:00 AM 8.97 48.146 0.101 7.3 41.1 10.95
3/29/2021 4:45:00 AM 8.92 48.056 0.1 7.29 63.79 10.97
3/29/2021 5:00:00 AM 8.89 48.002 0.1 7.29 67.14 10.98
3/29/2021 5:15:00 AM 8.85 47.93 0.1 7.29 65.51 11.01
3/29/2021 5:30:00 AM 8.8 47.84 0.1 7.29 64.51 11.02
3/29/2021 5:45:00 AM 8.76 47.768 0.1 7.28 66.66 11.04
3/29/2021 6:00:00 AM 8.71 47.678 0.1 7.29 52.32 11.04
3/29/2021 6:15:00 AM 8.67 47.606 0.1 7.28 46.36 11.06
3/29/2021 6:30:00 AM 8.62 47.516 0.1 7.29 46.83 11.06
3/29/2021 6:45:00 AM 8.58 47.444 0.1 7.27 68.17 11.1
3/29/2021 7:00:00 AM 8.53 47.354 0.1 7.25 51.99 11.11
3/29/2021 7:15:00 AM 8.46 47.228 0.1 7.24 63.31 11.13
3/29/2021 7:30:00 AM 8.39 47.102 0.1 7.24 59.39 11.17
3/29/2021 7:45:00 AM 8.33 46.994 0.1 7.24 57.33 11.22
3/29/2021 8:00:00 AM 8.27 46.886 0.1 7.25 60.3 11.27
3/29/2021 8:15:00 AM 8.21 46.778 0.1 7.26 69.05 11.28
3/29/2021 8:30:00 AM 8.15 46.67 0.1 7.26 58.22 11.34
3/29/2021 8:45:00 AM 8.1 46.58 0.1 7.26 52.17 11.35
3/29/2021 9:00:00 AM 8.04 46.472 0.1 7.26 53.15 11.4
3/29/2021 9:15:00 AM 7.97 46.346 0.1 7.27 60.05 11.42
3/29/2021 9:30:00 AM 7.92 46.256 0.1 7.27 58.25 11.47
3/29/2021 9:45:00 AM 7.88 46.184 0.1 7.28 64.72 11.56
3/29/2021 10:00:00 AM 7.86 46.148 0.1 7.3 57.33 11.62
3/29/2021 10:15:00 AM 7.86 46.148 0.1 7.32 60.67 11.7
3/29/2021 10:30:00 AM 7.86 46.148 0.1 7.33 60.94 11.74
3/29/2021 10:45:00 AM 7.87 46.166 0.1 7.35 63.09 11.79
3/29/2021 11:00:00 AM 7.85 46.13 0.1 7.36 45.81 11.84
3/29/2021 11:15:00 AM 7.9 46.22 0.1 7.38 53.97 11.88
3/29/2021 11:30:00 AM 7.95 46.31 0.1 7.39 61.26 11.93
3/29/2021 11:45:00 AM 7.99 46.382 0.1 7.41 51.12 11.95
3/29/2021 12:00:00 PM 8.11 46.598 0.099 7.42 59.43 11.96
3/29/2021 12:15:00 PM 8.14 46.652 0.099 7.43 45.57 11.96
3/29/2021 12:30:00 PM 8.34 47.012 0.099 7.44 51.95 11.97
3/29/2021 12:45:00 PM 8.46 47.228 0.099 7.45 51.9 11.98
3/29/2021 1:00:00 PM 8.64 47.552 0.099 7.47 59.1 11.98
3/29/2021 1:15:00 PM 8.78 47.804 0.099 7.48 46.39 11.97
3/29/2021 1:30:00 PM 8.83 47.894 0.098 7.48 66.18 11.95
3/29/2021 1:45:00 PM 8.92 48.056 0.098 7.5 74.17 11.92
3/29/2021 2:00:00 PM 8.98 48.164 0.098 7.5 76.05 11.92
3/29/2021 2:15:00 PM 9.02 48.236 0.098 7.5 48.56 11.91
3/29/2021 2:30:00 PM 9.05 48.29 0.098 7.52 60.92 11.9
3/29/2021 2:45:00 PM 9.08 48.344 0.098 7.52 62.45 11.9
3/29/2021 3:00:00 PM 9.08 48.344 0.098 7.53 64.33 11.87
3/29/2021 3:15:00 PM 9.07 48.326 0.098 7.53 51.88 11.88
3/29/2021 3:30:00 PM 9.04 48.272 0.098 7.53 69.28 11.86
3/29/2021 3:45:00 PM 9.01 48.218 0.098 7.53 53.09 11.86
3/29/2021 4:00:00 PM 8.97 48.146 0.098 7.53 57.35 11.86
3/29/2021 4:15:00 PM 8.92 48.056 0.098 7.53 57.37 11.85
3/29/2021 4:30:00 PM 8.88 47.984 0.098 7.53 59.54 11.84
3/29/2021 4:45:00 PM 8.85 47.93 0.098 7.52 65.75 11.83
3/29/2021 5:00:00 PM 8.81 47.858 0.098 7.53 48.73 11.8
3/29/2021 5:15:00 PM 8.77 47.786 0.098 7.51 60.61 11.82
3/29/2021 5:30:00 PM 8.74 47.732 0.098 7.52 68.37 11.79
3/29/2021 5:45:00 PM 8.69 47.642 0.098 7.51 62.81 11.75
3/29/2021 6:00:00 PM 8.64 47.552 0.098 7.5 67.43 11.73
3/29/2021 6:15:00 PM 8.6 47.48 0.098 7.49 47.69 11.7
3/29/2021 6:30:00 PM 8.56 47.408 0.098 7.47 46.4 11.68
3/29/2021 6:45:00 PM 8.5 47.3 0.098 7.46 60.85 11.64
3/29/2021 7:00:00 PM 8.45 47.21 0.098 7.45 59.09 11.62
3/29/2021 7:15:00 PM 8.41 47.138 0.098 7.44 72.61 11.59
3/29/2021 7:30:00 PM 8.36 47.048 0.098 7.43 52.18 11.55
3/29/2021 7:45:00 PM 8.32 46.976 0.098 7.41 58.42 11.54
3/29/2021 8:00:00 PM 8.27 46.886 0.098 7.4 54.47 11.51
3/29/2021 8:15:00 PM 8.22 46.796 0.099 7.39 52.26 11.51
3/29/2021 8:30:00 PM 8.17 46.706 0.099 7.38 63.79 11.52
3/29/2021 8:45:00 PM 8.13 46.634 0.099 7.38 62.68 11.52
3/29/2021 9:00:00 PM 8.08 46.544 0.099 7.37 67.64 11.54
3/29/2021 9:15:00 PM 8.03 46.454 0.099 7.36 62.59 11.53
3/29/2021 9:30:00 PM 8 46.4 0.099 7.36 43.32 11.53
3/29/2021 9:45:00 PM 7.95 46.31 0.099 7.36 61.64 11.53
3/29/2021 10:00:00 PM 7.92 46.256 0.099 7.35 54.74 11.56
3/29/2021 10:15:00 PM 7.87 46.166 0.099 7.34 66.19 11.54
3/29/2021 10:30:00 PM 7.82 46.076 0.099 7.34 70.5 11.55
3/29/2021 10:45:00 PM 7.78 46.004 0.099 7.35 61.8 11.56
3/29/2021 11:00:00 PM 7.74 45.932 0.099 7.34 62.2 11.57
3/29/2021 11:15:00 PM 7.7 45.86 0.099 7.34 64.67 11.58
3/29/2021 11:30:00 PM 7.65 45.77 0.099 7.33 60.31 11.58
3/29/2021 11:45:00 PM 7.62 45.716 0.099 7.33 49.18 11.58
3/30/2021 12:00:00 AM 7.58 45.644 0.099 7.33 70.6 11.59
3/30/2021 12:15:00 AM 7.54 45.572 0.099 7.32 52.77 11.58
3/30/2021 12:30:00 AM 7.5 45.5 0.099 7.32 59.36 11.6
3/30/2021 12:45:00 AM 7.46 45.428 0.099 7.31 58.93 11.59
3/30/2021 1:00:00 AM 7.42 45.356 0.099 7.31 53.44 11.59
3/30/2021 1:15:00 AM 7.38 45.284 0.099 7.3 52.45 11.59
3/30/2021 1:30:00 AM 7.33 45.194 0.099 7.3 53.44 11.62
3/30/2021 1:45:00 AM 7.27 45.086 0.099 7.29 72.24 11.62
3/30/2021 2:00:00 AM 7.23 45.014 0.099 7.29 67.89 11.62
3/30/2021 2:15:00 AM 7.17 44.906 0.099 7.29 66.63 11.64
3/30/2021 2:30:00 AM 7.12 44.816 0.099 7.28 45.75 11.64
3/30/2021 2:45:00 AM 7.06 44.708 0.099 7.28 46.9 11.66
3/30/2021 3:00:00 AM 7.01 44.618 0.099 7.27 40.63 11.67
3/30/2021 3:15:00 AM 6.94 44.492 0.099 7.27 63.2 11.72
3/30/2021 3:30:00 AM 6.89 44.402 0.099 7.27 62.31 11.71
3/30/2021 3:45:00 AM 6.83 44.294 0.099 7.26 62.51 11.71
3/30/2021 4:00:00 AM 6.76 44.168 0.099 7.26 57.05 11.73
3/30/2021 4:15:00 AM 6.7 44.06 0.099 7.25 64.35 11.76
3/30/2021 4:30:00 AM 6.64 43.952 0.1 7.24 42.88 11.78
3/30/2021 4:45:00 AM 6.58 43.844 0.1 7.25 64.33 11.78
3/30/2021 5:00:00 AM 6.52 43.736 0.1 7.25 49.22 11.79
3/30/2021 5:15:00 AM 6.45 43.61 0.1 7.24 70.17 11.81
3/30/2021 5:30:00 AM 6.4 43.52 0.1 7.24 45.26 11.83
3/30/2021 5:45:00 AM 6.35 43.43 0.1 7.24 62.61 11.84
3/30/2021 6:00:00 AM 6.29 43.322 0.1 7.24 70.6 11.85
3/30/2021 6:15:00 AM 6.24 43.232 0.1 7.23 60.91 11.86
3/30/2021 6:30:00 AM 6.19 43.142 0.1 7.23 45.64 11.89
3/30/2021 6:45:00 AM 6.14 43.052 0.1 7.23 45.71 11.9
3/30/2021 7:00:00 AM 6.11 42.998 0.1 7.23 51.94 11.91
3/30/2021 7:15:00 AM 6.06 42.908 0.1 7.23 68.85 11.93
3/30/2021 7:30:00 AM 6.03 42.854 0.1 7.24 66.08 11.99
3/30/2021 7:45:00 AM 6 42.8 0.1 7.25 43.51 12.02
3/30/2021 8:00:00 AM 5.98 42.764 0.1 7.25 57.05 12.05
3/30/2021 8:15:00 AM 5.96 42.728 0.1 7.26 66.89 12.08
3/30/2021 8:30:00 AM 5.95 42.71 0.1 7.27 53.95 12.14
3/30/2021 8:45:00 AM 5.96 42.728 0.1 7.28 62.39 12.17
3/30/2021 9:00:00 AM 6.02 42.836 0.1 7.29 63.55 12.24
3/30/2021 9:15:00 AM 6.09 42.962 0.1 7.3 52.19 12.26
3/30/2021 9:30:00 AM 6.18 43.124 0.1 7.31 45.88 12.32
3/30/2021 9:45:00 AM 6.3 43.34 0.1 7.33 65.91 12.32
3/30/2021 10:00:00 AM 6.44 43.592 0.1 7.34 64.72 12.36
3/30/2021 10:15:00 AM 6.6 43.88 0.1 7.36 46.78 12.36
3/30/2021 10:30:00 AM 6.76 44.168 0.1 7.37 62.69 12.35
3/30/2021 10:45:00 AM 6.92 44.456 0.1 7.39 66.15 12.36
3/30/2021 11:00:00 AM 7.12 44.816 0.1 7.4 67.32 12.35
3/30/2021 11:15:00 AM 7.31 45.158 0.1 7.42 62.42 12.32
3/30/2021 11:30:00 AM 7.51 45.518 0.1 7.43 57.76 12.32
3/30/2021 11:45:00 AM 7.69 45.842 0.1 7.45 71.53 12.28
3/30/2021 12:00:00 PM 7.89 46.202 0.1 7.46 68.93 12.27
3/30/2021 12:15:00 PM 8.12 46.616 0.1 7.47 67.45 12.24
3/30/2021 12:30:00 PM 8.3 46.94 0.1 7.48 74.11 12.22
3/30/2021 12:45:00 PM 8.47 47.246 0.1 7.49 54.01 12.17
3/30/2021 1:00:00 PM 8.67 47.606 0.1 7.5 56.07 12.16
3/30/2021 1:15:00 PM 8.79 47.822 0.1 7.51 68.15 12.13
3/30/2021 1:30:00 PM 8.86 47.948 0.1 7.53 71.57 12.08
3/30/2021 1:45:00 PM 9.03 48.254 0.1 7.53 66.91 12.06
3/30/2021 2:00:00 PM 9.11 48.398 0.101 7.54 45.92 12.04
3/30/2021 2:15:00 PM 9.18 48.524 0.101 7.55 66.95 12.02
3/30/2021 2:30:00 PM 9.23 48.614 0.101 7.56 61.85 12.02
3/30/2021 2:45:00 PM 9.26 48.668 0.101 7.55 67.47 11.99
3/30/2021 3:00:00 PM 9.28 48.704 0.101 7.56 68.49 11.98
3/30/2021 3:15:00 PM 9.26 48.668 0.101 7.57 56.26 11.96
3/30/2021 3:30:00 PM 9.25 48.65 0.101 7.58 68.64 11.95
3/30/2021 3:45:00 PM 9.23 48.614 0.101 7.58 61.83 11.94
3/30/2021 4:00:00 PM 9.2 48.56 0.101 7.58 45.88 11.93
3/30/2021 4:15:00 PM 9.18 48.524 0.101 7.58 57.57 11.9
3/30/2021 4:30:00 PM 9.15 48.47 0.101 7.58 59.76 11.91
3/30/2021 4:45:00 PM 9.14 48.452 0.101 7.58 63.07 11.88
3/30/2021 5:00:00 PM 9.11 48.398 0.102 7.57 69 11.87
3/30/2021 5:15:00 PM 9.08 48.344 0.102 7.58 70.3 11.83
3/30/2021 5:30:00 PM 9.04 48.272 0.102 7.56 61.82 11.8
3/30/2021 5:45:00 PM 9.05 48.29 0.102 7.57 67.28 11.8
3/30/2021 6:00:00 PM 9.03 48.254 0.102 7.56 59.13 11.75
3/30/2021 6:15:00 PM 9.02 48.236 0.102 7.56 51.79 11.71
3/30/2021 6:30:00 PM 9.01 48.218 0.102 7.55 46 11.66
3/30/2021 6:45:00 PM 9 48.2 0.102 7.53 63.02 11.62
3/30/2021 7:00:00 PM 8.97 48.146 0.102 7.52 62.71 11.52
3/30/2021 7:15:00 PM 8.95 48.11 0.102 7.5 62.82 11.47
3/30/2021 7:30:00 PM 8.93 48.074 0.102 7.48 56.86 11.4
3/30/2021 7:45:00 PM 8.92 48.056 0.102 7.47 59.28 11.36
3/30/2021 8:00:00 PM 8.91 48.038 0.103 7.45 60.38 11.33
3/30/2021 8:15:00 PM 8.91 48.038 0.103 7.44 44.93 11.28
3/30/2021 8:30:00 PM 8.91 48.038 0.103 7.43 68.23 11.25
3/30/2021 8:45:00 PM 8.92 48.056 0.103 7.42 65.33 11.25
3/30/2021 9:00:00 PM 8.93 48.074 0.103 7.41 45.58 11.24
3/30/2021 9:15:00 PM 8.95 48.11 0.103 7.41 59.52 11.21
3/30/2021 9:30:00 PM 8.96 48.128 0.103 7.4 49.19 11.19
3/30/2021 9:45:00 PM 8.97 48.146 0.103 7.39 64.82 11.19
3/30/2021 10:00:00 PM 8.98 48.164 0.103 7.39 63.89 11.17
3/30/2021 10:15:00 PM 9.01 48.218 0.103 7.38 52.47 11.19
3/30/2021 10:30:00 PM 9.01 48.218 0.103 7.38 67.88 11.16
3/30/2021 10:45:00 PM 9.03 48.254 0.103 7.38 42.11 11.16
3/30/2021 11:00:00 PM 9.04 48.272 0.103 7.38 62.6 11.14
3/30/2021 11:15:00 PM 9.04 48.272 0.103 7.38 59.41 11.12
3/30/2021 11:30:00 PM 9.05 48.29 0.103 7.37 43.8 11.12
3/30/2021 11:45:00 PM 9.05 48.29 0.103 7.37 53.44 11.12
3/31/2021 12:00:00 AM 9.05 48.29 0.103 7.37 47.95 11.11
3/31/2021 12:15:00 AM 9.05 48.29 0.103 7.36 59.12 11.11
3/31/2021 12:30:00 AM 9.04 48.272 0.103 7.36 77.29 11.09
3/31/2021 12:45:00 AM 9.03 48.254 0.103 7.36 62.04 11.1
3/31/2021 1:00:00 AM 9.02 48.236 0.103 7.35 63.46 11.08
3/31/2021 1:15:00 AM 9.02 48.236 0.103 7.35 61.01 11.09
3/31/2021 1:30:00 AM 9 48.2 0.103 7.35 66.15 11.09
3/31/2021 1:45:00 AM 8.99 48.182 0.103 7.35 62.42 11.08
3/31/2021 2:00:00 AM 8.97 48.146 0.103 7.34 59 11.08
3/31/2021 2:15:00 AM 8.96 48.128 0.103 7.34 66.98 11.08
3/31/2021 2:30:00 AM 8.93 48.074 0.103 7.34 63.69 11.05
3/31/2021 2:45:00 AM 8.9 48.02 0.103 7.33 50.89 11.06
3/31/2021 3:00:00 AM 8.88 47.984 0.103 7.33 52.19 11.04
3/31/2021 3:15:00 AM 8.86 47.948 0.103 7.32 56.95 11.06
3/31/2021 3:30:00 AM 8.83 47.894 0.103 7.33 44.71 11.04
3/31/2021 3:45:00 AM 8.8 47.84 0.103 7.32 52.65 11.07
3/31/2021 4:00:00 AM 8.77 47.786 0.103 7.32 63.55 11.09
3/31/2021 4:15:00 AM 8.74 47.732 0.103 7.31 62.93 11.07
3/31/2021 4:30:00 AM 8.72 47.696 0.103 7.31 61.62 11.09
3/31/2021 4:45:00 AM 8.69 47.642 0.103 7.31 57.45 11.06
3/31/2021 5:00:00 AM 8.66 47.588 0.103 7.31 64.85 11.07
3/31/2021 5:15:00 AM 8.64 47.552 0.103 7.31 67.76 11.06
3/31/2021 5:30:00 AM 8.61 47.498 0.103 7.3 45.73 11.07
3/31/2021 5:45:00 AM 8.58 47.444 0.103 7.3 64.41 11.07
3/31/2021 6:00:00 AM 8.55 47.39 0.103 7.3 67.34 11.09
3/31/2021 6:15:00 AM 8.54 47.372 0.103 7.3 55.77 11.08
3/31/2021 6:30:00 AM 8.53 47.354 0.103 7.3 49.76 11.08
3/31/2021 6:45:00 AM 8.53 47.354 0.103 7.31 64.18 11.08
3/31/2021 7:00:00 AM 8.53 47.354 0.103 7.3 49.46 11.1
3/31/2021 7:15:00 AM 8.54 47.372 0.103 7.29 42.56 11.11
3/31/2021 7:30:00 AM 8.55 47.39 0.103 7.3 48.54 11.11
3/31/2021 7:45:00 AM 8.57 47.426 0.103 7.31 51.72 11.16
3/31/2021 8:00:00 AM 8.6 47.48 0.103 7.32 62.26 11.22
3/31/2021 8:15:00 AM 8.62 47.516 0.103 7.32 50.43 11.26
3/31/2021 8:30:00 AM 8.65 47.57 0.103 7.34 45.31 11.36
3/31/2021 8:45:00 AM 8.69 47.642 0.103 7.35 69.35 11.39
3/31/2021 9:00:00 AM 8.73 47.714 0.103 7.37 66.02 11.45
3/31/2021 9:15:00 AM 8.77 47.786 0.103 7.38 46.09 11.47
3/31/2021 9:30:00 AM 8.81 47.858 0.103 7.39 46.97 11.52
3/31/2021 9:45:00 AM 8.86 47.948 0.103 7.41 52.48 11.47
3/31/2021 10:00:00 AM 8.91 48.038 0.103 7.42 47.98 11.49
3/31/2021 10:15:00 AM 8.97 48.146 0.103 7.43 48.48 11.55
3/31/2021 10:30:00 AM 9.02 48.236 0.103 7.44 60.99 11.58
3/31/2021 10:45:00 AM 9.05 48.29 0.103 7.45 50.37 11.53
3/31/2021 11:00:00 AM 9.12 48.416 0.103 7.46 47.68 11.54